<?xml version="1.0" encoding="UTF-8" standalone="no" ?>
<gpx xmlns="http://www.topografix.com/GPX/1/1" xmlns:xsi="http://www.w3.org/2001/XMLSchema-instance" xsi:schemaLocation="http://www.topografix.com/GPX/1/1 http://www.topografix.com/GPX/1/1/gpx.xsd" version="1.1" creator="VisuGPX - https://www.visugpx.com">
  <metadata>
    <name>Tour Frangy-Clermont-Sillingy-Ferrières.</name>
    <desc><![CDATA[Circuit partant de St Martin Bellevue "randonnée des chateaux"]]></desc>
  </metadata>
  <trk>
    <name><![CDATA[8697520-Autour de Sallenoves]]></name>
    <trkseg>
      <trkpt lat="45.9792" lon="6.14326">
        <ele>726</ele>
        <time>2018-05-23T14:29:31Z</time>
      </trkpt>
      <trkpt lat="45.97925" lon="6.14338">
        <ele>727</ele>
        <time>2018-05-23T14:30:31Z</time>
      </trkpt>
      <trkpt lat="45.98103" lon="6.14217">
        <ele>736</ele>
        <time>2018-05-23T14:31:31Z</time>
      </trkpt>
      <trkpt lat="45.98169" lon="6.14197">
        <ele>738</ele>
        <time>2018-05-23T14:32:31Z</time>
      </trkpt>
      <trkpt lat="45.98258" lon="6.14181">
        <ele>739</ele>
        <time>2018-05-23T14:33:31Z</time>
      </trkpt>
      <trkpt lat="45.98295" lon="6.14178">
        <ele>738</ele>
        <time>2018-05-23T14:34:31Z</time>
      </trkpt>
      <trkpt lat="45.98322" lon="6.14183">
        <ele>738</ele>
        <time>2018-05-23T14:35:31Z</time>
      </trkpt>
      <trkpt lat="45.98457" lon="6.14226">
        <ele>742</ele>
        <time>2018-05-23T14:36:31Z</time>
      </trkpt>
      <trkpt lat="45.98492" lon="6.14221">
        <ele>739</ele>
        <time>2018-05-23T14:37:31Z</time>
      </trkpt>
      <trkpt lat="45.98533" lon="6.14207">
        <ele>736</ele>
        <time>2018-05-23T14:38:31Z</time>
      </trkpt>
      <trkpt lat="45.98551" lon="6.14194">
        <ele>734</ele>
        <time>2018-05-23T14:39:31Z</time>
      </trkpt>
      <trkpt lat="45.98551" lon="6.14194">
        <ele>734</ele>
        <time>2018-05-23T14:40:31Z</time>
      </trkpt>
      <trkpt lat="45.98561" lon="6.14186">
        <ele>734</ele>
        <time>2018-05-23T14:41:31Z</time>
      </trkpt>
      <trkpt lat="45.98585" lon="6.14159">
        <ele>733</ele>
        <time>2018-05-23T14:42:31Z</time>
      </trkpt>
      <trkpt lat="45.98644" lon="6.14068">
        <ele>733</ele>
        <time>2018-05-23T14:43:31Z</time>
      </trkpt>
      <trkpt lat="45.9866" lon="6.14048">
        <ele>733</ele>
        <time>2018-05-23T14:44:31Z</time>
      </trkpt>
      <trkpt lat="45.98743" lon="6.13976">
        <ele>731</ele>
        <time>2018-05-23T14:45:31Z</time>
      </trkpt>
      <trkpt lat="45.98762" lon="6.13967">
        <ele>732</ele>
        <time>2018-05-23T14:46:31Z</time>
      </trkpt>
      <trkpt lat="45.98774" lon="6.13954">
        <ele>731</ele>
        <time>2018-05-23T14:47:31Z</time>
      </trkpt>
      <trkpt lat="45.9895" lon="6.13805">
        <ele>726</ele>
        <time>2018-05-23T14:48:31Z</time>
      </trkpt>
      <trkpt lat="45.98978" lon="6.13787">
        <ele>726</ele>
        <time>2018-05-23T14:49:31Z</time>
      </trkpt>
      <trkpt lat="45.99008" lon="6.13777">
        <ele>727</ele>
        <time>2018-05-23T14:50:31Z</time>
      </trkpt>
      <trkpt lat="45.99047" lon="6.13778">
        <ele>728</ele>
        <time>2018-05-23T14:51:31Z</time>
      </trkpt>
      <trkpt lat="45.99366" lon="6.13822">
        <ele>722</ele>
        <time>2018-05-23T14:52:31Z</time>
      </trkpt>
      <trkpt lat="45.9949" lon="6.13843">
        <ele>718</ele>
        <time>2018-05-23T14:53:31Z</time>
      </trkpt>
      <trkpt lat="45.99506" lon="6.13844">
        <ele>718</ele>
        <time>2018-05-23T14:54:31Z</time>
      </trkpt>
      <trkpt lat="45.99535" lon="6.13835">
        <ele>717</ele>
        <time>2018-05-23T14:55:31Z</time>
      </trkpt>
      <trkpt lat="45.99579" lon="6.13793">
        <ele>715</ele>
        <time>2018-05-23T14:56:31Z</time>
      </trkpt>
      <trkpt lat="45.99616" lon="6.1375">
        <ele>713</ele>
        <time>2018-05-23T14:57:31Z</time>
      </trkpt>
      <trkpt lat="45.99616" lon="6.1375">
        <ele>713</ele>
        <time>2018-05-23T14:58:31Z</time>
      </trkpt>
      <trkpt lat="45.99612" lon="6.13753">
        <ele>713</ele>
        <time>2018-05-23T14:59:31Z</time>
      </trkpt>
      <trkpt lat="45.99593" lon="6.13695">
        <ele>710</ele>
        <time>2018-05-23T15:00:31Z</time>
      </trkpt>
      <trkpt lat="45.99591" lon="6.13662">
        <ele>708</ele>
        <time>2018-05-23T15:01:31Z</time>
      </trkpt>
      <trkpt lat="45.9959" lon="6.13559">
        <ele>704</ele>
        <time>2018-05-23T15:02:31Z</time>
      </trkpt>
      <trkpt lat="45.99568" lon="6.13454">
        <ele>695</ele>
        <time>2018-05-23T15:03:31Z</time>
      </trkpt>
      <trkpt lat="45.99621" lon="6.13349">
        <ele>686</ele>
        <time>2018-05-23T15:04:31Z</time>
      </trkpt>
      <trkpt lat="45.99632" lon="6.13264">
        <ele>681</ele>
        <time>2018-05-23T15:05:31Z</time>
      </trkpt>
      <trkpt lat="45.99649" lon="6.13199">
        <ele>679</ele>
        <time>2018-05-23T15:06:31Z</time>
      </trkpt>
      <trkpt lat="45.99675" lon="6.13145">
        <ele>678</ele>
        <time>2018-05-23T15:07:31Z</time>
      </trkpt>
      <trkpt lat="45.99684" lon="6.13133">
        <ele>677</ele>
        <time>2018-05-23T15:08:31Z</time>
      </trkpt>
      <trkpt lat="45.99727" lon="6.13093">
        <ele>677</ele>
        <time>2018-05-23T15:09:31Z</time>
      </trkpt>
      <trkpt lat="45.99535" lon="6.12977">
        <ele>659</ele>
        <time>2018-05-23T15:10:31Z</time>
      </trkpt>
      <trkpt lat="45.99513" lon="6.12969">
        <ele>657</ele>
        <time>2018-05-23T15:11:31Z</time>
      </trkpt>
      <trkpt lat="45.99423" lon="6.12949">
        <ele>649</ele>
        <time>2018-05-23T15:12:31Z</time>
      </trkpt>
      <trkpt lat="45.9939" lon="6.12939">
        <ele>646</ele>
        <time>2018-05-23T15:13:31Z</time>
      </trkpt>
      <trkpt lat="45.99333" lon="6.12906">
        <ele>642</ele>
        <time>2018-05-23T15:14:31Z</time>
      </trkpt>
      <trkpt lat="45.99308" lon="6.12897">
        <ele>641</ele>
        <time>2018-05-23T15:15:31Z</time>
      </trkpt>
      <trkpt lat="45.99293" lon="6.12897">
        <ele>641</ele>
        <time>2018-05-23T15:16:31Z</time>
      </trkpt>
      <trkpt lat="45.99258" lon="6.12904">
        <ele>640</ele>
        <time>2018-05-23T15:17:31Z</time>
      </trkpt>
      <trkpt lat="45.99206" lon="6.12936">
        <ele>640</ele>
        <time>2018-05-23T15:18:31Z</time>
      </trkpt>
      <trkpt lat="45.99203" lon="6.12936">
        <ele>640</ele>
        <time>2018-05-23T15:19:31Z</time>
      </trkpt>
      <trkpt lat="45.99194" lon="6.12929">
        <ele>640</ele>
        <time>2018-05-23T15:20:31Z</time>
      </trkpt>
      <trkpt lat="45.99188" lon="6.12922">
        <ele>640</ele>
        <time>2018-05-23T15:21:31Z</time>
      </trkpt>
      <trkpt lat="45.99188" lon="6.12922">
        <ele>640</ele>
        <time>2018-05-23T15:22:31Z</time>
      </trkpt>
      <trkpt lat="45.99184" lon="6.12914">
        <ele>639</ele>
        <time>2018-05-23T15:23:31Z</time>
      </trkpt>
      <trkpt lat="45.99183" lon="6.129">
        <ele>639</ele>
        <time>2018-05-23T15:24:31Z</time>
      </trkpt>
      <trkpt lat="45.99181" lon="6.12894">
        <ele>638</ele>
        <time>2018-05-23T15:25:31Z</time>
      </trkpt>
      <trkpt lat="45.99193" lon="6.12855">
        <ele>638</ele>
        <time>2018-05-23T15:26:31Z</time>
      </trkpt>
      <trkpt lat="45.99316" lon="6.12629">
        <ele>635</ele>
        <time>2018-05-23T15:27:31Z</time>
      </trkpt>
      <trkpt lat="45.99341" lon="6.12587">
        <ele>635</ele>
        <time>2018-05-23T15:28:31Z</time>
      </trkpt>
      <trkpt lat="45.99354" lon="6.12568">
        <ele>635</ele>
        <time>2018-05-23T15:29:31Z</time>
      </trkpt>
      <trkpt lat="45.99382" lon="6.12539">
        <ele>634</ele>
        <time>2018-05-23T15:30:31Z</time>
      </trkpt>
      <trkpt lat="45.99399" lon="6.12525">
        <ele>634</ele>
        <time>2018-05-23T15:31:31Z</time>
      </trkpt>
      <trkpt lat="45.99434" lon="6.12506">
        <ele>633</ele>
        <time>2018-05-23T15:32:31Z</time>
      </trkpt>
      <trkpt lat="45.99453" lon="6.12498">
        <ele>633</ele>
        <time>2018-05-23T15:33:31Z</time>
      </trkpt>
      <trkpt lat="45.99524" lon="6.12481">
        <ele>632</ele>
        <time>2018-05-23T15:34:31Z</time>
      </trkpt>
      <trkpt lat="45.9956" lon="6.12483">
        <ele>632</ele>
        <time>2018-05-23T15:35:31Z</time>
      </trkpt>
      <trkpt lat="45.99565" lon="6.12491">
        <ele>633</ele>
        <time>2018-05-23T15:36:31Z</time>
      </trkpt>
      <trkpt lat="45.99573" lon="6.12497">
        <ele>633</ele>
        <time>2018-05-23T15:37:31Z</time>
      </trkpt>
      <trkpt lat="45.9958" lon="6.12499">
        <ele>633</ele>
        <time>2018-05-23T15:38:31Z</time>
      </trkpt>
      <trkpt lat="45.99586" lon="6.12497">
        <ele>633</ele>
        <time>2018-05-23T15:39:31Z</time>
      </trkpt>
      <trkpt lat="45.99593" lon="6.12492">
        <ele>633</ele>
        <time>2018-05-23T15:40:31Z</time>
      </trkpt>
      <trkpt lat="45.99597" lon="6.12487">
        <ele>632</ele>
        <time>2018-05-23T15:41:31Z</time>
      </trkpt>
      <trkpt lat="45.99601" lon="6.1247">
        <ele>632</ele>
        <time>2018-05-23T15:42:31Z</time>
      </trkpt>
      <trkpt lat="45.99676" lon="6.1243">
        <ele>632</ele>
        <time>2018-05-23T15:43:31Z</time>
      </trkpt>
      <trkpt lat="45.99867" lon="6.12309">
        <ele>633</ele>
        <time>2018-05-23T15:44:31Z</time>
      </trkpt>
      <trkpt lat="45.99857" lon="6.12268">
        <ele>635</ele>
        <time>2018-05-23T15:45:31Z</time>
      </trkpt>
      <trkpt lat="45.99848" lon="6.12197">
        <ele>639</ele>
        <time>2018-05-23T15:46:31Z</time>
      </trkpt>
      <trkpt lat="45.99848" lon="6.12163">
        <ele>641</ele>
        <time>2018-05-23T15:47:31Z</time>
      </trkpt>
      <trkpt lat="45.99853" lon="6.1214">
        <ele>641</ele>
        <time>2018-05-23T15:48:31Z</time>
      </trkpt>
      <trkpt lat="45.99883" lon="6.12042">
        <ele>643</ele>
        <time>2018-05-23T15:49:31Z</time>
      </trkpt>
      <trkpt lat="45.99887" lon="6.12042">
        <ele>643</ele>
        <time>2018-05-23T15:50:31Z</time>
      </trkpt>
      <trkpt lat="45.99891" lon="6.12035">
        <ele>643</ele>
        <time>2018-05-23T15:51:31Z</time>
      </trkpt>
      <trkpt lat="45.99891" lon="6.1203">
        <ele>643</ele>
        <time>2018-05-23T15:52:31Z</time>
      </trkpt>
      <trkpt lat="45.99888" lon="6.12025">
        <ele>643</ele>
        <time>2018-05-23T15:53:31Z</time>
      </trkpt>
      <trkpt lat="45.99894" lon="6.12004">
        <ele>644</ele>
        <time>2018-05-23T15:54:31Z</time>
      </trkpt>
      <trkpt lat="45.99911" lon="6.11965">
        <ele>646</ele>
        <time>2018-05-23T15:55:31Z</time>
      </trkpt>
      <trkpt lat="45.99928" lon="6.11937">
        <ele>647</ele>
        <time>2018-05-23T15:56:31Z</time>
      </trkpt>
      <trkpt lat="45.99995" lon="6.11849">
        <ele>651</ele>
        <time>2018-05-23T15:57:31Z</time>
      </trkpt>
      <trkpt lat="46.00006" lon="6.11839">
        <ele>651</ele>
        <time>2018-05-23T15:58:31Z</time>
      </trkpt>
      <trkpt lat="46.00085" lon="6.11799">
        <ele>654</ele>
        <time>2018-05-23T15:59:31Z</time>
      </trkpt>
      <trkpt lat="46.0012" lon="6.11785">
        <ele>656</ele>
        <time>2018-05-23T16:00:31Z</time>
      </trkpt>
      <trkpt lat="46.00146" lon="6.1177">
        <ele>658</ele>
        <time>2018-05-23T16:01:31Z</time>
      </trkpt>
      <trkpt lat="46.00165" lon="6.11755">
        <ele>660</ele>
        <time>2018-05-23T16:02:31Z</time>
      </trkpt>
      <trkpt lat="46.00205" lon="6.11708">
        <ele>668</ele>
        <time>2018-05-23T16:03:31Z</time>
      </trkpt>
      <trkpt lat="46.00221" lon="6.11698">
        <ele>670</ele>
        <time>2018-05-23T16:04:31Z</time>
      </trkpt>
      <trkpt lat="46.00291" lon="6.11666">
        <ele>674</ele>
        <time>2018-05-23T16:05:31Z</time>
      </trkpt>
      <trkpt lat="46.00319" lon="6.11638">
        <ele>676</ele>
        <time>2018-05-23T16:06:31Z</time>
      </trkpt>
      <trkpt lat="46.00355" lon="6.11617">
        <ele>679</ele>
        <time>2018-05-23T16:07:31Z</time>
      </trkpt>
      <trkpt lat="46.00363" lon="6.11616">
        <ele>679</ele>
        <time>2018-05-23T16:08:31Z</time>
      </trkpt>
      <trkpt lat="46.0037" lon="6.11557">
        <ele>686</ele>
        <time>2018-05-23T16:09:31Z</time>
      </trkpt>
      <trkpt lat="46.00373" lon="6.1155">
        <ele>687</ele>
        <time>2018-05-23T16:10:31Z</time>
      </trkpt>
      <trkpt lat="46.00384" lon="6.11538">
        <ele>690</ele>
        <time>2018-05-23T16:11:31Z</time>
      </trkpt>
      <trkpt lat="46.00389" lon="6.11295">
        <ele>695</ele>
        <time>2018-05-23T16:12:31Z</time>
      </trkpt>
      <trkpt lat="46.0038" lon="6.11154">
        <ele>697</ele>
        <time>2018-05-23T16:13:31Z</time>
      </trkpt>
      <trkpt lat="46.00386" lon="6.11005">
        <ele>700</ele>
        <time>2018-05-23T16:14:31Z</time>
      </trkpt>
      <trkpt lat="46.00382" lon="6.10951">
        <ele>701</ele>
        <time>2018-05-23T16:15:31Z</time>
      </trkpt>
      <trkpt lat="46.00374" lon="6.10915">
        <ele>701</ele>
        <time>2018-05-23T16:16:31Z</time>
      </trkpt>
      <trkpt lat="46.00359" lon="6.10872">
        <ele>701</ele>
        <time>2018-05-23T16:17:31Z</time>
      </trkpt>
      <trkpt lat="46.00328" lon="6.10811">
        <ele>702</ele>
        <time>2018-05-23T16:18:31Z</time>
      </trkpt>
      <trkpt lat="46.0031" lon="6.10761">
        <ele>704</ele>
        <time>2018-05-23T16:19:31Z</time>
      </trkpt>
      <trkpt lat="46.00298" lon="6.10695">
        <ele>706</ele>
        <time>2018-05-23T16:20:31Z</time>
      </trkpt>
      <trkpt lat="46.00256" lon="6.10548">
        <ele>702</ele>
        <time>2018-05-23T16:21:31Z</time>
      </trkpt>
      <trkpt lat="46.00246" lon="6.10505">
        <ele>703</ele>
        <time>2018-05-23T16:22:31Z</time>
      </trkpt>
      <trkpt lat="46.00253" lon="6.1014">
        <ele>706</ele>
        <time>2018-05-23T16:23:31Z</time>
      </trkpt>
      <trkpt lat="46.00243" lon="6.09922">
        <ele>696</ele>
        <time>2018-05-23T16:24:31Z</time>
      </trkpt>
      <trkpt lat="46.00247" lon="6.09908">
        <ele>693</ele>
        <time>2018-05-23T16:25:31Z</time>
      </trkpt>
      <trkpt lat="46.0025" lon="6.09903">
        <ele>692</ele>
        <time>2018-05-23T16:26:31Z</time>
      </trkpt>
      <trkpt lat="46.00251" lon="6.09897">
        <ele>691</ele>
        <time>2018-05-23T16:27:31Z</time>
      </trkpt>
      <trkpt lat="46.00249" lon="6.09891">
        <ele>691</ele>
        <time>2018-05-23T16:28:31Z</time>
      </trkpt>
      <trkpt lat="46.00245" lon="6.09888">
        <ele>692</ele>
        <time>2018-05-23T16:29:31Z</time>
      </trkpt>
      <trkpt lat="46.0024" lon="6.09889">
        <ele>694</ele>
        <time>2018-05-23T16:30:31Z</time>
      </trkpt>
      <trkpt lat="46.00237" lon="6.09893">
        <ele>696</ele>
        <time>2018-05-23T16:31:31Z</time>
      </trkpt>
      <trkpt lat="46.00231" lon="6.09894">
        <ele>698</ele>
        <time>2018-05-23T16:32:31Z</time>
      </trkpt>
      <trkpt lat="46.00227" lon="6.09893">
        <ele>699</ele>
        <time>2018-05-23T16:33:31Z</time>
      </trkpt>
      <trkpt lat="46.0022" lon="6.09884">
        <ele>701</ele>
        <time>2018-05-23T16:34:31Z</time>
      </trkpt>
      <trkpt lat="46.00222" lon="6.09821">
        <ele>694</ele>
        <time>2018-05-23T16:35:31Z</time>
      </trkpt>
      <trkpt lat="46.00215" lon="6.09792">
        <ele>693</ele>
        <time>2018-05-23T16:36:31Z</time>
      </trkpt>
      <trkpt lat="46.00209" lon="6.09782">
        <ele>694</ele>
        <time>2018-05-23T16:37:31Z</time>
      </trkpt>
      <trkpt lat="46.00156" lon="6.09753">
        <ele>701</ele>
        <time>2018-05-23T16:38:31Z</time>
      </trkpt>
      <trkpt lat="46.00028" lon="6.0971">
        <ele>721</ele>
        <time>2018-05-23T16:39:31Z</time>
      </trkpt>
      <trkpt lat="46.00018" lon="6.09689">
        <ele>720</ele>
        <time>2018-05-23T16:40:31Z</time>
      </trkpt>
      <trkpt lat="46.00018" lon="6.09671">
        <ele>718</ele>
        <time>2018-05-23T16:41:31Z</time>
      </trkpt>
      <trkpt lat="46.00024" lon="6.09658">
        <ele>717</ele>
        <time>2018-05-23T16:42:31Z</time>
      </trkpt>
      <trkpt lat="46.00039" lon="6.0965">
        <ele>715</ele>
        <time>2018-05-23T16:43:31Z</time>
      </trkpt>
      <trkpt lat="46.00071" lon="6.09651">
        <ele>711</ele>
        <time>2018-05-23T16:44:31Z</time>
      </trkpt>
      <trkpt lat="46.00086" lon="6.09641">
        <ele>710</ele>
        <time>2018-05-23T16:45:31Z</time>
      </trkpt>
      <trkpt lat="46.00102" lon="6.09612">
        <ele>710</ele>
        <time>2018-05-23T16:46:31Z</time>
      </trkpt>
      <trkpt lat="46.00151" lon="6.09466">
        <ele>718</ele>
        <time>2018-05-23T16:47:31Z</time>
      </trkpt>
      <trkpt lat="46.00158" lon="6.09429">
        <ele>720</ele>
        <time>2018-05-23T16:48:31Z</time>
      </trkpt>
      <trkpt lat="46.00152" lon="6.09395">
        <ele>723</ele>
        <time>2018-05-23T16:49:31Z</time>
      </trkpt>
      <trkpt lat="46.00147" lon="6.09377">
        <ele>723</ele>
        <time>2018-05-23T16:50:31Z</time>
      </trkpt>
      <trkpt lat="46.00096" lon="6.09282">
        <ele>726</ele>
        <time>2018-05-23T16:51:31Z</time>
      </trkpt>
      <trkpt lat="45.99997" lon="6.09077">
        <ele>732</ele>
        <time>2018-05-23T16:52:31Z</time>
      </trkpt>
      <trkpt lat="45.99991" lon="6.09047">
        <ele>734</ele>
        <time>2018-05-23T16:53:31Z</time>
      </trkpt>
      <trkpt lat="45.99959" lon="6.08836">
        <ele>740</ele>
        <time>2018-05-23T16:54:31Z</time>
      </trkpt>
      <trkpt lat="45.99946" lon="6.08733">
        <ele>743</ele>
        <time>2018-05-23T16:55:31Z</time>
      </trkpt>
      <trkpt lat="45.99933" lon="6.08647">
        <ele>744</ele>
        <time>2018-05-23T16:56:31Z</time>
      </trkpt>
      <trkpt lat="45.99924" lon="6.08612">
        <ele>743</ele>
        <time>2018-05-23T16:57:31Z</time>
      </trkpt>
      <trkpt lat="45.99921" lon="6.08583">
        <ele>743</ele>
        <time>2018-05-23T16:58:31Z</time>
      </trkpt>
      <trkpt lat="45.99916" lon="6.08575">
        <ele>743</ele>
        <time>2018-05-23T16:59:31Z</time>
      </trkpt>
      <trkpt lat="45.99909" lon="6.08574">
        <ele>743</ele>
        <time>2018-05-23T17:00:31Z</time>
      </trkpt>
      <trkpt lat="45.99903" lon="6.08579">
        <ele>743</ele>
        <time>2018-05-23T17:01:31Z</time>
      </trkpt>
      <trkpt lat="45.99901" lon="6.08587">
        <ele>743</ele>
        <time>2018-05-23T17:02:31Z</time>
      </trkpt>
      <trkpt lat="45.99903" lon="6.08596">
        <ele>744</ele>
        <time>2018-05-23T17:03:31Z</time>
      </trkpt>
      <trkpt lat="45.99908" lon="6.08602">
        <ele>744</ele>
        <time>2018-05-23T17:04:31Z</time>
      </trkpt>
      <trkpt lat="45.99904" lon="6.08611">
        <ele>744</ele>
        <time>2018-05-23T17:05:31Z</time>
      </trkpt>
      <trkpt lat="45.99904" lon="6.08611">
        <ele>744</ele>
        <time>2018-05-23T17:06:31Z</time>
      </trkpt>
      <trkpt lat="45.99908" lon="6.08602">
        <ele>744</ele>
        <time>2018-05-23T17:07:31Z</time>
      </trkpt>
      <trkpt lat="45.99911" lon="6.08603">
        <ele>744</ele>
        <time>2018-05-23T17:08:31Z</time>
      </trkpt>
      <trkpt lat="45.99918" lon="6.086">
        <ele>743</ele>
        <time>2018-05-23T17:09:31Z</time>
      </trkpt>
      <trkpt lat="45.99921" lon="6.08593">
        <ele>743</ele>
        <time>2018-05-23T17:10:31Z</time>
      </trkpt>
      <trkpt lat="45.99921" lon="6.08583">
        <ele>743</ele>
        <time>2018-05-23T17:11:31Z</time>
      </trkpt>
      <trkpt lat="45.99916" lon="6.08575">
        <ele>743</ele>
        <time>2018-05-23T17:12:31Z</time>
      </trkpt>
      <trkpt lat="45.99907" lon="6.08575">
        <ele>743</ele>
        <time>2018-05-23T17:13:31Z</time>
      </trkpt>
      <trkpt lat="45.9989" lon="6.08565">
        <ele>743</ele>
        <time>2018-05-23T17:14:31Z</time>
      </trkpt>
      <trkpt lat="45.99745" lon="6.08379">
        <ele>750</ele>
        <time>2018-05-23T17:15:31Z</time>
      </trkpt>
      <trkpt lat="45.99715" lon="6.08332">
        <ele>753</ele>
        <time>2018-05-23T17:16:31Z</time>
      </trkpt>
      <trkpt lat="45.99686" lon="6.08256">
        <ele>756</ele>
        <time>2018-05-23T17:17:31Z</time>
      </trkpt>
      <trkpt lat="45.99449" lon="6.07529">
        <ele>746</ele>
        <time>2018-05-23T17:18:31Z</time>
      </trkpt>
      <trkpt lat="45.99442" lon="6.07498">
        <ele>744</ele>
        <time>2018-05-23T17:19:31Z</time>
      </trkpt>
      <trkpt lat="45.99441" lon="6.07482">
        <ele>744</ele>
        <time>2018-05-23T17:20:31Z</time>
      </trkpt>
      <trkpt lat="45.99445" lon="6.07302">
        <ele>737</ele>
        <time>2018-05-23T17:21:31Z</time>
      </trkpt>
      <trkpt lat="45.99444" lon="6.07276">
        <ele>736</ele>
        <time>2018-05-23T17:22:31Z</time>
      </trkpt>
      <trkpt lat="45.99437" lon="6.07246">
        <ele>734</ele>
        <time>2018-05-23T17:23:31Z</time>
      </trkpt>
      <trkpt lat="45.99419" lon="6.07205">
        <ele>732</ele>
        <time>2018-05-23T17:24:31Z</time>
      </trkpt>
      <trkpt lat="45.9935" lon="6.07096">
        <ele>729</ele>
        <time>2018-05-23T17:25:31Z</time>
      </trkpt>
      <trkpt lat="45.99341" lon="6.07073">
        <ele>728</ele>
        <time>2018-05-23T17:26:31Z</time>
      </trkpt>
      <trkpt lat="45.99333" lon="6.07043">
        <ele>727</ele>
        <time>2018-05-23T17:27:31Z</time>
      </trkpt>
      <trkpt lat="45.9933" lon="6.07024">
        <ele>726</ele>
        <time>2018-05-23T17:28:31Z</time>
      </trkpt>
      <trkpt lat="45.99328" lon="6.0699">
        <ele>725</ele>
        <time>2018-05-23T17:29:31Z</time>
      </trkpt>
      <trkpt lat="45.99331" lon="6.06945">
        <ele>722</ele>
        <time>2018-05-23T17:30:31Z</time>
      </trkpt>
      <trkpt lat="45.99355" lon="6.06763">
        <ele>719</ele>
        <time>2018-05-23T17:31:31Z</time>
      </trkpt>
      <trkpt lat="45.99379" lon="6.06554">
        <ele>708</ele>
        <time>2018-05-23T17:32:31Z</time>
      </trkpt>
      <trkpt lat="45.99399" lon="6.06402">
        <ele>700</ele>
        <time>2018-05-23T17:33:31Z</time>
      </trkpt>
      <trkpt lat="45.99399" lon="6.06372">
        <ele>699</ele>
        <time>2018-05-23T17:34:31Z</time>
      </trkpt>
      <trkpt lat="45.99397" lon="6.0636">
        <ele>698</ele>
        <time>2018-05-23T17:35:31Z</time>
      </trkpt>
      <trkpt lat="45.9939" lon="6.06345">
        <ele>697</ele>
        <time>2018-05-23T17:36:31Z</time>
      </trkpt>
      <trkpt lat="45.99383" lon="6.06335">
        <ele>696</ele>
        <time>2018-05-23T17:37:31Z</time>
      </trkpt>
      <trkpt lat="45.99366" lon="6.06325">
        <ele>694</ele>
        <time>2018-05-23T17:38:31Z</time>
      </trkpt>
      <trkpt lat="45.99354" lon="6.06324">
        <ele>694</ele>
        <time>2018-05-23T17:39:31Z</time>
      </trkpt>
      <trkpt lat="45.99344" lon="6.06329">
        <ele>694</ele>
        <time>2018-05-23T17:40:31Z</time>
      </trkpt>
      <trkpt lat="45.99331" lon="6.0634">
        <ele>694</ele>
        <time>2018-05-23T17:41:31Z</time>
      </trkpt>
      <trkpt lat="45.99285" lon="6.06404">
        <ele>692</ele>
        <time>2018-05-23T17:42:31Z</time>
      </trkpt>
      <trkpt lat="45.99273" lon="6.06414">
        <ele>691</ele>
        <time>2018-05-23T17:43:31Z</time>
      </trkpt>
      <trkpt lat="45.9926" lon="6.06416">
        <ele>690</ele>
        <time>2018-05-23T17:44:31Z</time>
      </trkpt>
      <trkpt lat="45.99249" lon="6.06411">
        <ele>689</ele>
        <time>2018-05-23T17:45:31Z</time>
      </trkpt>
      <trkpt lat="45.99241" lon="6.06399">
        <ele>687</ele>
        <time>2018-05-23T17:46:31Z</time>
      </trkpt>
      <trkpt lat="45.99237" lon="6.0638">
        <ele>685</ele>
        <time>2018-05-23T17:47:31Z</time>
      </trkpt>
      <trkpt lat="45.99237" lon="6.06369">
        <ele>684</ele>
        <time>2018-05-23T17:48:31Z</time>
      </trkpt>
      <trkpt lat="45.99239" lon="6.06355">
        <ele>684</ele>
        <time>2018-05-23T17:49:31Z</time>
      </trkpt>
      <trkpt lat="45.99269" lon="6.06261">
        <ele>679</ele>
        <time>2018-05-23T17:50:31Z</time>
      </trkpt>
      <trkpt lat="45.99288" lon="6.06223">
        <ele>677</ele>
        <time>2018-05-23T17:51:31Z</time>
      </trkpt>
      <trkpt lat="45.99306" lon="6.06201">
        <ele>676</ele>
        <time>2018-05-23T17:52:31Z</time>
      </trkpt>
      <trkpt lat="45.9934" lon="6.06165">
        <ele>675</ele>
        <time>2018-05-23T17:53:31Z</time>
      </trkpt>
      <trkpt lat="45.99366" lon="6.0614">
        <ele>673</ele>
        <time>2018-05-23T17:54:31Z</time>
      </trkpt>
      <trkpt lat="45.99403" lon="6.0611">
        <ele>671</ele>
        <time>2018-05-23T17:55:31Z</time>
      </trkpt>
      <trkpt lat="45.99403" lon="6.06098">
        <ele>670</ele>
        <time>2018-05-23T17:56:31Z</time>
      </trkpt>
      <trkpt lat="45.99393" lon="6.06035">
        <ele>663</ele>
        <time>2018-05-23T17:57:31Z</time>
      </trkpt>
      <trkpt lat="45.99393" lon="6.06024">
        <ele>661</ele>
        <time>2018-05-23T17:58:31Z</time>
      </trkpt>
      <trkpt lat="45.99396" lon="6.0601">
        <ele>660</ele>
        <time>2018-05-23T17:59:31Z</time>
      </trkpt>
      <trkpt lat="45.99414" lon="6.05975">
        <ele>658</ele>
        <time>2018-05-23T18:00:31Z</time>
      </trkpt>
      <trkpt lat="45.99414" lon="6.05966">
        <ele>657</ele>
        <time>2018-05-23T18:01:31Z</time>
      </trkpt>
      <trkpt lat="45.99396" lon="6.05965">
        <ele>655</ele>
        <time>2018-05-23T18:02:31Z</time>
      </trkpt>
      <trkpt lat="45.99379" lon="6.05968">
        <ele>654</ele>
        <time>2018-05-23T18:03:31Z</time>
      </trkpt>
      <trkpt lat="45.99397" lon="6.05953">
        <ele>654</ele>
        <time>2018-05-23T18:04:31Z</time>
      </trkpt>
      <trkpt lat="45.99404" lon="6.05948">
        <ele>654</ele>
        <time>2018-05-23T18:05:31Z</time>
      </trkpt>
      <trkpt lat="45.99426" lon="6.05942">
        <ele>655</ele>
        <time>2018-05-23T18:06:31Z</time>
      </trkpt>
      <trkpt lat="45.9943" lon="6.05936">
        <ele>654</ele>
        <time>2018-05-23T18:07:31Z</time>
      </trkpt>
      <trkpt lat="45.99415" lon="6.05897">
        <ele>650</ele>
        <time>2018-05-23T18:08:31Z</time>
      </trkpt>
      <trkpt lat="45.99393" lon="6.05824">
        <ele>640</ele>
        <time>2018-05-23T18:09:31Z</time>
      </trkpt>
      <trkpt lat="45.99372" lon="6.0573">
        <ele>629</ele>
        <time>2018-05-23T18:10:31Z</time>
      </trkpt>
      <trkpt lat="45.99375" lon="6.05587">
        <ele>612</ele>
        <time>2018-05-23T18:11:31Z</time>
      </trkpt>
      <trkpt lat="45.99365" lon="6.05579">
        <ele>610</ele>
        <time>2018-05-23T18:12:31Z</time>
      </trkpt>
      <trkpt lat="45.99353" lon="6.05588">
        <ele>611</ele>
        <time>2018-05-23T18:13:31Z</time>
      </trkpt>
      <trkpt lat="45.99353" lon="6.05588">
        <ele>611</ele>
        <time>2018-05-23T18:14:31Z</time>
      </trkpt>
      <trkpt lat="45.99365" lon="6.05579">
        <ele>610</ele>
        <time>2018-05-23T18:15:31Z</time>
      </trkpt>
      <trkpt lat="45.99369" lon="6.05564">
        <ele>609</ele>
        <time>2018-05-23T18:16:31Z</time>
      </trkpt>
      <trkpt lat="45.99425" lon="6.05432">
        <ele>600</ele>
        <time>2018-05-23T18:17:31Z</time>
      </trkpt>
      <trkpt lat="45.99438" lon="6.05415">
        <ele>599</ele>
        <time>2018-05-23T18:18:31Z</time>
      </trkpt>
      <trkpt lat="45.99484" lon="6.05382">
        <ele>599</ele>
        <time>2018-05-23T18:19:31Z</time>
      </trkpt>
      <trkpt lat="45.99491" lon="6.05371">
        <ele>598</ele>
        <time>2018-05-23T18:20:31Z</time>
      </trkpt>
      <trkpt lat="45.99494" lon="6.05359">
        <ele>598</ele>
        <time>2018-05-23T18:21:31Z</time>
      </trkpt>
      <trkpt lat="45.99494" lon="6.05349">
        <ele>597</ele>
        <time>2018-05-23T18:22:31Z</time>
      </trkpt>
      <trkpt lat="45.99479" lon="6.0528">
        <ele>592</ele>
        <time>2018-05-23T18:23:31Z</time>
      </trkpt>
      <trkpt lat="45.99475" lon="6.05257">
        <ele>590</ele>
        <time>2018-05-23T18:24:31Z</time>
      </trkpt>
      <trkpt lat="45.99474" lon="6.05236">
        <ele>589</ele>
        <time>2018-05-23T18:25:31Z</time>
      </trkpt>
      <trkpt lat="45.99476" lon="6.05197">
        <ele>587</ele>
        <time>2018-05-23T18:26:31Z</time>
      </trkpt>
      <trkpt lat="45.99479" lon="6.0518">
        <ele>586</ele>
        <time>2018-05-23T18:27:31Z</time>
      </trkpt>
      <trkpt lat="45.99647" lon="6.04667">
        <ele>561</ele>
        <time>2018-05-23T18:28:31Z</time>
      </trkpt>
      <trkpt lat="45.9965" lon="6.04653">
        <ele>561</ele>
        <time>2018-05-23T18:29:31Z</time>
      </trkpt>
      <trkpt lat="45.9965" lon="6.04639">
        <ele>560</ele>
        <time>2018-05-23T18:30:31Z</time>
      </trkpt>
      <trkpt lat="45.99645" lon="6.04552">
        <ele>555</ele>
        <time>2018-05-23T18:31:31Z</time>
      </trkpt>
      <trkpt lat="45.99651" lon="6.04524">
        <ele>553</ele>
        <time>2018-05-23T18:32:31Z</time>
      </trkpt>
      <trkpt lat="45.9967" lon="6.04492">
        <ele>552</ele>
        <time>2018-05-23T18:33:31Z</time>
      </trkpt>
      <trkpt lat="45.99673" lon="6.04481">
        <ele>551</ele>
        <time>2018-05-23T18:34:31Z</time>
      </trkpt>
      <trkpt lat="45.99673" lon="6.04469">
        <ele>550</ele>
        <time>2018-05-23T18:35:31Z</time>
      </trkpt>
      <trkpt lat="45.99662" lon="6.04412">
        <ele>546</ele>
        <time>2018-05-23T18:36:31Z</time>
      </trkpt>
      <trkpt lat="45.99702" lon="6.04407">
        <ele>548</ele>
        <time>2018-05-23T18:37:31Z</time>
      </trkpt>
      <trkpt lat="45.99711" lon="6.04404">
        <ele>549</ele>
        <time>2018-05-23T18:38:31Z</time>
      </trkpt>
      <trkpt lat="45.99716" lon="6.044">
        <ele>549</ele>
        <time>2018-05-23T18:39:31Z</time>
      </trkpt>
      <trkpt lat="45.99757" lon="6.04321">
        <ele>546</ele>
        <time>2018-05-23T18:40:31Z</time>
      </trkpt>
      <trkpt lat="45.99776" lon="6.04288">
        <ele>545</ele>
        <time>2018-05-23T18:41:31Z</time>
      </trkpt>
      <trkpt lat="45.99848" lon="6.04212">
        <ele>543</ele>
        <time>2018-05-23T18:42:31Z</time>
      </trkpt>
      <trkpt lat="45.99902" lon="6.04157">
        <ele>546</ele>
        <time>2018-05-23T18:43:31Z</time>
      </trkpt>
      <trkpt lat="45.9995" lon="6.04116">
        <ele>548</ele>
        <time>2018-05-23T18:44:31Z</time>
      </trkpt>
      <trkpt lat="45.99964" lon="6.0411">
        <ele>548</ele>
        <time>2018-05-23T18:45:31Z</time>
      </trkpt>
      <trkpt lat="45.99975" lon="6.04107">
        <ele>548</ele>
        <time>2018-05-23T18:46:31Z</time>
      </trkpt>
      <trkpt lat="46.00011" lon="6.04093">
        <ele>549</ele>
        <time>2018-05-23T18:47:31Z</time>
      </trkpt>
      <trkpt lat="46.00024" lon="6.0408">
        <ele>549</ele>
        <time>2018-05-23T18:48:31Z</time>
      </trkpt>
      <trkpt lat="46.00121" lon="6.03967">
        <ele>551</ele>
        <time>2018-05-23T18:49:31Z</time>
      </trkpt>
      <trkpt lat="46.00245" lon="6.03791">
        <ele>550</ele>
        <time>2018-05-23T18:50:31Z</time>
      </trkpt>
      <trkpt lat="46.00253" lon="6.03783">
        <ele>550</ele>
        <time>2018-05-23T18:51:31Z</time>
      </trkpt>
      <trkpt lat="46.00513" lon="6.03647">
        <ele>555</ele>
        <time>2018-05-23T18:52:31Z</time>
      </trkpt>
      <trkpt lat="46.00632" lon="6.03579">
        <ele>556</ele>
        <time>2018-05-23T18:53:31Z</time>
      </trkpt>
      <trkpt lat="46.0076" lon="6.03502">
        <ele>565</ele>
        <time>2018-05-23T18:54:31Z</time>
      </trkpt>
      <trkpt lat="46.00834" lon="6.03465">
        <ele>564</ele>
        <time>2018-05-23T18:55:31Z</time>
      </trkpt>
      <trkpt lat="46.00919" lon="6.03425">
        <ele>563</ele>
        <time>2018-05-23T18:56:31Z</time>
      </trkpt>
      <trkpt lat="46.01099" lon="6.03329">
        <ele>566</ele>
        <time>2018-05-23T18:57:31Z</time>
      </trkpt>
      <trkpt lat="46.01271" lon="6.03213">
        <ele>569</ele>
        <time>2018-05-23T18:58:31Z</time>
      </trkpt>
      <trkpt lat="46.01299" lon="6.03207">
        <ele>571</ele>
        <time>2018-05-23T18:59:31Z</time>
      </trkpt>
      <trkpt lat="46.01383" lon="6.0322">
        <ele>576</ele>
        <time>2018-05-23T19:00:31Z</time>
      </trkpt>
      <trkpt lat="46.0155" lon="6.03238">
        <ele>575</ele>
        <time>2018-05-23T19:01:31Z</time>
      </trkpt>
      <trkpt lat="46.01576" lon="6.03252">
        <ele>574</ele>
        <time>2018-05-23T19:02:31Z</time>
      </trkpt>
      <trkpt lat="46.01595" lon="6.03268">
        <ele>574</ele>
        <time>2018-05-23T19:03:31Z</time>
      </trkpt>
      <trkpt lat="46.01829" lon="6.03525">
        <ele>573</ele>
        <time>2018-05-23T19:04:31Z</time>
      </trkpt>
      <trkpt lat="46.01866" lon="6.03559">
        <ele>573</ele>
        <time>2018-05-23T19:05:31Z</time>
      </trkpt>
      <trkpt lat="46.01911" lon="6.03596">
        <ele>573</ele>
        <time>2018-05-23T19:06:31Z</time>
      </trkpt>
      <trkpt lat="46.01973" lon="6.03727">
        <ele>579</ele>
        <time>2018-05-23T19:07:31Z</time>
      </trkpt>
      <trkpt lat="46.01987" lon="6.0374">
        <ele>579</ele>
        <time>2018-05-23T19:08:31Z</time>
      </trkpt>
      <trkpt lat="46.02005" lon="6.03747">
        <ele>578</ele>
        <time>2018-05-23T19:09:31Z</time>
      </trkpt>
      <trkpt lat="46.02064" lon="6.03757">
        <ele>576</ele>
        <time>2018-05-23T19:10:31Z</time>
      </trkpt>
      <trkpt lat="46.02086" lon="6.03773">
        <ele>575</ele>
        <time>2018-05-23T19:11:31Z</time>
      </trkpt>
      <trkpt lat="46.02147" lon="6.0387">
        <ele>576</ele>
        <time>2018-05-23T19:12:31Z</time>
      </trkpt>
      <trkpt lat="46.02198" lon="6.03947">
        <ele>577</ele>
        <time>2018-05-23T19:13:31Z</time>
      </trkpt>
      <trkpt lat="46.0223" lon="6.03985">
        <ele>576</ele>
        <time>2018-05-23T19:14:31Z</time>
      </trkpt>
      <trkpt lat="46.02351" lon="6.04119">
        <ele>576</ele>
        <time>2018-05-23T19:15:31Z</time>
      </trkpt>
      <trkpt lat="46.02357" lon="6.04119">
        <ele>575</ele>
        <time>2018-05-23T19:16:31Z</time>
      </trkpt>
      <trkpt lat="46.02357" lon="6.04119">
        <ele>575</ele>
        <time>2018-05-23T19:17:31Z</time>
      </trkpt>
      <trkpt lat="46.0236" lon="6.0412">
        <ele>575</ele>
        <time>2018-05-23T19:18:31Z</time>
      </trkpt>
      <trkpt lat="46.02367" lon="6.04113">
        <ele>575</ele>
        <time>2018-05-23T19:19:31Z</time>
      </trkpt>
      <trkpt lat="46.02375" lon="6.041">
        <ele>574</ele>
        <time>2018-05-23T19:20:31Z</time>
      </trkpt>
      <trkpt lat="46.02311" lon="6.03993">
        <ele>572</ele>
        <time>2018-05-23T19:21:31Z</time>
      </trkpt>
      <trkpt lat="46.02299" lon="6.03968">
        <ele>572</ele>
        <time>2018-05-23T19:22:31Z</time>
      </trkpt>
      <trkpt lat="46.02292" lon="6.03945">
        <ele>571</ele>
        <time>2018-05-23T19:23:31Z</time>
      </trkpt>
      <trkpt lat="46.02297" lon="6.03923">
        <ele>570</ele>
        <time>2018-05-23T19:24:31Z</time>
      </trkpt>
      <trkpt lat="46.02302" lon="6.03906">
        <ele>569</ele>
        <time>2018-05-23T19:25:31Z</time>
      </trkpt>
      <trkpt lat="46.02362" lon="6.03816">
        <ele>562</ele>
        <time>2018-05-23T19:26:31Z</time>
      </trkpt>
      <trkpt lat="46.02367" lon="6.03798">
        <ele>561</ele>
        <time>2018-05-23T19:27:31Z</time>
      </trkpt>
      <trkpt lat="46.02369" lon="6.03781">
        <ele>560</ele>
        <time>2018-05-23T19:28:31Z</time>
      </trkpt>
      <trkpt lat="46.0237" lon="6.03765">
        <ele>559</ele>
        <time>2018-05-23T19:29:31Z</time>
      </trkpt>
      <trkpt lat="46.02368" lon="6.03748">
        <ele>559</ele>
        <time>2018-05-23T19:30:31Z</time>
      </trkpt>
      <trkpt lat="46.02232" lon="6.03303">
        <ele>537</ele>
        <time>2018-05-23T19:31:31Z</time>
      </trkpt>
      <trkpt lat="46.02044" lon="6.02718">
        <ele>506</ele>
        <time>2018-05-23T19:32:31Z</time>
      </trkpt>
      <trkpt lat="46.0203" lon="6.02271">
        <ele>487</ele>
        <time>2018-05-23T19:33:31Z</time>
      </trkpt>
      <trkpt lat="46.02021" lon="6.02236">
        <ele>485</ele>
        <time>2018-05-23T19:34:31Z</time>
      </trkpt>
      <trkpt lat="46.02004" lon="6.02214">
        <ele>484</ele>
        <time>2018-05-23T19:35:31Z</time>
      </trkpt>
      <trkpt lat="46.01984" lon="6.02195">
        <ele>482</ele>
        <time>2018-05-23T19:36:31Z</time>
      </trkpt>
      <trkpt lat="46.01963" lon="6.0218">
        <ele>480</ele>
        <time>2018-05-23T19:37:31Z</time>
      </trkpt>
      <trkpt lat="46.01946" lon="6.02181">
        <ele>479</ele>
        <time>2018-05-23T19:38:31Z</time>
      </trkpt>
      <trkpt lat="46.01921" lon="6.02222">
        <ele>478</ele>
        <time>2018-05-23T19:39:31Z</time>
      </trkpt>
      <trkpt lat="46.01907" lon="6.02251">
        <ele>479</ele>
        <time>2018-05-23T19:40:31Z</time>
      </trkpt>
      <trkpt lat="46.01896" lon="6.02268">
        <ele>481</ele>
        <time>2018-05-23T19:41:31Z</time>
      </trkpt>
      <trkpt lat="46.01886" lon="6.02269">
        <ele>483</ele>
        <time>2018-05-23T19:42:31Z</time>
      </trkpt>
      <trkpt lat="46.01871" lon="6.02263">
        <ele>484</ele>
        <time>2018-05-23T19:43:31Z</time>
      </trkpt>
      <trkpt lat="46.0186" lon="6.02248">
        <ele>485</ele>
        <time>2018-05-23T19:44:31Z</time>
      </trkpt>
      <trkpt lat="46.01853" lon="6.02216">
        <ele>483</ele>
        <time>2018-05-23T19:45:31Z</time>
      </trkpt>
      <trkpt lat="46.01851" lon="6.02167">
        <ele>480</ele>
        <time>2018-05-23T19:46:31Z</time>
      </trkpt>
      <trkpt lat="46.01863" lon="6.0211">
        <ele>475</ele>
        <time>2018-05-23T19:47:31Z</time>
      </trkpt>
      <trkpt lat="46.0186" lon="6.02072">
        <ele>472</ele>
        <time>2018-05-23T19:48:31Z</time>
      </trkpt>
      <trkpt lat="46.01851" lon="6.02023">
        <ele>467</ele>
        <time>2018-05-23T19:49:31Z</time>
      </trkpt>
      <trkpt lat="46.01828" lon="6.01963">
        <ele>463</ele>
        <time>2018-05-23T19:50:31Z</time>
      </trkpt>
      <trkpt lat="46.01818" lon="6.01929">
        <ele>462</ele>
        <time>2018-05-23T19:51:31Z</time>
      </trkpt>
      <trkpt lat="46.01815" lon="6.01891">
        <ele>462</ele>
        <time>2018-05-23T19:52:31Z</time>
      </trkpt>
      <trkpt lat="46.01819" lon="6.01837">
        <ele>461</ele>
        <time>2018-05-23T19:53:31Z</time>
      </trkpt>
      <trkpt lat="46.01819" lon="6.018">
        <ele>459</ele>
        <time>2018-05-23T19:54:31Z</time>
      </trkpt>
      <trkpt lat="46.0181" lon="6.01772">
        <ele>457</ele>
        <time>2018-05-23T19:55:31Z</time>
      </trkpt>
      <trkpt lat="46.0179" lon="6.01746">
        <ele>456</ele>
        <time>2018-05-23T19:56:31Z</time>
      </trkpt>
      <trkpt lat="46.01758" lon="6.01692">
        <ele>453</ele>
        <time>2018-05-23T19:57:31Z</time>
      </trkpt>
      <trkpt lat="46.01721" lon="6.01608">
        <ele>451</ele>
        <time>2018-05-23T19:58:31Z</time>
      </trkpt>
      <trkpt lat="46.01706" lon="6.01584">
        <ele>452</ele>
        <time>2018-05-23T19:59:31Z</time>
      </trkpt>
      <trkpt lat="46.01701" lon="6.01545">
        <ele>454</ele>
        <time>2018-05-23T20:00:31Z</time>
      </trkpt>
      <trkpt lat="46.01707" lon="6.015">
        <ele>454</ele>
        <time>2018-05-23T20:01:31Z</time>
      </trkpt>
      <trkpt lat="46.01714" lon="6.0147">
        <ele>452</ele>
        <time>2018-05-23T20:02:31Z</time>
      </trkpt>
      <trkpt lat="46.01735" lon="6.01423">
        <ele>446</ele>
        <time>2018-05-23T20:03:31Z</time>
      </trkpt>
      <trkpt lat="46.01753" lon="6.01345">
        <ele>442</ele>
        <time>2018-05-23T20:04:31Z</time>
      </trkpt>
      <trkpt lat="46.01758" lon="6.01257">
        <ele>437</ele>
        <time>2018-05-23T20:05:31Z</time>
      </trkpt>
      <trkpt lat="46.01749" lon="6.01224">
        <ele>435</ele>
        <time>2018-05-23T20:06:31Z</time>
      </trkpt>
      <trkpt lat="46.01703" lon="6.01186">
        <ele>436</ele>
        <time>2018-05-23T20:07:31Z</time>
      </trkpt>
      <trkpt lat="46.01697" lon="6.01177">
        <ele>436</ele>
        <time>2018-05-23T20:08:31Z</time>
      </trkpt>
      <trkpt lat="46.01693" lon="6.01164">
        <ele>436</ele>
        <time>2018-05-23T20:09:31Z</time>
      </trkpt>
      <trkpt lat="46.01692" lon="6.01152">
        <ele>435</ele>
        <time>2018-05-23T20:10:31Z</time>
      </trkpt>
      <trkpt lat="46.01698" lon="6.01087">
        <ele>429</ele>
        <time>2018-05-23T20:11:31Z</time>
      </trkpt>
      <trkpt lat="46.01698" lon="6.01067">
        <ele>428</ele>
        <time>2018-05-23T20:12:31Z</time>
      </trkpt>
      <trkpt lat="46.01695" lon="6.01048">
        <ele>427</ele>
        <time>2018-05-23T20:13:31Z</time>
      </trkpt>
      <trkpt lat="46.01673" lon="6.00981">
        <ele>426</ele>
        <time>2018-05-23T20:14:31Z</time>
      </trkpt>
      <trkpt lat="46.01643" lon="6.00839">
        <ele>421</ele>
        <time>2018-05-23T20:15:31Z</time>
      </trkpt>
      <trkpt lat="46.01633" lon="6.00802">
        <ele>419</ele>
        <time>2018-05-23T20:16:31Z</time>
      </trkpt>
      <trkpt lat="46.01594" lon="6.00755">
        <ele>421</ele>
        <time>2018-05-23T20:17:31Z</time>
      </trkpt>
      <trkpt lat="46.01578" lon="6.00698">
        <ele>417</ele>
        <time>2018-05-23T20:18:31Z</time>
      </trkpt>
      <trkpt lat="46.01562" lon="6.00573">
        <ele>410</ele>
        <time>2018-05-23T20:19:31Z</time>
      </trkpt>
      <trkpt lat="46.01533" lon="6.005">
        <ele>408</ele>
        <time>2018-05-23T20:20:31Z</time>
      </trkpt>
      <trkpt lat="46.01466" lon="6.0037">
        <ele>405</ele>
        <time>2018-05-23T20:21:31Z</time>
      </trkpt>
      <trkpt lat="46.01418" lon="6.00208">
        <ele>398</ele>
        <time>2018-05-23T20:22:31Z</time>
      </trkpt>
      <trkpt lat="46.01422" lon="6.00084">
        <ele>393</ele>
        <time>2018-05-23T20:23:31Z</time>
      </trkpt>
      <trkpt lat="46.01403" lon="5.99985">
        <ele>389</ele>
        <time>2018-05-23T20:24:31Z</time>
      </trkpt>
      <trkpt lat="46.01326" lon="5.99759">
        <ele>385</ele>
        <time>2018-05-23T20:25:31Z</time>
      </trkpt>
      <trkpt lat="46.01326" lon="5.99759">
        <ele>385</ele>
        <time>2018-05-23T20:26:31Z</time>
      </trkpt>
      <trkpt lat="46.01308" lon="5.997">
        <ele>384</ele>
        <time>2018-05-23T20:27:31Z</time>
      </trkpt>
      <trkpt lat="46.01368" lon="5.99782">
        <ele>381</ele>
        <time>2018-05-23T20:28:31Z</time>
      </trkpt>
      <trkpt lat="46.01436" lon="5.99885">
        <ele>379</ele>
        <time>2018-05-23T20:29:31Z</time>
      </trkpt>
      <trkpt lat="46.0154" lon="6.0008">
        <ele>381</ele>
        <time>2018-05-23T20:30:31Z</time>
      </trkpt>
      <trkpt lat="46.01701" lon="6.00374">
        <ele>380</ele>
        <time>2018-05-23T20:31:31Z</time>
      </trkpt>
      <trkpt lat="46.01966" lon="6.00857">
        <ele>384</ele>
        <time>2018-05-23T20:32:31Z</time>
      </trkpt>
      <trkpt lat="46.01994" lon="6.00898">
        <ele>384</ele>
        <time>2018-05-23T20:33:31Z</time>
      </trkpt>
      <trkpt lat="46.02071" lon="6.00992">
        <ele>386</ele>
        <time>2018-05-23T20:34:31Z</time>
      </trkpt>
      <trkpt lat="46.02121" lon="6.01048">
        <ele>388</ele>
        <time>2018-05-23T20:35:31Z</time>
      </trkpt>
      <trkpt lat="46.02153" lon="6.01097">
        <ele>390</ele>
        <time>2018-05-23T20:36:31Z</time>
      </trkpt>
      <trkpt lat="46.0219" lon="6.01142">
        <ele>391</ele>
        <time>2018-05-23T20:37:31Z</time>
      </trkpt>
      <trkpt lat="46.02224" lon="6.01188">
        <ele>392</ele>
        <time>2018-05-23T20:38:31Z</time>
      </trkpt>
      <trkpt lat="46.02236" lon="6.01207">
        <ele>393</ele>
        <time>2018-05-23T20:39:31Z</time>
      </trkpt>
      <trkpt lat="46.02254" lon="6.01246">
        <ele>394</ele>
        <time>2018-05-23T20:40:31Z</time>
      </trkpt>
      <trkpt lat="46.02264" lon="6.01263">
        <ele>395</ele>
        <time>2018-05-23T20:41:31Z</time>
      </trkpt>
      <trkpt lat="46.02277" lon="6.01276">
        <ele>394</ele>
        <time>2018-05-23T20:42:31Z</time>
      </trkpt>
      <trkpt lat="46.02333" lon="6.01319">
        <ele>390</ele>
        <time>2018-05-23T20:43:31Z</time>
      </trkpt>
      <trkpt lat="46.02339" lon="6.01299">
        <ele>390</ele>
        <time>2018-05-23T20:44:31Z</time>
      </trkpt>
      <trkpt lat="46.02351" lon="6.01283">
        <ele>391</ele>
        <time>2018-05-23T20:45:31Z</time>
      </trkpt>
      <trkpt lat="46.02365" lon="6.01271">
        <ele>392</ele>
        <time>2018-05-23T20:46:31Z</time>
      </trkpt>
      <trkpt lat="46.02374" lon="6.01262">
        <ele>393</ele>
        <time>2018-05-23T20:47:31Z</time>
      </trkpt>
      <trkpt lat="46.02382" lon="6.01241">
        <ele>394</ele>
        <time>2018-05-23T20:48:31Z</time>
      </trkpt>
      <trkpt lat="46.02388" lon="6.01213">
        <ele>395</ele>
        <time>2018-05-23T20:49:31Z</time>
      </trkpt>
      <trkpt lat="46.02399" lon="6.01189">
        <ele>396</ele>
        <time>2018-05-23T20:50:31Z</time>
      </trkpt>
      <trkpt lat="46.0241" lon="6.01177">
        <ele>398</ele>
        <time>2018-05-23T20:51:31Z</time>
      </trkpt>
      <trkpt lat="46.02423" lon="6.0117">
        <ele>400</ele>
        <time>2018-05-23T20:52:31Z</time>
      </trkpt>
      <trkpt lat="46.02434" lon="6.01175">
        <ele>401</ele>
        <time>2018-05-23T20:53:31Z</time>
      </trkpt>
      <trkpt lat="46.02451" lon="6.0119">
        <ele>403</ele>
        <time>2018-05-23T20:54:31Z</time>
      </trkpt>
      <trkpt lat="46.02488" lon="6.01237">
        <ele>407</ele>
        <time>2018-05-23T20:55:31Z</time>
      </trkpt>
      <trkpt lat="46.02501" lon="6.01258">
        <ele>408</ele>
        <time>2018-05-23T20:56:31Z</time>
      </trkpt>
      <trkpt lat="46.02541" lon="6.01338">
        <ele>412</ele>
        <time>2018-05-23T20:57:31Z</time>
      </trkpt>
      <trkpt lat="46.02557" lon="6.01362">
        <ele>414</ele>
        <time>2018-05-23T20:58:31Z</time>
      </trkpt>
      <trkpt lat="46.02617" lon="6.01419">
        <ele>419</ele>
        <time>2018-05-23T20:59:31Z</time>
      </trkpt>
      <trkpt lat="46.02661" lon="6.01466">
        <ele>424</ele>
        <time>2018-05-23T21:00:31Z</time>
      </trkpt>
      <trkpt lat="46.02672" lon="6.01482">
        <ele>425</ele>
        <time>2018-05-23T21:01:31Z</time>
      </trkpt>
      <trkpt lat="46.02707" lon="6.01547">
        <ele>429</ele>
        <time>2018-05-23T21:02:31Z</time>
      </trkpt>
      <trkpt lat="46.02727" lon="6.01579">
        <ele>430</ele>
        <time>2018-05-23T21:03:31Z</time>
      </trkpt>
      <trkpt lat="46.02743" lon="6.016">
        <ele>432</ele>
        <time>2018-05-23T21:04:31Z</time>
      </trkpt>
      <trkpt lat="46.02823" lon="6.01716">
        <ele>435</ele>
        <time>2018-05-23T21:05:31Z</time>
      </trkpt>
      <trkpt lat="46.02838" lon="6.01731">
        <ele>436</ele>
        <time>2018-05-23T21:06:31Z</time>
      </trkpt>
      <trkpt lat="46.02872" lon="6.01752">
        <ele>440</ele>
        <time>2018-05-23T21:07:31Z</time>
      </trkpt>
      <trkpt lat="46.02905" lon="6.0176">
        <ele>444</ele>
        <time>2018-05-23T21:08:31Z</time>
      </trkpt>
      <trkpt lat="46.02933" lon="6.01776">
        <ele>447</ele>
        <time>2018-05-23T21:09:31Z</time>
      </trkpt>
      <trkpt lat="46.02947" lon="6.01788">
        <ele>448</ele>
        <time>2018-05-23T21:10:31Z</time>
      </trkpt>
      <trkpt lat="46.03004" lon="6.01852">
        <ele>450</ele>
        <time>2018-05-23T21:11:31Z</time>
      </trkpt>
      <trkpt lat="46.03031" lon="6.01874">
        <ele>452</ele>
        <time>2018-05-23T21:12:31Z</time>
      </trkpt>
      <trkpt lat="46.03123" lon="6.01934">
        <ele>455</ele>
        <time>2018-05-23T21:13:31Z</time>
      </trkpt>
      <trkpt lat="46.03142" lon="6.01945">
        <ele>455</ele>
        <time>2018-05-23T21:14:31Z</time>
      </trkpt>
      <trkpt lat="46.03159" lon="6.01958">
        <ele>454</ele>
        <time>2018-05-23T21:15:31Z</time>
      </trkpt>
      <trkpt lat="46.03194" lon="6.01975">
        <ele>455</ele>
        <time>2018-05-23T21:16:31Z</time>
      </trkpt>
      <trkpt lat="46.03219" lon="6.01977">
        <ele>458</ele>
        <time>2018-05-23T21:17:31Z</time>
      </trkpt>
      <trkpt lat="46.0323" lon="6.01971">
        <ele>459</ele>
        <time>2018-05-23T21:18:31Z</time>
      </trkpt>
      <trkpt lat="46.03237" lon="6.01962">
        <ele>461</ele>
        <time>2018-05-23T21:19:31Z</time>
      </trkpt>
      <trkpt lat="46.03241" lon="6.01949">
        <ele>462</ele>
        <time>2018-05-23T21:20:31Z</time>
      </trkpt>
      <trkpt lat="46.03245" lon="6.01919">
        <ele>464</ele>
        <time>2018-05-23T21:21:31Z</time>
      </trkpt>
      <trkpt lat="46.03243" lon="6.01904">
        <ele>466</ele>
        <time>2018-05-23T21:22:31Z</time>
      </trkpt>
      <trkpt lat="46.03234" lon="6.01874">
        <ele>469</ele>
        <time>2018-05-23T21:23:31Z</time>
      </trkpt>
      <trkpt lat="46.03226" lon="6.01861">
        <ele>470</ele>
        <time>2018-05-23T21:24:31Z</time>
      </trkpt>
      <trkpt lat="46.03198" lon="6.01806">
        <ele>473</ele>
        <time>2018-05-23T21:25:31Z</time>
      </trkpt>
      <trkpt lat="46.03192" lon="6.01773">
        <ele>476</ele>
        <time>2018-05-23T21:26:31Z</time>
      </trkpt>
      <trkpt lat="46.03196" lon="6.01748">
        <ele>478</ele>
        <time>2018-05-23T21:27:31Z</time>
      </trkpt>
      <trkpt lat="46.03202" lon="6.01739">
        <ele>479</ele>
        <time>2018-05-23T21:28:31Z</time>
      </trkpt>
      <trkpt lat="46.03209" lon="6.01735">
        <ele>480</ele>
        <time>2018-05-23T21:29:31Z</time>
      </trkpt>
      <trkpt lat="46.03247" lon="6.01741">
        <ele>482</ele>
        <time>2018-05-23T21:30:31Z</time>
      </trkpt>
      <trkpt lat="46.03258" lon="6.01739">
        <ele>483</ele>
        <time>2018-05-23T21:31:31Z</time>
      </trkpt>
      <trkpt lat="46.0329" lon="6.01724">
        <ele>486</ele>
        <time>2018-05-23T21:32:31Z</time>
      </trkpt>
      <trkpt lat="46.03303" lon="6.01715">
        <ele>488</ele>
        <time>2018-05-23T21:33:31Z</time>
      </trkpt>
      <trkpt lat="46.03312" lon="6.01704">
        <ele>489</ele>
        <time>2018-05-23T21:34:31Z</time>
      </trkpt>
      <trkpt lat="46.03317" lon="6.01688">
        <ele>490</ele>
        <time>2018-05-23T21:35:31Z</time>
      </trkpt>
      <trkpt lat="46.03316" lon="6.01672">
        <ele>491</ele>
        <time>2018-05-23T21:36:31Z</time>
      </trkpt>
      <trkpt lat="46.0331" lon="6.01654">
        <ele>493</ele>
        <time>2018-05-23T21:37:31Z</time>
      </trkpt>
      <trkpt lat="46.03292" lon="6.01628">
        <ele>494</ele>
        <time>2018-05-23T21:38:31Z</time>
      </trkpt>
      <trkpt lat="46.03286" lon="6.01615">
        <ele>495</ele>
        <time>2018-05-23T21:39:31Z</time>
      </trkpt>
      <trkpt lat="46.03273" lon="6.01606">
        <ele>496</ele>
        <time>2018-05-23T21:40:31Z</time>
      </trkpt>
      <trkpt lat="46.03255" lon="6.01584">
        <ele>497</ele>
        <time>2018-05-23T21:41:31Z</time>
      </trkpt>
      <trkpt lat="46.03229" lon="6.01536">
        <ele>498</ele>
        <time>2018-05-23T21:42:31Z</time>
      </trkpt>
      <trkpt lat="46.03192" lon="6.01385">
        <ele>502</ele>
        <time>2018-05-23T21:43:31Z</time>
      </trkpt>
      <trkpt lat="46.03174" lon="6.01297">
        <ele>506</ele>
        <time>2018-05-23T21:44:31Z</time>
      </trkpt>
      <trkpt lat="46.03172" lon="6.01273">
        <ele>508</ele>
        <time>2018-05-23T21:45:31Z</time>
      </trkpt>
      <trkpt lat="46.03172" lon="6.01153">
        <ele>514</ele>
        <time>2018-05-23T21:46:31Z</time>
      </trkpt>
      <trkpt lat="46.03177" lon="6.01039">
        <ele>518</ele>
        <time>2018-05-23T21:47:31Z</time>
      </trkpt>
      <trkpt lat="46.03174" lon="6.00975">
        <ele>520</ele>
        <time>2018-05-23T21:48:31Z</time>
      </trkpt>
      <trkpt lat="46.0317" lon="6.0096">
        <ele>520</ele>
        <time>2018-05-23T21:49:31Z</time>
      </trkpt>
      <trkpt lat="46.03167" lon="6.0091">
        <ele>520</ele>
        <time>2018-05-23T21:50:31Z</time>
      </trkpt>
      <trkpt lat="46.03174" lon="6.00872">
        <ele>522</ele>
        <time>2018-05-23T21:51:31Z</time>
      </trkpt>
      <trkpt lat="46.0317" lon="6.00842">
        <ele>523</ele>
        <time>2018-05-23T21:52:31Z</time>
      </trkpt>
      <trkpt lat="46.03163" lon="6.00823">
        <ele>523</ele>
        <time>2018-05-23T21:53:31Z</time>
      </trkpt>
      <trkpt lat="46.0315" lon="6.0081">
        <ele>523</ele>
        <time>2018-05-23T21:54:31Z</time>
      </trkpt>
      <trkpt lat="46.03144" lon="6.00795">
        <ele>523</ele>
        <time>2018-05-23T21:55:31Z</time>
      </trkpt>
      <trkpt lat="46.03138" lon="6.00748">
        <ele>524</ele>
        <time>2018-05-23T21:56:31Z</time>
      </trkpt>
      <trkpt lat="46.03138" lon="6.00681">
        <ele>527</ele>
        <time>2018-05-23T21:57:31Z</time>
      </trkpt>
      <trkpt lat="46.03149" lon="6.00613">
        <ele>530</ele>
        <time>2018-05-23T21:58:31Z</time>
      </trkpt>
      <trkpt lat="46.03155" lon="6.00592">
        <ele>531</ele>
        <time>2018-05-23T21:59:31Z</time>
      </trkpt>
      <trkpt lat="46.03155" lon="6.00592">
        <ele>531</ele>
        <time>2018-05-23T22:00:31Z</time>
      </trkpt>
      <trkpt lat="46.03159" lon="6.0058">
        <ele>532</ele>
        <time>2018-05-23T22:01:31Z</time>
      </trkpt>
      <trkpt lat="46.03185" lon="6.00525">
        <ele>537</ele>
        <time>2018-05-23T22:02:31Z</time>
      </trkpt>
      <trkpt lat="46.03195" lon="6.00476">
        <ele>540</ele>
        <time>2018-05-23T22:03:31Z</time>
      </trkpt>
      <trkpt lat="46.03199" lon="6.00375">
        <ele>544</ele>
        <time>2018-05-23T22:04:31Z</time>
      </trkpt>
      <trkpt lat="46.03217" lon="6.00367">
        <ele>546</ele>
        <time>2018-05-23T22:05:31Z</time>
      </trkpt>
      <trkpt lat="46.03224" lon="6.00333">
        <ele>548</ele>
        <time>2018-05-23T22:06:31Z</time>
      </trkpt>
      <trkpt lat="46.03228" lon="6.00321">
        <ele>549</ele>
        <time>2018-05-23T22:07:31Z</time>
      </trkpt>
      <trkpt lat="46.03245" lon="6.00291">
        <ele>550</ele>
        <time>2018-05-23T22:08:31Z</time>
      </trkpt>
      <trkpt lat="46.03263" lon="6.00274">
        <ele>553</ele>
        <time>2018-05-23T22:09:31Z</time>
      </trkpt>
      <trkpt lat="46.03287" lon="6.00246">
        <ele>556</ele>
        <time>2018-05-23T22:10:31Z</time>
      </trkpt>
      <trkpt lat="46.03298" lon="6.0022">
        <ele>557</ele>
        <time>2018-05-23T22:11:31Z</time>
      </trkpt>
      <trkpt lat="46.03305" lon="6.00211">
        <ele>558</ele>
        <time>2018-05-23T22:12:31Z</time>
      </trkpt>
      <trkpt lat="46.03292" lon="6.00143">
        <ele>554</ele>
        <time>2018-05-23T22:13:31Z</time>
      </trkpt>
      <trkpt lat="46.03296" lon="6.00098">
        <ele>554</ele>
        <time>2018-05-23T22:14:31Z</time>
      </trkpt>
      <trkpt lat="46.03324" lon="5.99976">
        <ele>553</ele>
        <time>2018-05-23T22:15:31Z</time>
      </trkpt>
      <trkpt lat="46.03336" lon="5.99938">
        <ele>553</ele>
        <time>2018-05-23T22:16:31Z</time>
      </trkpt>
      <trkpt lat="46.03404" lon="5.99692">
        <ele>549</ele>
        <time>2018-05-23T22:17:31Z</time>
      </trkpt>
      <trkpt lat="46.03432" lon="5.99607">
        <ele>548</ele>
        <time>2018-05-23T22:18:31Z</time>
      </trkpt>
      <trkpt lat="46.03469" lon="5.99538">
        <ele>547</ele>
        <time>2018-05-23T22:19:31Z</time>
      </trkpt>
      <trkpt lat="46.0349" lon="5.99488">
        <ele>545</ele>
        <time>2018-05-23T22:20:31Z</time>
      </trkpt>
      <trkpt lat="46.03521" lon="5.99427">
        <ele>543</ele>
        <time>2018-05-23T22:21:31Z</time>
      </trkpt>
      <trkpt lat="46.03542" lon="5.99378">
        <ele>542</ele>
        <time>2018-05-23T22:22:31Z</time>
      </trkpt>
      <trkpt lat="46.03561" lon="5.9928">
        <ele>541</ele>
        <time>2018-05-23T22:23:31Z</time>
      </trkpt>
      <trkpt lat="46.03599" lon="5.991">
        <ele>540</ele>
        <time>2018-05-23T22:24:31Z</time>
      </trkpt>
      <trkpt lat="46.03601" lon="5.99081">
        <ele>540</ele>
        <time>2018-05-23T22:25:31Z</time>
      </trkpt>
      <trkpt lat="46.03599" lon="5.9904">
        <ele>538</ele>
        <time>2018-05-23T22:26:31Z</time>
      </trkpt>
      <trkpt lat="46.03576" lon="5.98935">
        <ele>533</ele>
        <time>2018-05-23T22:27:31Z</time>
      </trkpt>
      <trkpt lat="46.03556" lon="5.9886">
        <ele>529</ele>
        <time>2018-05-23T22:28:31Z</time>
      </trkpt>
      <trkpt lat="46.03554" lon="5.98842">
        <ele>528</ele>
        <time>2018-05-23T22:29:31Z</time>
      </trkpt>
      <trkpt lat="46.03561" lon="5.98808">
        <ele>527</ele>
        <time>2018-05-23T22:30:31Z</time>
      </trkpt>
      <trkpt lat="46.03574" lon="5.9878">
        <ele>526</ele>
        <time>2018-05-23T22:31:31Z</time>
      </trkpt>
      <trkpt lat="46.03595" lon="5.98757">
        <ele>524</ele>
        <time>2018-05-23T22:32:31Z</time>
      </trkpt>
      <trkpt lat="46.03621" lon="5.98735">
        <ele>523</ele>
        <time>2018-05-23T22:33:31Z</time>
      </trkpt>
      <trkpt lat="46.03691" lon="5.98668">
        <ele>518</ele>
        <time>2018-05-23T22:34:31Z</time>
      </trkpt>
      <trkpt lat="46.03739" lon="5.98626">
        <ele>517</ele>
        <time>2018-05-23T22:35:31Z</time>
      </trkpt>
      <trkpt lat="46.03769" lon="5.98609">
        <ele>515</ele>
        <time>2018-05-23T22:36:31Z</time>
      </trkpt>
      <trkpt lat="46.03872" lon="5.98542">
        <ele>505</ele>
        <time>2018-05-23T22:37:31Z</time>
      </trkpt>
      <trkpt lat="46.03953" lon="5.98526">
        <ele>499</ele>
        <time>2018-05-23T22:38:31Z</time>
      </trkpt>
      <trkpt lat="46.03972" lon="5.98528">
        <ele>498</ele>
        <time>2018-05-23T22:39:31Z</time>
      </trkpt>
      <trkpt lat="46.04002" lon="5.9855">
        <ele>498</ele>
        <time>2018-05-23T22:40:31Z</time>
      </trkpt>
      <trkpt lat="46.04021" lon="5.98556">
        <ele>499</ele>
        <time>2018-05-23T22:41:31Z</time>
      </trkpt>
      <trkpt lat="46.04047" lon="5.98548">
        <ele>499</ele>
        <time>2018-05-23T22:42:31Z</time>
      </trkpt>
      <trkpt lat="46.04097" lon="5.98501">
        <ele>495</ele>
        <time>2018-05-23T22:43:31Z</time>
      </trkpt>
      <trkpt lat="46.04112" lon="5.98477">
        <ele>493</ele>
        <time>2018-05-23T22:44:31Z</time>
      </trkpt>
      <trkpt lat="46.04139" lon="5.98411">
        <ele>485</ele>
        <time>2018-05-23T22:45:31Z</time>
      </trkpt>
      <trkpt lat="46.04154" lon="5.98385">
        <ele>483</ele>
        <time>2018-05-23T22:46:31Z</time>
      </trkpt>
      <trkpt lat="46.04217" lon="5.98323">
        <ele>480</ele>
        <time>2018-05-23T22:47:31Z</time>
      </trkpt>
      <trkpt lat="46.04253" lon="5.98289">
        <ele>479</ele>
        <time>2018-05-23T22:48:31Z</time>
      </trkpt>
      <trkpt lat="46.04267" lon="5.98274">
        <ele>477</ele>
        <time>2018-05-23T22:49:31Z</time>
      </trkpt>
      <trkpt lat="46.04285" lon="5.98266">
        <ele>476</ele>
        <time>2018-05-23T22:50:31Z</time>
      </trkpt>
      <trkpt lat="46.04299" lon="5.98266">
        <ele>475</ele>
        <time>2018-05-23T22:51:31Z</time>
      </trkpt>
      <trkpt lat="46.04313" lon="5.98272">
        <ele>475</ele>
        <time>2018-05-23T22:52:31Z</time>
      </trkpt>
      <trkpt lat="46.04346" lon="5.98289">
        <ele>476</ele>
        <time>2018-05-23T22:53:31Z</time>
      </trkpt>
      <trkpt lat="46.04374" lon="5.98297">
        <ele>475</ele>
        <time>2018-05-23T22:54:31Z</time>
      </trkpt>
      <trkpt lat="46.04389" lon="5.98299">
        <ele>475</ele>
        <time>2018-05-23T22:55:31Z</time>
      </trkpt>
      <trkpt lat="46.04419" lon="5.98291">
        <ele>473</ele>
        <time>2018-05-23T22:56:31Z</time>
      </trkpt>
      <trkpt lat="46.04447" lon="5.98276">
        <ele>472</ele>
        <time>2018-05-23T22:57:31Z</time>
      </trkpt>
      <trkpt lat="46.04496" lon="5.98257">
        <ele>471</ele>
        <time>2018-05-23T22:58:31Z</time>
      </trkpt>
      <trkpt lat="46.04511" lon="5.98248">
        <ele>471</ele>
        <time>2018-05-23T22:59:31Z</time>
      </trkpt>
      <trkpt lat="46.04573" lon="5.98222">
        <ele>471</ele>
        <time>2018-05-23T23:00:31Z</time>
      </trkpt>
      <trkpt lat="46.046" lon="5.98208">
        <ele>472</ele>
        <time>2018-05-23T23:01:31Z</time>
      </trkpt>
      <trkpt lat="46.04641" lon="5.98177">
        <ele>473</ele>
        <time>2018-05-23T23:02:31Z</time>
      </trkpt>
      <trkpt lat="46.04658" lon="5.98153">
        <ele>473</ele>
        <time>2018-05-23T23:03:31Z</time>
      </trkpt>
      <trkpt lat="46.04669" lon="5.98124">
        <ele>473</ele>
        <time>2018-05-23T23:04:31Z</time>
      </trkpt>
      <trkpt lat="46.04677" lon="5.98044">
        <ele>472</ele>
        <time>2018-05-23T23:05:31Z</time>
      </trkpt>
      <trkpt lat="46.04677" lon="5.98044">
        <ele>472</ele>
        <time>2018-05-23T23:06:31Z</time>
      </trkpt>
      <trkpt lat="46.04679" lon="5.98024">
        <ele>472</ele>
        <time>2018-05-23T23:07:31Z</time>
      </trkpt>
      <trkpt lat="46.04574" lon="5.98001">
        <ele>468</ele>
        <time>2018-05-23T23:08:31Z</time>
      </trkpt>
      <trkpt lat="46.04433" lon="5.97964">
        <ele>469</ele>
        <time>2018-05-23T23:09:31Z</time>
      </trkpt>
      <trkpt lat="46.04412" lon="5.97952">
        <ele>470</ele>
        <time>2018-05-23T23:10:31Z</time>
      </trkpt>
      <trkpt lat="46.04394" lon="5.97927">
        <ele>472</ele>
        <time>2018-05-23T23:11:31Z</time>
      </trkpt>
      <trkpt lat="46.04368" lon="5.97887">
        <ele>475</ele>
        <time>2018-05-23T23:12:31Z</time>
      </trkpt>
      <trkpt lat="46.04273" lon="5.97701">
        <ele>481</ele>
        <time>2018-05-23T23:13:31Z</time>
      </trkpt>
      <trkpt lat="46.04246" lon="5.97657">
        <ele>482</ele>
        <time>2018-05-23T23:14:31Z</time>
      </trkpt>
      <trkpt lat="46.04138" lon="5.97501">
        <ele>479</ele>
        <time>2018-05-23T23:15:31Z</time>
      </trkpt>
      <trkpt lat="46.04057" lon="5.97389">
        <ele>481</ele>
        <time>2018-05-23T23:16:31Z</time>
      </trkpt>
      <trkpt lat="46.03867" lon="5.97113">
        <ele>486</ele>
        <time>2018-05-23T23:17:31Z</time>
      </trkpt>
      <trkpt lat="46.03849" lon="5.97092">
        <ele>486</ele>
        <time>2018-05-23T23:18:31Z</time>
      </trkpt>
      <trkpt lat="46.03832" lon="5.9708">
        <ele>484</ele>
        <time>2018-05-23T23:19:31Z</time>
      </trkpt>
      <trkpt lat="46.03813" lon="5.97075">
        <ele>484</ele>
        <time>2018-05-23T23:20:31Z</time>
      </trkpt>
      <trkpt lat="46.03544" lon="5.97052">
        <ele>476</ele>
        <time>2018-05-23T23:21:31Z</time>
      </trkpt>
      <trkpt lat="46.03526" lon="5.97049">
        <ele>476</ele>
        <time>2018-05-23T23:22:31Z</time>
      </trkpt>
      <trkpt lat="46.03514" lon="5.97045">
        <ele>475</ele>
        <time>2018-05-23T23:23:31Z</time>
      </trkpt>
      <trkpt lat="46.03503" lon="5.97038">
        <ele>475</ele>
        <time>2018-05-23T23:24:31Z</time>
      </trkpt>
      <trkpt lat="46.03485" lon="5.97016">
        <ele>475</ele>
        <time>2018-05-23T23:25:31Z</time>
      </trkpt>
      <trkpt lat="46.0348" lon="5.97001">
        <ele>476</ele>
        <time>2018-05-23T23:26:31Z</time>
      </trkpt>
      <trkpt lat="46.03477" lon="5.96981">
        <ele>476</ele>
        <time>2018-05-23T23:27:31Z</time>
      </trkpt>
      <trkpt lat="46.03468" lon="5.96799">
        <ele>477</ele>
        <time>2018-05-23T23:28:31Z</time>
      </trkpt>
      <trkpt lat="46.03464" lon="5.96763">
        <ele>478</ele>
        <time>2018-05-23T23:29:31Z</time>
      </trkpt>
      <trkpt lat="46.03457" lon="5.96746">
        <ele>479</ele>
        <time>2018-05-23T23:30:31Z</time>
      </trkpt>
      <trkpt lat="46.03447" lon="5.9673">
        <ele>479</ele>
        <time>2018-05-23T23:31:31Z</time>
      </trkpt>
      <trkpt lat="46.0343" lon="5.96714">
        <ele>479</ele>
        <time>2018-05-23T23:32:31Z</time>
      </trkpt>
      <trkpt lat="46.03266" lon="5.96613">
        <ele>478</ele>
        <time>2018-05-23T23:33:31Z</time>
      </trkpt>
      <trkpt lat="46.0296" lon="5.96407">
        <ele>474</ele>
        <time>2018-05-23T23:34:31Z</time>
      </trkpt>
      <trkpt lat="46.02934" lon="5.96389">
        <ele>476</ele>
        <time>2018-05-23T23:35:31Z</time>
      </trkpt>
      <trkpt lat="46.02919" lon="5.96373">
        <ele>476</ele>
        <time>2018-05-23T23:36:31Z</time>
      </trkpt>
      <trkpt lat="46.02898" lon="5.96287">
        <ele>479</ele>
        <time>2018-05-23T23:37:31Z</time>
      </trkpt>
      <trkpt lat="46.02893" lon="5.9625">
        <ele>479</ele>
        <time>2018-05-23T23:38:31Z</time>
      </trkpt>
      <trkpt lat="46.02881" lon="5.96186">
        <ele>476</ele>
        <time>2018-05-23T23:39:31Z</time>
      </trkpt>
      <trkpt lat="46.02879" lon="5.96167">
        <ele>475</ele>
        <time>2018-05-23T23:40:31Z</time>
      </trkpt>
      <trkpt lat="46.02879" lon="5.96154">
        <ele>475</ele>
        <time>2018-05-23T23:41:31Z</time>
      </trkpt>
      <trkpt lat="46.02882" lon="5.96131">
        <ele>476</ele>
        <time>2018-05-23T23:42:31Z</time>
      </trkpt>
      <trkpt lat="46.0289" lon="5.96097">
        <ele>479</ele>
        <time>2018-05-23T23:43:31Z</time>
      </trkpt>
      <trkpt lat="46.02897" lon="5.96078">
        <ele>481</ele>
        <time>2018-05-23T23:44:31Z</time>
      </trkpt>
      <trkpt lat="46.02906" lon="5.9606">
        <ele>481</ele>
        <time>2018-05-23T23:45:31Z</time>
      </trkpt>
      <trkpt lat="46.02917" lon="5.96046">
        <ele>483</ele>
        <time>2018-05-23T23:46:31Z</time>
      </trkpt>
      <trkpt lat="46.02963" lon="5.96002">
        <ele>489</ele>
        <time>2018-05-23T23:47:31Z</time>
      </trkpt>
      <trkpt lat="46.02975" lon="5.95987">
        <ele>490</ele>
        <time>2018-05-23T23:48:31Z</time>
      </trkpt>
      <trkpt lat="46.02982" lon="5.95973">
        <ele>490</ele>
        <time>2018-05-23T23:49:31Z</time>
      </trkpt>
      <trkpt lat="46.02999" lon="5.9591">
        <ele>487</ele>
        <time>2018-05-23T23:50:31Z</time>
      </trkpt>
      <trkpt lat="46.03015" lon="5.95876">
        <ele>490</ele>
        <time>2018-05-23T23:51:31Z</time>
      </trkpt>
      <trkpt lat="46.03022" lon="5.95858">
        <ele>491</ele>
        <time>2018-05-23T23:52:31Z</time>
      </trkpt>
      <trkpt lat="46.03025" lon="5.95837">
        <ele>489</ele>
        <time>2018-05-23T23:53:31Z</time>
      </trkpt>
      <trkpt lat="46.03024" lon="5.95818">
        <ele>488</ele>
        <time>2018-05-23T23:54:31Z</time>
      </trkpt>
      <trkpt lat="46.03017" lon="5.95773">
        <ele>485</ele>
        <time>2018-05-23T23:55:31Z</time>
      </trkpt>
      <trkpt lat="46.03014" lon="5.95744">
        <ele>484</ele>
        <time>2018-05-23T23:56:31Z</time>
      </trkpt>
      <trkpt lat="46.0301" lon="5.95561">
        <ele>485</ele>
        <time>2018-05-23T23:57:31Z</time>
      </trkpt>
      <trkpt lat="46.0301" lon="5.95499">
        <ele>482</ele>
        <time>2018-05-23T23:58:31Z</time>
      </trkpt>
      <trkpt lat="46.03009" lon="5.95466">
        <ele>482</ele>
        <time>2018-05-23T23:59:31Z</time>
      </trkpt>
      <trkpt lat="46.03009" lon="5.95466">
        <ele>482</ele>
        <time>2018-05-24T00:00:31Z</time>
      </trkpt>
      <trkpt lat="46.02992" lon="5.95221">
        <ele>474</ele>
        <time>2018-05-24T00:01:31Z</time>
      </trkpt>
      <trkpt lat="46.02989" lon="5.95196">
        <ele>473</ele>
        <time>2018-05-24T00:02:31Z</time>
      </trkpt>
      <trkpt lat="46.0296" lon="5.95056">
        <ele>474</ele>
        <time>2018-05-24T00:03:31Z</time>
      </trkpt>
      <trkpt lat="46.02958" lon="5.95047">
        <ele>474</ele>
        <time>2018-05-24T00:04:31Z</time>
      </trkpt>
      <trkpt lat="46.02951" lon="5.95032">
        <ele>475</ele>
        <time>2018-05-24T00:05:31Z</time>
      </trkpt>
      <trkpt lat="46.02941" lon="5.95021">
        <ele>475</ele>
        <time>2018-05-24T00:06:31Z</time>
      </trkpt>
      <trkpt lat="46.02927" lon="5.95013">
        <ele>474</ele>
        <time>2018-05-24T00:07:31Z</time>
      </trkpt>
      <trkpt lat="46.02822" lon="5.95005">
        <ele>468</ele>
        <time>2018-05-24T00:08:31Z</time>
      </trkpt>
      <trkpt lat="46.02799" lon="5.94998">
        <ele>467</ele>
        <time>2018-05-24T00:09:31Z</time>
      </trkpt>
      <trkpt lat="46.02597" lon="5.94919">
        <ele>449</ele>
        <time>2018-05-24T00:10:31Z</time>
      </trkpt>
      <trkpt lat="46.02585" lon="5.94912">
        <ele>448</ele>
        <time>2018-05-24T00:11:31Z</time>
      </trkpt>
      <trkpt lat="46.02574" lon="5.949">
        <ele>447</ele>
        <time>2018-05-24T00:12:31Z</time>
      </trkpt>
      <trkpt lat="46.02565" lon="5.94882">
        <ele>446</ele>
        <time>2018-05-24T00:13:31Z</time>
      </trkpt>
      <trkpt lat="46.02559" lon="5.94852">
        <ele>446</ele>
        <time>2018-05-24T00:14:31Z</time>
      </trkpt>
      <trkpt lat="46.02522" lon="5.94624">
        <ele>443</ele>
        <time>2018-05-24T00:15:31Z</time>
      </trkpt>
      <trkpt lat="46.02517" lon="5.94608">
        <ele>443</ele>
        <time>2018-05-24T00:16:31Z</time>
      </trkpt>
      <trkpt lat="46.02511" lon="5.94598">
        <ele>443</ele>
        <time>2018-05-24T00:17:31Z</time>
      </trkpt>
      <trkpt lat="46.02498" lon="5.94585">
        <ele>443</ele>
        <time>2018-05-24T00:18:31Z</time>
      </trkpt>
      <trkpt lat="46.02464" lon="5.94578">
        <ele>441</ele>
        <time>2018-05-24T00:19:31Z</time>
      </trkpt>
      <trkpt lat="46.02423" lon="5.94578">
        <ele>439</ele>
        <time>2018-05-24T00:20:31Z</time>
      </trkpt>
      <trkpt lat="46.02328" lon="5.94584">
        <ele>430</ele>
        <time>2018-05-24T00:21:31Z</time>
      </trkpt>
      <trkpt lat="46.02317" lon="5.94582">
        <ele>429</ele>
        <time>2018-05-24T00:22:31Z</time>
      </trkpt>
      <trkpt lat="46.02307" lon="5.94577">
        <ele>428</ele>
        <time>2018-05-24T00:23:31Z</time>
      </trkpt>
      <trkpt lat="46.02297" lon="5.94568">
        <ele>427</ele>
        <time>2018-05-24T00:24:31Z</time>
      </trkpt>
      <trkpt lat="46.02291" lon="5.9456">
        <ele>427</ele>
        <time>2018-05-24T00:25:31Z</time>
      </trkpt>
      <trkpt lat="46.02279" lon="5.94531">
        <ele>426</ele>
        <time>2018-05-24T00:26:31Z</time>
      </trkpt>
      <trkpt lat="46.02267" lon="5.94485">
        <ele>426</ele>
        <time>2018-05-24T00:27:31Z</time>
      </trkpt>
      <trkpt lat="46.02256" lon="5.94426">
        <ele>425</ele>
        <time>2018-05-24T00:28:31Z</time>
      </trkpt>
      <trkpt lat="46.0225" lon="5.94407">
        <ele>424</ele>
        <time>2018-05-24T00:29:31Z</time>
      </trkpt>
      <trkpt lat="46.02241" lon="5.94397">
        <ele>423</ele>
        <time>2018-05-24T00:30:31Z</time>
      </trkpt>
      <trkpt lat="46.02232" lon="5.94392">
        <ele>422</ele>
        <time>2018-05-24T00:31:31Z</time>
      </trkpt>
      <trkpt lat="46.02223" lon="5.94393">
        <ele>421</ele>
        <time>2018-05-24T00:32:31Z</time>
      </trkpt>
      <trkpt lat="46.02211" lon="5.94401">
        <ele>419</ele>
        <time>2018-05-24T00:33:31Z</time>
      </trkpt>
      <trkpt lat="46.02206" lon="5.94408">
        <ele>419</ele>
        <time>2018-05-24T00:34:31Z</time>
      </trkpt>
      <trkpt lat="46.02202" lon="5.94421">
        <ele>418</ele>
        <time>2018-05-24T00:35:31Z</time>
      </trkpt>
      <trkpt lat="46.022" lon="5.94436">
        <ele>417</ele>
        <time>2018-05-24T00:36:31Z</time>
      </trkpt>
      <trkpt lat="46.02206" lon="5.94478">
        <ele>417</ele>
        <time>2018-05-24T00:37:31Z</time>
      </trkpt>
      <trkpt lat="46.02207" lon="5.94493">
        <ele>417</ele>
        <time>2018-05-24T00:38:31Z</time>
      </trkpt>
      <trkpt lat="46.02206" lon="5.945">
        <ele>417</ele>
        <time>2018-05-24T00:39:31Z</time>
      </trkpt>
      <trkpt lat="46.02201" lon="5.9451">
        <ele>415</ele>
        <time>2018-05-24T00:40:31Z</time>
      </trkpt>
      <trkpt lat="46.02193" lon="5.94516">
        <ele>414</ele>
        <time>2018-05-24T00:41:31Z</time>
      </trkpt>
      <trkpt lat="46.02181" lon="5.94517">
        <ele>412</ele>
        <time>2018-05-24T00:42:31Z</time>
      </trkpt>
      <trkpt lat="46.02169" lon="5.94506">
        <ele>410</ele>
        <time>2018-05-24T00:43:31Z</time>
      </trkpt>
      <trkpt lat="46.0214" lon="5.94457">
        <ele>407</ele>
        <time>2018-05-24T00:44:31Z</time>
      </trkpt>
      <trkpt lat="46.02125" lon="5.94437">
        <ele>406</ele>
        <time>2018-05-24T00:45:31Z</time>
      </trkpt>
      <trkpt lat="46.02093" lon="5.94406">
        <ele>404</ele>
        <time>2018-05-24T00:46:31Z</time>
      </trkpt>
      <trkpt lat="46.02037" lon="5.94372">
        <ele>398</ele>
        <time>2018-05-24T00:47:31Z</time>
      </trkpt>
      <trkpt lat="46.02025" lon="5.94361">
        <ele>396</ele>
        <time>2018-05-24T00:48:31Z</time>
      </trkpt>
      <trkpt lat="46.02002" lon="5.94332">
        <ele>392</ele>
        <time>2018-05-24T00:49:31Z</time>
      </trkpt>
      <trkpt lat="46.01988" lon="5.94306">
        <ele>390</ele>
        <time>2018-05-24T00:50:31Z</time>
      </trkpt>
      <trkpt lat="46.01981" lon="5.94282">
        <ele>389</ele>
        <time>2018-05-24T00:51:31Z</time>
      </trkpt>
      <trkpt lat="46.01978" lon="5.94244">
        <ele>388</ele>
        <time>2018-05-24T00:52:31Z</time>
      </trkpt>
      <trkpt lat="46.01977" lon="5.94062">
        <ele>378</ele>
        <time>2018-05-24T00:53:31Z</time>
      </trkpt>
      <trkpt lat="46.01974" lon="5.93891">
        <ele>369</ele>
        <time>2018-05-24T00:54:31Z</time>
      </trkpt>
      <trkpt lat="46.01971" lon="5.93837">
        <ele>366</ele>
        <time>2018-05-24T00:55:31Z</time>
      </trkpt>
      <trkpt lat="46.01964" lon="5.93778">
        <ele>362</ele>
        <time>2018-05-24T00:56:31Z</time>
      </trkpt>
      <trkpt lat="46.01963" lon="5.93745">
        <ele>360</ele>
        <time>2018-05-24T00:57:31Z</time>
      </trkpt>
      <trkpt lat="46.01964" lon="5.93687">
        <ele>356</ele>
        <time>2018-05-24T00:58:31Z</time>
      </trkpt>
      <trkpt lat="46.01978" lon="5.935">
        <ele>346</ele>
        <time>2018-05-24T00:59:31Z</time>
      </trkpt>
      <trkpt lat="46.0198" lon="5.93429">
        <ele>345</ele>
        <time>2018-05-24T01:00:31Z</time>
      </trkpt>
      <trkpt lat="46.01961" lon="5.93168">
        <ele>337</ele>
        <time>2018-05-24T01:01:31Z</time>
      </trkpt>
      <trkpt lat="46.01948" lon="5.93114">
        <ele>332</ele>
        <time>2018-05-24T01:02:31Z</time>
      </trkpt>
      <trkpt lat="46.0194" lon="5.93097">
        <ele>331</ele>
        <time>2018-05-24T01:03:31Z</time>
      </trkpt>
      <trkpt lat="46.01933" lon="5.93089">
        <ele>329</ele>
        <time>2018-05-24T01:04:31Z</time>
      </trkpt>
      <trkpt lat="46.01941" lon="5.93066">
        <ele>330</ele>
        <time>2018-05-24T01:05:31Z</time>
      </trkpt>
      <trkpt lat="46.01941" lon="5.9305">
        <ele>329</ele>
        <time>2018-05-24T01:06:31Z</time>
      </trkpt>
      <trkpt lat="46.01938" lon="5.93037">
        <ele>329</ele>
        <time>2018-05-24T01:07:31Z</time>
      </trkpt>
      <trkpt lat="46.01915" lon="5.92991">
        <ele>326</ele>
        <time>2018-05-24T01:08:31Z</time>
      </trkpt>
      <trkpt lat="46.01915" lon="5.92991">
        <ele>326</ele>
        <time>2018-05-24T01:09:31Z</time>
      </trkpt>
      <trkpt lat="46.01907" lon="5.92973">
        <ele>326</ele>
        <time>2018-05-24T01:10:31Z</time>
      </trkpt>
      <trkpt lat="46.01892" lon="5.92897">
        <ele>325</ele>
        <time>2018-05-24T01:11:31Z</time>
      </trkpt>
      <trkpt lat="46.01882" lon="5.92858">
        <ele>325</ele>
        <time>2018-05-24T01:12:31Z</time>
      </trkpt>
      <trkpt lat="46.01829" lon="5.92337">
        <ele>317</ele>
        <time>2018-05-24T01:13:31Z</time>
      </trkpt>
      <trkpt lat="46.01827" lon="5.92292">
        <ele>316</ele>
        <time>2018-05-24T01:14:31Z</time>
      </trkpt>
      <trkpt lat="46.01827" lon="5.92273">
        <ele>316</ele>
        <time>2018-05-24T01:15:31Z</time>
      </trkpt>
      <trkpt lat="46.0183" lon="5.92261">
        <ele>316</ele>
        <time>2018-05-24T01:16:31Z</time>
      </trkpt>
      <trkpt lat="46.01859" lon="5.92148">
        <ele>319</ele>
        <time>2018-05-24T01:17:31Z</time>
      </trkpt>
      <trkpt lat="46.01865" lon="5.92151">
        <ele>319</ele>
        <time>2018-05-24T01:18:31Z</time>
      </trkpt>
      <trkpt lat="46.01872" lon="5.92151">
        <ele>320</ele>
        <time>2018-05-24T01:19:31Z</time>
      </trkpt>
      <trkpt lat="46.01878" lon="5.92148">
        <ele>321</ele>
        <time>2018-05-24T01:20:31Z</time>
      </trkpt>
      <trkpt lat="46.01883" lon="5.92141">
        <ele>321</ele>
        <time>2018-05-24T01:21:31Z</time>
      </trkpt>
      <trkpt lat="46.01885" lon="5.92133">
        <ele>321</ele>
        <time>2018-05-24T01:22:31Z</time>
      </trkpt>
      <trkpt lat="46.01886" lon="5.92121">
        <ele>321</ele>
        <time>2018-05-24T01:23:31Z</time>
      </trkpt>
      <trkpt lat="46.01881" lon="5.92109">
        <ele>321</ele>
        <time>2018-05-24T01:24:31Z</time>
      </trkpt>
      <trkpt lat="46.01884" lon="5.92078">
        <ele>321</ele>
        <time>2018-05-24T01:25:31Z</time>
      </trkpt>
      <trkpt lat="46.01912" lon="5.91985">
        <ele>320</ele>
        <time>2018-05-24T01:26:31Z</time>
      </trkpt>
      <trkpt lat="46.01924" lon="5.91925">
        <ele>321</ele>
        <time>2018-05-24T01:27:31Z</time>
      </trkpt>
      <trkpt lat="46.01944" lon="5.91474">
        <ele>319</ele>
        <time>2018-05-24T01:28:31Z</time>
      </trkpt>
      <trkpt lat="46.01948" lon="5.91427">
        <ele>319</ele>
        <time>2018-05-24T01:29:31Z</time>
      </trkpt>
      <trkpt lat="46.01954" lon="5.91394">
        <ele>319</ele>
        <time>2018-05-24T01:30:31Z</time>
      </trkpt>
      <trkpt lat="46.01964" lon="5.91357">
        <ele>318</ele>
        <time>2018-05-24T01:31:31Z</time>
      </trkpt>
      <trkpt lat="46.02033" lon="5.91166">
        <ele>314</ele>
        <time>2018-05-24T01:32:31Z</time>
      </trkpt>
      <trkpt lat="46.02042" lon="5.91147">
        <ele>314</ele>
        <time>2018-05-24T01:33:31Z</time>
      </trkpt>
      <trkpt lat="46.02053" lon="5.91128">
        <ele>314</ele>
        <time>2018-05-24T01:34:31Z</time>
      </trkpt>
      <trkpt lat="46.02074" lon="5.91103">
        <ele>313</ele>
        <time>2018-05-24T01:35:31Z</time>
      </trkpt>
      <trkpt lat="46.02089" lon="5.9109">
        <ele>312</ele>
        <time>2018-05-24T01:36:31Z</time>
      </trkpt>
      <trkpt lat="46.02109" lon="5.91079">
        <ele>311</ele>
        <time>2018-05-24T01:37:31Z</time>
      </trkpt>
      <trkpt lat="46.02159" lon="5.91063">
        <ele>312</ele>
        <time>2018-05-24T01:38:31Z</time>
      </trkpt>
      <trkpt lat="46.02277" lon="5.91036">
        <ele>318</ele>
        <time>2018-05-24T01:39:31Z</time>
      </trkpt>
      <trkpt lat="46.02303" lon="5.91026">
        <ele>321</ele>
        <time>2018-05-24T01:40:31Z</time>
      </trkpt>
      <trkpt lat="46.02329" lon="5.91006">
        <ele>322</ele>
        <time>2018-05-24T01:41:31Z</time>
      </trkpt>
      <trkpt lat="46.02344" lon="5.90982">
        <ele>325</ele>
        <time>2018-05-24T01:42:31Z</time>
      </trkpt>
      <trkpt lat="46.02358" lon="5.90946">
        <ele>326</ele>
        <time>2018-05-24T01:43:31Z</time>
      </trkpt>
      <trkpt lat="46.02368" lon="5.90899">
        <ele>327</ele>
        <time>2018-05-24T01:44:31Z</time>
      </trkpt>
      <trkpt lat="46.02365" lon="5.90841">
        <ele>325</ele>
        <time>2018-05-24T01:45:31Z</time>
      </trkpt>
      <trkpt lat="46.02307" lon="5.90553">
        <ele>317</ele>
        <time>2018-05-24T01:46:31Z</time>
      </trkpt>
      <trkpt lat="46.0229" lon="5.90449">
        <ele>309</ele>
        <time>2018-05-24T01:47:31Z</time>
      </trkpt>
      <trkpt lat="46.02292" lon="5.90403">
        <ele>307</ele>
        <time>2018-05-24T01:48:31Z</time>
      </trkpt>
      <trkpt lat="46.02301" lon="5.90366">
        <ele>306</ele>
        <time>2018-05-24T01:49:31Z</time>
      </trkpt>
      <trkpt lat="46.02313" lon="5.90338">
        <ele>305</ele>
        <time>2018-05-24T01:50:31Z</time>
      </trkpt>
      <trkpt lat="46.0233" lon="5.9031">
        <ele>305</ele>
        <time>2018-05-24T01:51:31Z</time>
      </trkpt>
      <trkpt lat="46.02363" lon="5.90278">
        <ele>306</ele>
        <time>2018-05-24T01:52:31Z</time>
      </trkpt>
      <trkpt lat="46.02557" lon="5.90131">
        <ele>312</ele>
        <time>2018-05-24T01:53:31Z</time>
      </trkpt>
      <trkpt lat="46.02577" lon="5.9011">
        <ele>312</ele>
        <time>2018-05-24T01:54:31Z</time>
      </trkpt>
      <trkpt lat="46.02596" lon="5.90083">
        <ele>313</ele>
        <time>2018-05-24T01:55:31Z</time>
      </trkpt>
      <trkpt lat="46.02615" lon="5.90041">
        <ele>316</ele>
        <time>2018-05-24T01:56:31Z</time>
      </trkpt>
      <trkpt lat="46.02624" lon="5.90005">
        <ele>317</ele>
        <time>2018-05-24T01:57:31Z</time>
      </trkpt>
      <trkpt lat="46.02629" lon="5.89966">
        <ele>318</ele>
        <time>2018-05-24T01:58:31Z</time>
      </trkpt>
      <trkpt lat="46.02629" lon="5.89934">
        <ele>318</ele>
        <time>2018-05-24T01:59:31Z</time>
      </trkpt>
      <trkpt lat="46.02625" lon="5.89903">
        <ele>317</ele>
        <time>2018-05-24T02:00:31Z</time>
      </trkpt>
      <trkpt lat="46.02575" lon="5.89554">
        <ele>311</ele>
        <time>2018-05-24T02:01:31Z</time>
      </trkpt>
      <trkpt lat="46.02571" lon="5.89501">
        <ele>311</ele>
        <time>2018-05-24T02:02:31Z</time>
      </trkpt>
      <trkpt lat="46.02573" lon="5.89472">
        <ele>310</ele>
        <time>2018-05-24T02:03:31Z</time>
      </trkpt>
      <trkpt lat="46.02583" lon="5.8943">
        <ele>308</ele>
        <time>2018-05-24T02:04:31Z</time>
      </trkpt>
      <trkpt lat="46.02605" lon="5.89369">
        <ele>306</ele>
        <time>2018-05-24T02:05:31Z</time>
      </trkpt>
      <trkpt lat="46.0276" lon="5.89035">
        <ele>302</ele>
        <time>2018-05-24T02:06:31Z</time>
      </trkpt>
      <trkpt lat="46.0276" lon="5.89035">
        <ele>302</ele>
        <time>2018-05-24T02:07:31Z</time>
      </trkpt>
      <trkpt lat="46.02754" lon="5.8905">
        <ele>302</ele>
        <time>2018-05-24T02:08:31Z</time>
      </trkpt>
      <trkpt lat="46.02735" lon="5.89035">
        <ele>301</ele>
        <time>2018-05-24T02:09:31Z</time>
      </trkpt>
      <trkpt lat="46.0273" lon="5.89025">
        <ele>300</ele>
        <time>2018-05-24T02:10:31Z</time>
      </trkpt>
      <trkpt lat="46.02729" lon="5.89014">
        <ele>300</ele>
        <time>2018-05-24T02:11:31Z</time>
      </trkpt>
      <trkpt lat="46.0273" lon="5.89002">
        <ele>299</ele>
        <time>2018-05-24T02:12:31Z</time>
      </trkpt>
      <trkpt lat="46.02747" lon="5.88968">
        <ele>300</ele>
        <time>2018-05-24T02:13:31Z</time>
      </trkpt>
      <trkpt lat="46.02752" lon="5.88953">
        <ele>301</ele>
        <time>2018-05-24T02:14:31Z</time>
      </trkpt>
      <trkpt lat="46.02753" lon="5.88933">
        <ele>302</ele>
        <time>2018-05-24T02:15:31Z</time>
      </trkpt>
      <trkpt lat="46.0275" lon="5.88917">
        <ele>303</ele>
        <time>2018-05-24T02:16:31Z</time>
      </trkpt>
      <trkpt lat="46.02728" lon="5.88862">
        <ele>313</ele>
        <time>2018-05-24T02:17:31Z</time>
      </trkpt>
      <trkpt lat="46.02711" lon="5.88834">
        <ele>314</ele>
        <time>2018-05-24T02:18:31Z</time>
      </trkpt>
      <trkpt lat="46.02657" lon="5.88769">
        <ele>309</ele>
        <time>2018-05-24T02:19:31Z</time>
      </trkpt>
      <trkpt lat="46.02569" lon="5.88655">
        <ele>303</ele>
        <time>2018-05-24T02:20:31Z</time>
      </trkpt>
      <trkpt lat="46.02458" lon="5.8852">
        <ele>298</ele>
        <time>2018-05-24T02:21:31Z</time>
      </trkpt>
      <trkpt lat="46.0241" lon="5.88437">
        <ele>297</ele>
        <time>2018-05-24T02:22:31Z</time>
      </trkpt>
      <trkpt lat="46.02401" lon="5.8842">
        <ele>297</ele>
        <time>2018-05-24T02:23:31Z</time>
      </trkpt>
      <trkpt lat="46.02386" lon="5.88385">
        <ele>296</ele>
        <time>2018-05-24T02:24:31Z</time>
      </trkpt>
      <trkpt lat="46.02364" lon="5.88317">
        <ele>294</ele>
        <time>2018-05-24T02:25:31Z</time>
      </trkpt>
      <trkpt lat="46.02217" lon="5.8779">
        <ele>293</ele>
        <time>2018-05-24T02:26:31Z</time>
      </trkpt>
      <trkpt lat="46.02163" lon="5.87602">
        <ele>292</ele>
        <time>2018-05-24T02:27:31Z</time>
      </trkpt>
      <trkpt lat="46.02147" lon="5.87558">
        <ele>292</ele>
        <time>2018-05-24T02:28:31Z</time>
      </trkpt>
      <trkpt lat="46.02117" lon="5.87492">
        <ele>292</ele>
        <time>2018-05-24T02:29:31Z</time>
      </trkpt>
      <trkpt lat="46.01843" lon="5.87001">
        <ele>288</ele>
        <time>2018-05-24T02:30:31Z</time>
      </trkpt>
      <trkpt lat="46.01819" lon="5.86977">
        <ele>287</ele>
        <time>2018-05-24T02:31:31Z</time>
      </trkpt>
      <trkpt lat="46.01794" lon="5.86972">
        <ele>286</ele>
        <time>2018-05-24T02:32:31Z</time>
      </trkpt>
      <trkpt lat="46.01691" lon="5.8699">
        <ele>289</ele>
        <time>2018-05-24T02:33:31Z</time>
      </trkpt>
      <trkpt lat="46.01662" lon="5.86993">
        <ele>292</ele>
        <time>2018-05-24T02:34:31Z</time>
      </trkpt>
      <trkpt lat="46.01635" lon="5.8699">
        <ele>296</ele>
        <time>2018-05-24T02:35:31Z</time>
      </trkpt>
      <trkpt lat="46.01612" lon="5.8698">
        <ele>299</ele>
        <time>2018-05-24T02:36:31Z</time>
      </trkpt>
      <trkpt lat="46.01588" lon="5.86959">
        <ele>300</ele>
        <time>2018-05-24T02:37:31Z</time>
      </trkpt>
      <trkpt lat="46.01509" lon="5.86876">
        <ele>295</ele>
        <time>2018-05-24T02:38:31Z</time>
      </trkpt>
      <trkpt lat="46.01442" lon="5.86824">
        <ele>291</ele>
        <time>2018-05-24T02:39:31Z</time>
      </trkpt>
      <trkpt lat="46.01386" lon="5.8679">
        <ele>290</ele>
        <time>2018-05-24T02:40:31Z</time>
      </trkpt>
      <trkpt lat="46.01328" lon="5.8677">
        <ele>290</ele>
        <time>2018-05-24T02:41:31Z</time>
      </trkpt>
      <trkpt lat="46.01221" lon="5.86745">
        <ele>294</ele>
        <time>2018-05-24T02:42:31Z</time>
      </trkpt>
      <trkpt lat="46.01181" lon="5.86724">
        <ele>295</ele>
        <time>2018-05-24T02:43:31Z</time>
      </trkpt>
      <trkpt lat="46.01029" lon="5.86621">
        <ele>294</ele>
        <time>2018-05-24T02:44:31Z</time>
      </trkpt>
      <trkpt lat="46.00652" lon="5.86409">
        <ele>297</ele>
        <time>2018-05-24T02:45:31Z</time>
      </trkpt>
      <trkpt lat="46.0062" lon="5.86387">
        <ele>299</ele>
        <time>2018-05-24T02:46:31Z</time>
      </trkpt>
      <trkpt lat="46.00587" lon="5.86358">
        <ele>298</ele>
        <time>2018-05-24T02:47:31Z</time>
      </trkpt>
      <trkpt lat="46.00544" lon="5.86299">
        <ele>296</ele>
        <time>2018-05-24T02:48:31Z</time>
      </trkpt>
      <trkpt lat="46.005" lon="5.8625">
        <ele>293</ele>
        <time>2018-05-24T02:49:31Z</time>
      </trkpt>
      <trkpt lat="46.00446" lon="5.86198">
        <ele>290</ele>
        <time>2018-05-24T02:50:31Z</time>
      </trkpt>
      <trkpt lat="46.00322" lon="5.86055">
        <ele>285</ele>
        <time>2018-05-24T02:51:31Z</time>
      </trkpt>
      <trkpt lat="46.00322" lon="5.86055">
        <ele>285</ele>
        <time>2018-05-24T02:52:31Z</time>
      </trkpt>
      <trkpt lat="46.00446" lon="5.86198">
        <ele>290</ele>
        <time>2018-05-24T02:53:31Z</time>
      </trkpt>
      <trkpt lat="46.00433" lon="5.86202">
        <ele>291</ele>
        <time>2018-05-24T02:54:31Z</time>
      </trkpt>
      <trkpt lat="46.00418" lon="5.86194">
        <ele>290</ele>
        <time>2018-05-24T02:55:31Z</time>
      </trkpt>
      <trkpt lat="46.00405" lon="5.86173">
        <ele>289</ele>
        <time>2018-05-24T02:56:31Z</time>
      </trkpt>
      <trkpt lat="46.00387" lon="5.86159">
        <ele>290</ele>
        <time>2018-05-24T02:57:31Z</time>
      </trkpt>
      <trkpt lat="46.00364" lon="5.86148">
        <ele>291</ele>
        <time>2018-05-24T02:58:31Z</time>
      </trkpt>
      <trkpt lat="46.00337" lon="5.8613">
        <ele>292</ele>
        <time>2018-05-24T02:59:31Z</time>
      </trkpt>
      <trkpt lat="46.00308" lon="5.86133">
        <ele>291</ele>
        <time>2018-05-24T03:00:31Z</time>
      </trkpt>
      <trkpt lat="46.00299" lon="5.86153">
        <ele>293</ele>
        <time>2018-05-24T03:01:31Z</time>
      </trkpt>
      <trkpt lat="46.00298" lon="5.8619">
        <ele>295</ele>
        <time>2018-05-24T03:02:31Z</time>
      </trkpt>
      <trkpt lat="46.00307" lon="5.86225">
        <ele>299</ele>
        <time>2018-05-24T03:03:31Z</time>
      </trkpt>
      <trkpt lat="46.00328" lon="5.86256">
        <ele>303</ele>
        <time>2018-05-24T03:04:31Z</time>
      </trkpt>
      <trkpt lat="46.00483" lon="5.86457">
        <ele>321</ele>
        <time>2018-05-24T03:05:31Z</time>
      </trkpt>
      <trkpt lat="46.00538" lon="5.86587">
        <ele>327</ele>
        <time>2018-05-24T03:06:31Z</time>
      </trkpt>
      <trkpt lat="46.00564" lon="5.86633">
        <ele>328</ele>
        <time>2018-05-24T03:07:31Z</time>
      </trkpt>
      <trkpt lat="46.00633" lon="5.86727">
        <ele>328</ele>
        <time>2018-05-24T03:08:31Z</time>
      </trkpt>
      <trkpt lat="46.00732" lon="5.86834">
        <ele>328</ele>
        <time>2018-05-24T03:09:31Z</time>
      </trkpt>
      <trkpt lat="46.00768" lon="5.86877">
        <ele>330</ele>
        <time>2018-05-24T03:10:31Z</time>
      </trkpt>
      <trkpt lat="46.00803" lon="5.86932">
        <ele>332</ele>
        <time>2018-05-24T03:11:31Z</time>
      </trkpt>
      <trkpt lat="46.00822" lon="5.86969">
        <ele>333</ele>
        <time>2018-05-24T03:12:31Z</time>
      </trkpt>
      <trkpt lat="46.0084" lon="5.87011">
        <ele>335</ele>
        <time>2018-05-24T03:13:31Z</time>
      </trkpt>
      <trkpt lat="46.00863" lon="5.87049">
        <ele>337</ele>
        <time>2018-05-24T03:14:31Z</time>
      </trkpt>
      <trkpt lat="46.00955" lon="5.87242">
        <ele>342</ele>
        <time>2018-05-24T03:15:31Z</time>
      </trkpt>
      <trkpt lat="46.00984" lon="5.87364">
        <ele>342</ele>
        <time>2018-05-24T03:16:31Z</time>
      </trkpt>
      <trkpt lat="46.0101" lon="5.87639">
        <ele>347</ele>
        <time>2018-05-24T03:17:31Z</time>
      </trkpt>
      <trkpt lat="46.01029" lon="5.87694">
        <ele>348</ele>
        <time>2018-05-24T03:18:31Z</time>
      </trkpt>
      <trkpt lat="46.01032" lon="5.87742">
        <ele>350</ele>
        <time>2018-05-24T03:19:31Z</time>
      </trkpt>
      <trkpt lat="46.01025" lon="5.87885">
        <ele>359</ele>
        <time>2018-05-24T03:20:31Z</time>
      </trkpt>
      <trkpt lat="46.01058" lon="5.88213">
        <ele>373</ele>
        <time>2018-05-24T03:21:31Z</time>
      </trkpt>
      <trkpt lat="46.01065" lon="5.88304">
        <ele>378</ele>
        <time>2018-05-24T03:22:31Z</time>
      </trkpt>
      <trkpt lat="46.01071" lon="5.88344">
        <ele>381</ele>
        <time>2018-05-24T03:23:31Z</time>
      </trkpt>
      <trkpt lat="46.01074" lon="5.8837">
        <ele>383</ele>
        <time>2018-05-24T03:24:31Z</time>
      </trkpt>
      <trkpt lat="46.01073" lon="5.88393">
        <ele>385</ele>
        <time>2018-05-24T03:25:31Z</time>
      </trkpt>
      <trkpt lat="46.0107" lon="5.88413">
        <ele>386</ele>
        <time>2018-05-24T03:26:31Z</time>
      </trkpt>
      <trkpt lat="46.01063" lon="5.88432">
        <ele>387</ele>
        <time>2018-05-24T03:27:31Z</time>
      </trkpt>
      <trkpt lat="46.01025" lon="5.88518">
        <ele>390</ele>
        <time>2018-05-24T03:28:31Z</time>
      </trkpt>
      <trkpt lat="46.01021" lon="5.88571">
        <ele>394</ele>
        <time>2018-05-24T03:29:31Z</time>
      </trkpt>
      <trkpt lat="46.01019" lon="5.88621">
        <ele>397</ele>
        <time>2018-05-24T03:30:31Z</time>
      </trkpt>
      <trkpt lat="46.01025" lon="5.88618">
        <ele>397</ele>
        <time>2018-05-24T03:31:31Z</time>
      </trkpt>
      <trkpt lat="46.01025" lon="5.88618">
        <ele>397</ele>
        <time>2018-05-24T03:32:31Z</time>
      </trkpt>
      <trkpt lat="46.01019" lon="5.88621">
        <ele>397</ele>
        <time>2018-05-24T03:33:31Z</time>
      </trkpt>
      <trkpt lat="46.00841" lon="5.88858">
        <ele>402</ele>
        <time>2018-05-24T03:34:31Z</time>
      </trkpt>
      <trkpt lat="46.008" lon="5.88895">
        <ele>405</ele>
        <time>2018-05-24T03:35:31Z</time>
      </trkpt>
      <trkpt lat="46.00457" lon="5.89084">
        <ele>412</ele>
        <time>2018-05-24T03:36:31Z</time>
      </trkpt>
      <trkpt lat="46.00451" lon="5.89203">
        <ele>422</ele>
        <time>2018-05-24T03:37:31Z</time>
      </trkpt>
      <trkpt lat="46.00434" lon="5.89254">
        <ele>422</ele>
        <time>2018-05-24T03:38:31Z</time>
      </trkpt>
      <trkpt lat="46.00382" lon="5.89298">
        <ele>423</ele>
        <time>2018-05-24T03:39:31Z</time>
      </trkpt>
      <trkpt lat="46.00326" lon="5.89329">
        <ele>420</ele>
        <time>2018-05-24T03:40:31Z</time>
      </trkpt>
      <trkpt lat="46.00249" lon="5.89345">
        <ele>419</ele>
        <time>2018-05-24T03:41:31Z</time>
      </trkpt>
      <trkpt lat="46.00209" lon="5.89345">
        <ele>425</ele>
        <time>2018-05-24T03:42:31Z</time>
      </trkpt>
      <trkpt lat="46.00185" lon="5.89327">
        <ele>429</ele>
        <time>2018-05-24T03:43:31Z</time>
      </trkpt>
      <trkpt lat="46.00174" lon="5.89291">
        <ele>431</ele>
        <time>2018-05-24T03:44:31Z</time>
      </trkpt>
      <trkpt lat="46.00175" lon="5.89264">
        <ele>432</ele>
        <time>2018-05-24T03:45:31Z</time>
      </trkpt>
      <trkpt lat="46.00197" lon="5.89219">
        <ele>431</ele>
        <time>2018-05-24T03:46:31Z</time>
      </trkpt>
      <trkpt lat="46.00216" lon="5.89198">
        <ele>431</ele>
        <time>2018-05-24T03:47:31Z</time>
      </trkpt>
      <trkpt lat="46.0023" lon="5.89189">
        <ele>430</ele>
        <time>2018-05-24T03:48:31Z</time>
      </trkpt>
      <trkpt lat="46.00254" lon="5.89159">
        <ele>429</ele>
        <time>2018-05-24T03:49:31Z</time>
      </trkpt>
      <trkpt lat="46.00255" lon="5.89129">
        <ele>430</ele>
        <time>2018-05-24T03:50:31Z</time>
      </trkpt>
      <trkpt lat="46.00207" lon="5.88995">
        <ele>442</ele>
        <time>2018-05-24T03:51:31Z</time>
      </trkpt>
      <trkpt lat="46.00153" lon="5.8899">
        <ele>449</ele>
        <time>2018-05-24T03:52:31Z</time>
      </trkpt>
      <trkpt lat="46.00132" lon="5.8895">
        <ele>450</ele>
        <time>2018-05-24T03:53:31Z</time>
      </trkpt>
      <trkpt lat="46.00102" lon="5.88857">
        <ele>453</ele>
        <time>2018-05-24T03:54:31Z</time>
      </trkpt>
      <trkpt lat="46.00086" lon="5.88836">
        <ele>455</ele>
        <time>2018-05-24T03:55:31Z</time>
      </trkpt>
      <trkpt lat="46.00059" lon="5.88836">
        <ele>458</ele>
        <time>2018-05-24T03:56:31Z</time>
      </trkpt>
      <trkpt lat="46.00032" lon="5.8886">
        <ele>460</ele>
        <time>2018-05-24T03:57:31Z</time>
      </trkpt>
      <trkpt lat="45.99987" lon="5.88892">
        <ele>464</ele>
        <time>2018-05-24T03:58:31Z</time>
      </trkpt>
      <trkpt lat="45.99943" lon="5.88916">
        <ele>468</ele>
        <time>2018-05-24T03:59:31Z</time>
      </trkpt>
      <trkpt lat="45.9974" lon="5.88824">
        <ele>483</ele>
        <time>2018-05-24T04:00:31Z</time>
      </trkpt>
      <trkpt lat="45.99656" lon="5.88749">
        <ele>493</ele>
        <time>2018-05-24T04:01:31Z</time>
      </trkpt>
      <trkpt lat="45.99625" lon="5.88713">
        <ele>496</ele>
        <time>2018-05-24T04:02:31Z</time>
      </trkpt>
      <trkpt lat="45.99601" lon="5.88705">
        <ele>499</ele>
        <time>2018-05-24T04:03:31Z</time>
      </trkpt>
      <trkpt lat="45.996" lon="5.88709">
        <ele>499</ele>
        <time>2018-05-24T04:04:31Z</time>
      </trkpt>
      <trkpt lat="45.996" lon="5.88709">
        <ele>499</ele>
        <time>2018-05-24T04:05:31Z</time>
      </trkpt>
      <trkpt lat="45.99545" lon="5.89029">
        <ele>512</ele>
        <time>2018-05-24T04:06:31Z</time>
      </trkpt>
      <trkpt lat="45.99516" lon="5.8959">
        <ele>510</ele>
        <time>2018-05-24T04:07:31Z</time>
      </trkpt>
      <trkpt lat="45.99512" lon="5.89646">
        <ele>510</ele>
        <time>2018-05-24T04:08:31Z</time>
      </trkpt>
      <trkpt lat="45.99503" lon="5.89705">
        <ele>511</ele>
        <time>2018-05-24T04:09:31Z</time>
      </trkpt>
      <trkpt lat="45.99477" lon="5.89794">
        <ele>511</ele>
        <time>2018-05-24T04:10:31Z</time>
      </trkpt>
      <trkpt lat="45.99401" lon="5.89941">
        <ele>511</ele>
        <time>2018-05-24T04:11:31Z</time>
      </trkpt>
      <trkpt lat="45.99361" lon="5.90035">
        <ele>513</ele>
        <time>2018-05-24T04:12:31Z</time>
      </trkpt>
      <trkpt lat="45.99302" lon="5.90295">
        <ele>512</ele>
        <time>2018-05-24T04:13:31Z</time>
      </trkpt>
      <trkpt lat="45.9929" lon="5.90334">
        <ele>512</ele>
        <time>2018-05-24T04:14:31Z</time>
      </trkpt>
      <trkpt lat="45.99274" lon="5.90365">
        <ele>512</ele>
        <time>2018-05-24T04:15:31Z</time>
      </trkpt>
      <trkpt lat="45.99257" lon="5.90392">
        <ele>512</ele>
        <time>2018-05-24T04:16:31Z</time>
      </trkpt>
      <trkpt lat="45.99227" lon="5.90414">
        <ele>512</ele>
        <time>2018-05-24T04:17:31Z</time>
      </trkpt>
      <trkpt lat="45.99197" lon="5.90428">
        <ele>513</ele>
        <time>2018-05-24T04:18:31Z</time>
      </trkpt>
      <trkpt lat="45.99174" lon="5.90435">
        <ele>514</ele>
        <time>2018-05-24T04:19:31Z</time>
      </trkpt>
      <trkpt lat="45.99111" lon="5.9045">
        <ele>512</ele>
        <time>2018-05-24T04:20:31Z</time>
      </trkpt>
      <trkpt lat="45.99079" lon="5.90454">
        <ele>512</ele>
        <time>2018-05-24T04:21:31Z</time>
      </trkpt>
      <trkpt lat="45.99056" lon="5.9045">
        <ele>513</ele>
        <time>2018-05-24T04:22:31Z</time>
      </trkpt>
      <trkpt lat="45.98991" lon="5.90426">
        <ele>517</ele>
        <time>2018-05-24T04:23:31Z</time>
      </trkpt>
      <trkpt lat="45.98957" lon="5.90414">
        <ele>519</ele>
        <time>2018-05-24T04:24:31Z</time>
      </trkpt>
      <trkpt lat="45.98941" lon="5.90412">
        <ele>520</ele>
        <time>2018-05-24T04:25:31Z</time>
      </trkpt>
      <trkpt lat="45.98927" lon="5.90414">
        <ele>520</ele>
        <time>2018-05-24T04:26:31Z</time>
      </trkpt>
      <trkpt lat="45.98861" lon="5.90437">
        <ele>523</ele>
        <time>2018-05-24T04:27:31Z</time>
      </trkpt>
      <trkpt lat="45.98843" lon="5.90439">
        <ele>524</ele>
        <time>2018-05-24T04:28:31Z</time>
      </trkpt>
      <trkpt lat="45.98819" lon="5.90434">
        <ele>527</ele>
        <time>2018-05-24T04:29:31Z</time>
      </trkpt>
      <trkpt lat="45.98799" lon="5.90426">
        <ele>531</ele>
        <time>2018-05-24T04:30:31Z</time>
      </trkpt>
      <trkpt lat="45.98782" lon="5.90413">
        <ele>534</ele>
        <time>2018-05-24T04:31:31Z</time>
      </trkpt>
      <trkpt lat="45.9872" lon="5.90328">
        <ele>546</ele>
        <time>2018-05-24T04:32:31Z</time>
      </trkpt>
      <trkpt lat="45.98706" lon="5.90331">
        <ele>547</ele>
        <time>2018-05-24T04:33:31Z</time>
      </trkpt>
      <trkpt lat="45.98679" lon="5.9037">
        <ele>549</ele>
        <time>2018-05-24T04:34:31Z</time>
      </trkpt>
      <trkpt lat="45.98609" lon="5.90376">
        <ele>556</ele>
        <time>2018-05-24T04:35:31Z</time>
      </trkpt>
      <trkpt lat="45.98506" lon="5.90431">
        <ele>563</ele>
        <time>2018-05-24T04:36:31Z</time>
      </trkpt>
      <trkpt lat="45.98479" lon="5.90441">
        <ele>563</ele>
        <time>2018-05-24T04:37:31Z</time>
      </trkpt>
      <trkpt lat="45.98451" lon="5.90437">
        <ele>564</ele>
        <time>2018-05-24T04:38:31Z</time>
      </trkpt>
      <trkpt lat="45.98423" lon="5.90426">
        <ele>566</ele>
        <time>2018-05-24T04:39:31Z</time>
      </trkpt>
      <trkpt lat="45.98384" lon="5.90395">
        <ele>570</ele>
        <time>2018-05-24T04:40:31Z</time>
      </trkpt>
      <trkpt lat="45.98364" lon="5.90374">
        <ele>571</ele>
        <time>2018-05-24T04:41:31Z</time>
      </trkpt>
      <trkpt lat="45.98352" lon="5.9037">
        <ele>572</ele>
        <time>2018-05-24T04:42:31Z</time>
      </trkpt>
      <trkpt lat="45.98342" lon="5.9037">
        <ele>572</ele>
        <time>2018-05-24T04:43:31Z</time>
      </trkpt>
      <trkpt lat="45.98324" lon="5.90384">
        <ele>572</ele>
        <time>2018-05-24T04:44:31Z</time>
      </trkpt>
      <trkpt lat="45.98292" lon="5.90428">
        <ele>573</ele>
        <time>2018-05-24T04:45:31Z</time>
      </trkpt>
      <trkpt lat="45.98273" lon="5.90444">
        <ele>573</ele>
        <time>2018-05-24T04:46:31Z</time>
      </trkpt>
      <trkpt lat="45.98242" lon="5.90449">
        <ele>576</ele>
        <time>2018-05-24T04:47:31Z</time>
      </trkpt>
      <trkpt lat="45.98223" lon="5.90459">
        <ele>578</ele>
        <time>2018-05-24T04:48:31Z</time>
      </trkpt>
      <trkpt lat="45.9817" lon="5.90502">
        <ele>582</ele>
        <time>2018-05-24T04:49:31Z</time>
      </trkpt>
      <trkpt lat="45.98156" lon="5.90507">
        <ele>583</ele>
        <time>2018-05-24T04:50:31Z</time>
      </trkpt>
      <trkpt lat="45.98138" lon="5.90508">
        <ele>585</ele>
        <time>2018-05-24T04:51:31Z</time>
      </trkpt>
      <trkpt lat="45.98093" lon="5.90505">
        <ele>590</ele>
        <time>2018-05-24T04:52:31Z</time>
      </trkpt>
      <trkpt lat="45.97945" lon="5.9057">
        <ele>600</ele>
        <time>2018-05-24T04:53:31Z</time>
      </trkpt>
      <trkpt lat="45.97853" lon="5.90548">
        <ele>608</ele>
        <time>2018-05-24T04:54:31Z</time>
      </trkpt>
      <trkpt lat="45.97828" lon="5.90545">
        <ele>610</ele>
        <time>2018-05-24T04:55:31Z</time>
      </trkpt>
      <trkpt lat="45.97682" lon="5.90584">
        <ele>624</ele>
        <time>2018-05-24T04:56:31Z</time>
      </trkpt>
      <trkpt lat="45.97673" lon="5.90594">
        <ele>624</ele>
        <time>2018-05-24T04:57:31Z</time>
      </trkpt>
      <trkpt lat="45.97658" lon="5.90619">
        <ele>624</ele>
        <time>2018-05-24T04:58:31Z</time>
      </trkpt>
      <trkpt lat="45.97649" lon="5.90629">
        <ele>625</ele>
        <time>2018-05-24T04:59:31Z</time>
      </trkpt>
      <trkpt lat="45.97567" lon="5.90646">
        <ele>636</ele>
        <time>2018-05-24T05:00:31Z</time>
      </trkpt>
      <trkpt lat="45.97511" lon="5.90689">
        <ele>640</ele>
        <time>2018-05-24T05:01:31Z</time>
      </trkpt>
      <trkpt lat="45.97416" lon="5.90714">
        <ele>648</ele>
        <time>2018-05-24T05:02:31Z</time>
      </trkpt>
      <trkpt lat="45.97393" lon="5.90715">
        <ele>650</ele>
        <time>2018-05-24T05:03:31Z</time>
      </trkpt>
      <trkpt lat="45.97369" lon="5.90704">
        <ele>651</ele>
        <time>2018-05-24T05:04:31Z</time>
      </trkpt>
      <trkpt lat="45.97268" lon="5.90643">
        <ele>652</ele>
        <time>2018-05-24T05:05:31Z</time>
      </trkpt>
      <trkpt lat="45.97256" lon="5.90644">
        <ele>652</ele>
        <time>2018-05-24T05:06:31Z</time>
      </trkpt>
      <trkpt lat="45.97259" lon="5.90661">
        <ele>652</ele>
        <time>2018-05-24T05:07:31Z</time>
      </trkpt>
      <trkpt lat="45.97259" lon="5.90661">
        <ele>652</ele>
        <time>2018-05-24T05:08:31Z</time>
      </trkpt>
      <trkpt lat="45.97256" lon="5.90644">
        <ele>652</ele>
        <time>2018-05-24T05:09:31Z</time>
      </trkpt>
      <trkpt lat="45.97249" lon="5.90642">
        <ele>652</ele>
        <time>2018-05-24T05:10:31Z</time>
      </trkpt>
      <trkpt lat="45.97228" lon="5.90697">
        <ele>653</ele>
        <time>2018-05-24T05:11:31Z</time>
      </trkpt>
      <trkpt lat="45.9721" lon="5.90758">
        <ele>656</ele>
        <time>2018-05-24T05:12:31Z</time>
      </trkpt>
      <trkpt lat="45.97203" lon="5.90809">
        <ele>658</ele>
        <time>2018-05-24T05:13:31Z</time>
      </trkpt>
      <trkpt lat="45.97208" lon="5.90868">
        <ele>661</ele>
        <time>2018-05-24T05:14:31Z</time>
      </trkpt>
      <trkpt lat="45.97203" lon="5.90897">
        <ele>660</ele>
        <time>2018-05-24T05:15:31Z</time>
      </trkpt>
      <trkpt lat="45.97202" lon="5.90927">
        <ele>659</ele>
        <time>2018-05-24T05:16:31Z</time>
      </trkpt>
      <trkpt lat="45.97205" lon="5.90966">
        <ele>655</ele>
        <time>2018-05-24T05:17:31Z</time>
      </trkpt>
      <trkpt lat="45.97221" lon="5.9098">
        <ele>655</ele>
        <time>2018-05-24T05:18:31Z</time>
      </trkpt>
      <trkpt lat="45.97404" lon="5.91012">
        <ele>668</ele>
        <time>2018-05-24T05:19:31Z</time>
      </trkpt>
      <trkpt lat="45.97492" lon="5.91025">
        <ele>663</ele>
        <time>2018-05-24T05:20:31Z</time>
      </trkpt>
      <trkpt lat="45.97509" lon="5.91022">
        <ele>663</ele>
        <time>2018-05-24T05:21:31Z</time>
      </trkpt>
      <trkpt lat="45.97533" lon="5.91011">
        <ele>665</ele>
        <time>2018-05-24T05:22:31Z</time>
      </trkpt>
      <trkpt lat="45.97546" lon="5.9101">
        <ele>664</ele>
        <time>2018-05-24T05:23:31Z</time>
      </trkpt>
      <trkpt lat="45.97582" lon="5.91013">
        <ele>662</ele>
        <time>2018-05-24T05:24:31Z</time>
      </trkpt>
      <trkpt lat="45.9764" lon="5.91035">
        <ele>658</ele>
        <time>2018-05-24T05:25:31Z</time>
      </trkpt>
      <trkpt lat="45.97791" lon="5.91135">
        <ele>662</ele>
        <time>2018-05-24T05:26:31Z</time>
      </trkpt>
      <trkpt lat="45.97867" lon="5.912">
        <ele>662</ele>
        <time>2018-05-24T05:27:31Z</time>
      </trkpt>
      <trkpt lat="45.97947" lon="5.91219">
        <ele>654</ele>
        <time>2018-05-24T05:28:31Z</time>
      </trkpt>
      <trkpt lat="45.98072" lon="5.91235">
        <ele>643</ele>
        <time>2018-05-24T05:29:31Z</time>
      </trkpt>
      <trkpt lat="45.98091" lon="5.91256">
        <ele>639</ele>
        <time>2018-05-24T05:30:31Z</time>
      </trkpt>
      <trkpt lat="45.981" lon="5.91281">
        <ele>637</ele>
        <time>2018-05-24T05:31:31Z</time>
      </trkpt>
      <trkpt lat="45.98109" lon="5.91358">
        <ele>630</ele>
        <time>2018-05-24T05:32:31Z</time>
      </trkpt>
      <trkpt lat="45.98115" lon="5.91373">
        <ele>629</ele>
        <time>2018-05-24T05:33:31Z</time>
      </trkpt>
      <trkpt lat="45.9813" lon="5.91391">
        <ele>628</ele>
        <time>2018-05-24T05:34:31Z</time>
      </trkpt>
      <trkpt lat="45.9813" lon="5.91391">
        <ele>628</ele>
        <time>2018-05-24T05:35:31Z</time>
      </trkpt>
      <trkpt lat="45.9814" lon="5.91405">
        <ele>628</ele>
        <time>2018-05-24T05:36:31Z</time>
      </trkpt>
      <trkpt lat="45.98121" lon="5.91484">
        <ele>628</ele>
        <time>2018-05-24T05:37:31Z</time>
      </trkpt>
      <trkpt lat="45.98126" lon="5.91503">
        <ele>629</ele>
        <time>2018-05-24T05:38:31Z</time>
      </trkpt>
      <trkpt lat="45.98131" lon="5.9153">
        <ele>630</ele>
        <time>2018-05-24T05:39:31Z</time>
      </trkpt>
      <trkpt lat="45.98126" lon="5.91566">
        <ele>629</ele>
        <time>2018-05-24T05:40:31Z</time>
      </trkpt>
      <trkpt lat="45.9813" lon="5.91596">
        <ele>629</ele>
        <time>2018-05-24T05:41:31Z</time>
      </trkpt>
      <trkpt lat="45.9817" lon="5.91648">
        <ele>631</ele>
        <time>2018-05-24T05:42:31Z</time>
      </trkpt>
      <trkpt lat="45.98209" lon="5.91717">
        <ele>631</ele>
        <time>2018-05-24T05:43:31Z</time>
      </trkpt>
      <trkpt lat="45.98225" lon="5.918">
        <ele>630</ele>
        <time>2018-05-24T05:44:31Z</time>
      </trkpt>
      <trkpt lat="45.98222" lon="5.9183">
        <ele>630</ele>
        <time>2018-05-24T05:45:31Z</time>
      </trkpt>
      <trkpt lat="45.98208" lon="5.91889">
        <ele>629</ele>
        <time>2018-05-24T05:46:31Z</time>
      </trkpt>
      <trkpt lat="45.98179" lon="5.91968">
        <ele>627</ele>
        <time>2018-05-24T05:47:31Z</time>
      </trkpt>
      <trkpt lat="45.98181" lon="5.9197">
        <ele>627</ele>
        <time>2018-05-24T05:48:31Z</time>
      </trkpt>
      <trkpt lat="45.98172" lon="5.9202">
        <ele>627</ele>
        <time>2018-05-24T05:49:31Z</time>
      </trkpt>
      <trkpt lat="45.98175" lon="5.92072">
        <ele>628</ele>
        <time>2018-05-24T05:50:31Z</time>
      </trkpt>
      <trkpt lat="45.98194" lon="5.92122">
        <ele>628</ele>
        <time>2018-05-24T05:51:31Z</time>
      </trkpt>
      <trkpt lat="45.98238" lon="5.92186">
        <ele>630</ele>
        <time>2018-05-24T05:52:31Z</time>
      </trkpt>
      <trkpt lat="45.98279" lon="5.92329">
        <ele>627</ele>
        <time>2018-05-24T05:53:31Z</time>
      </trkpt>
      <trkpt lat="45.98291" lon="5.92432">
        <ele>622</ele>
        <time>2018-05-24T05:54:31Z</time>
      </trkpt>
      <trkpt lat="45.98286" lon="5.92507">
        <ele>620</ele>
        <time>2018-05-24T05:55:31Z</time>
      </trkpt>
      <trkpt lat="45.98223" lon="5.92743">
        <ele>609</ele>
        <time>2018-05-24T05:56:31Z</time>
      </trkpt>
      <trkpt lat="45.98213" lon="5.92807">
        <ele>607</ele>
        <time>2018-05-24T05:57:31Z</time>
      </trkpt>
      <trkpt lat="45.98227" lon="5.92858">
        <ele>603</ele>
        <time>2018-05-24T05:58:31Z</time>
      </trkpt>
      <trkpt lat="45.98271" lon="5.92915">
        <ele>602</ele>
        <time>2018-05-24T05:59:31Z</time>
      </trkpt>
      <trkpt lat="45.98304" lon="5.92962">
        <ele>601</ele>
        <time>2018-05-24T06:00:31Z</time>
      </trkpt>
      <trkpt lat="45.98307" lon="5.92999">
        <ele>601</ele>
        <time>2018-05-24T06:01:31Z</time>
      </trkpt>
      <trkpt lat="45.98221" lon="5.93145">
        <ele>594</ele>
        <time>2018-05-24T06:02:31Z</time>
      </trkpt>
      <trkpt lat="45.98186" lon="5.93173">
        <ele>591</ele>
        <time>2018-05-24T06:03:31Z</time>
      </trkpt>
      <trkpt lat="45.98165" lon="5.9321">
        <ele>590</ele>
        <time>2018-05-24T06:04:31Z</time>
      </trkpt>
      <trkpt lat="45.98162" lon="5.93254">
        <ele>590</ele>
        <time>2018-05-24T06:05:31Z</time>
      </trkpt>
      <trkpt lat="45.98174" lon="5.93302">
        <ele>588</ele>
        <time>2018-05-24T06:06:31Z</time>
      </trkpt>
      <trkpt lat="45.98211" lon="5.93345">
        <ele>584</ele>
        <time>2018-05-24T06:07:31Z</time>
      </trkpt>
      <trkpt lat="45.9831" lon="5.93545">
        <ele>569</ele>
        <time>2018-05-24T06:08:31Z</time>
      </trkpt>
      <trkpt lat="45.98331" lon="5.936">
        <ele>567</ele>
        <time>2018-05-24T06:09:31Z</time>
      </trkpt>
      <trkpt lat="45.98345" lon="5.93679">
        <ele>565</ele>
        <time>2018-05-24T06:10:31Z</time>
      </trkpt>
      <trkpt lat="45.98357" lon="5.93716">
        <ele>566</ele>
        <time>2018-05-24T06:11:31Z</time>
      </trkpt>
      <trkpt lat="45.9838" lon="5.93761">
        <ele>568</ele>
        <time>2018-05-24T06:12:31Z</time>
      </trkpt>
      <trkpt lat="45.98379" lon="5.93789">
        <ele>567</ele>
        <time>2018-05-24T06:13:31Z</time>
      </trkpt>
      <trkpt lat="45.98368" lon="5.93814">
        <ele>565</ele>
        <time>2018-05-24T06:14:31Z</time>
      </trkpt>
      <trkpt lat="45.98331" lon="5.93875">
        <ele>558</ele>
        <time>2018-05-24T06:15:31Z</time>
      </trkpt>
      <trkpt lat="45.98288" lon="5.93941">
        <ele>559</ele>
        <time>2018-05-24T06:16:31Z</time>
      </trkpt>
      <trkpt lat="45.98271" lon="5.93964">
        <ele>561</ele>
        <time>2018-05-24T06:17:31Z</time>
      </trkpt>
      <trkpt lat="45.98224" lon="5.93992">
        <ele>565</ele>
        <time>2018-05-24T06:18:31Z</time>
      </trkpt>
      <trkpt lat="45.98209" lon="5.93998">
        <ele>567</ele>
        <time>2018-05-24T06:19:31Z</time>
      </trkpt>
      <trkpt lat="45.98199" lon="5.93996">
        <ele>568</ele>
        <time>2018-05-24T06:20:31Z</time>
      </trkpt>
      <trkpt lat="45.98188" lon="5.9399">
        <ele>569</ele>
        <time>2018-05-24T06:21:31Z</time>
      </trkpt>
      <trkpt lat="45.98152" lon="5.93941">
        <ele>572</ele>
        <time>2018-05-24T06:22:31Z</time>
      </trkpt>
      <trkpt lat="45.98135" lon="5.93926">
        <ele>572</ele>
        <time>2018-05-24T06:23:31Z</time>
      </trkpt>
      <trkpt lat="45.98107" lon="5.93915">
        <ele>573</ele>
        <time>2018-05-24T06:24:31Z</time>
      </trkpt>
      <trkpt lat="45.98044" lon="5.93896">
        <ele>573</ele>
        <time>2018-05-24T06:25:31Z</time>
      </trkpt>
      <trkpt lat="45.97983" lon="5.93883">
        <ele>571</ele>
        <time>2018-05-24T06:26:31Z</time>
      </trkpt>
      <trkpt lat="45.97962" lon="5.93905">
        <ele>571</ele>
        <time>2018-05-24T06:27:31Z</time>
      </trkpt>
      <trkpt lat="45.97943" lon="5.93963">
        <ele>574</ele>
        <time>2018-05-24T06:28:31Z</time>
      </trkpt>
      <trkpt lat="45.9793" lon="5.94022">
        <ele>577</ele>
        <time>2018-05-24T06:29:31Z</time>
      </trkpt>
      <trkpt lat="45.97926" lon="5.94066">
        <ele>578</ele>
        <time>2018-05-24T06:30:31Z</time>
      </trkpt>
      <trkpt lat="45.97921" lon="5.94176">
        <ele>583</ele>
        <time>2018-05-24T06:31:31Z</time>
      </trkpt>
      <trkpt lat="45.97911" lon="5.94562">
        <ele>592</ele>
        <time>2018-05-24T06:32:31Z</time>
      </trkpt>
      <trkpt lat="45.97911" lon="5.94597">
        <ele>593</ele>
        <time>2018-05-24T06:33:31Z</time>
      </trkpt>
      <trkpt lat="45.97915" lon="5.9463">
        <ele>594</ele>
        <time>2018-05-24T06:34:31Z</time>
      </trkpt>
      <trkpt lat="45.97931" lon="5.94703">
        <ele>599</ele>
        <time>2018-05-24T06:35:31Z</time>
      </trkpt>
      <trkpt lat="45.97942" lon="5.94732">
        <ele>601</ele>
        <time>2018-05-24T06:36:31Z</time>
      </trkpt>
      <trkpt lat="45.97955" lon="5.94753">
        <ele>602</ele>
        <time>2018-05-24T06:37:31Z</time>
      </trkpt>
      <trkpt lat="45.98087" lon="5.94845">
        <ele>602</ele>
        <time>2018-05-24T06:38:31Z</time>
      </trkpt>
      <trkpt lat="45.98092" lon="5.94858">
        <ele>602</ele>
        <time>2018-05-24T06:39:31Z</time>
      </trkpt>
      <trkpt lat="45.98096" lon="5.94874">
        <ele>603</ele>
        <time>2018-05-24T06:40:31Z</time>
      </trkpt>
      <trkpt lat="45.98096" lon="5.94893">
        <ele>605</ele>
        <time>2018-05-24T06:41:31Z</time>
      </trkpt>
      <trkpt lat="45.98092" lon="5.94908">
        <ele>607</ele>
        <time>2018-05-24T06:42:31Z</time>
      </trkpt>
      <trkpt lat="45.98081" lon="5.94925">
        <ele>608</ele>
        <time>2018-05-24T06:43:31Z</time>
      </trkpt>
      <trkpt lat="45.98065" lon="5.94932">
        <ele>609</ele>
        <time>2018-05-24T06:44:31Z</time>
      </trkpt>
      <trkpt lat="45.98046" lon="5.94936">
        <ele>610</ele>
        <time>2018-05-24T06:45:31Z</time>
      </trkpt>
      <trkpt lat="45.98008" lon="5.94938">
        <ele>612</ele>
        <time>2018-05-24T06:46:31Z</time>
      </trkpt>
      <trkpt lat="45.97989" lon="5.94945">
        <ele>614</ele>
        <time>2018-05-24T06:47:31Z</time>
      </trkpt>
      <trkpt lat="45.97918" lon="5.95">
        <ele>622</ele>
        <time>2018-05-24T06:48:31Z</time>
      </trkpt>
      <trkpt lat="45.97895" lon="5.95024">
        <ele>624</ele>
        <time>2018-05-24T06:49:31Z</time>
      </trkpt>
      <trkpt lat="45.97887" lon="5.9504">
        <ele>626</ele>
        <time>2018-05-24T06:50:31Z</time>
      </trkpt>
      <trkpt lat="45.97884" lon="5.95071">
        <ele>627</ele>
        <time>2018-05-24T06:51:31Z</time>
      </trkpt>
      <trkpt lat="45.97886" lon="5.95092">
        <ele>627</ele>
        <time>2018-05-24T06:52:31Z</time>
      </trkpt>
      <trkpt lat="45.979" lon="5.95127">
        <ele>628</ele>
        <time>2018-05-24T06:53:31Z</time>
      </trkpt>
      <trkpt lat="45.97906" lon="5.95156">
        <ele>628</ele>
        <time>2018-05-24T06:54:31Z</time>
      </trkpt>
      <trkpt lat="45.97914" lon="5.95249">
        <ele>634</ele>
        <time>2018-05-24T06:55:31Z</time>
      </trkpt>
      <trkpt lat="45.9792" lon="5.95338">
        <ele>633</ele>
        <time>2018-05-24T06:56:31Z</time>
      </trkpt>
      <trkpt lat="45.97906" lon="5.95381">
        <ele>631</ele>
        <time>2018-05-24T06:57:31Z</time>
      </trkpt>
      <trkpt lat="45.97892" lon="5.95396">
        <ele>632</ele>
        <time>2018-05-24T06:58:31Z</time>
      </trkpt>
      <trkpt lat="45.97856" lon="5.95399">
        <ele>640</ele>
        <time>2018-05-24T06:59:31Z</time>
      </trkpt>
      <trkpt lat="45.97842" lon="5.95406">
        <ele>643</ele>
        <time>2018-05-24T07:00:31Z</time>
      </trkpt>
      <trkpt lat="45.97836" lon="5.95427">
        <ele>642</ele>
        <time>2018-05-24T07:01:31Z</time>
      </trkpt>
      <trkpt lat="45.97836" lon="5.95469">
        <ele>640</ele>
        <time>2018-05-24T07:02:31Z</time>
      </trkpt>
      <trkpt lat="45.97866" lon="5.95671">
        <ele>613</ele>
        <time>2018-05-24T07:03:31Z</time>
      </trkpt>
      <trkpt lat="45.97864" lon="5.95715">
        <ele>611</ele>
        <time>2018-05-24T07:04:31Z</time>
      </trkpt>
      <trkpt lat="45.97855" lon="5.9577">
        <ele>609</ele>
        <time>2018-05-24T07:05:31Z</time>
      </trkpt>
      <trkpt lat="45.97833" lon="5.95862">
        <ele>605</ele>
        <time>2018-05-24T07:06:31Z</time>
      </trkpt>
      <trkpt lat="45.97814" lon="5.95921">
        <ele>603</ele>
        <time>2018-05-24T07:07:31Z</time>
      </trkpt>
      <trkpt lat="45.9773" lon="5.96097">
        <ele>599</ele>
        <time>2018-05-24T07:08:31Z</time>
      </trkpt>
      <trkpt lat="45.97688" lon="5.96238">
        <ele>599</ele>
        <time>2018-05-24T07:09:31Z</time>
      </trkpt>
      <trkpt lat="45.97667" lon="5.963">
        <ele>601</ele>
        <time>2018-05-24T07:10:31Z</time>
      </trkpt>
      <trkpt lat="45.97644" lon="5.96343">
        <ele>601</ele>
        <time>2018-05-24T07:11:31Z</time>
      </trkpt>
      <trkpt lat="45.97628" lon="5.96365">
        <ele>602</ele>
        <time>2018-05-24T07:12:31Z</time>
      </trkpt>
      <trkpt lat="45.97592" lon="5.96402">
        <ele>600</ele>
        <time>2018-05-24T07:13:31Z</time>
      </trkpt>
      <trkpt lat="45.97554" lon="5.96432">
        <ele>598</ele>
        <time>2018-05-24T07:14:31Z</time>
      </trkpt>
      <trkpt lat="45.97527" lon="5.9645">
        <ele>595</ele>
        <time>2018-05-24T07:15:31Z</time>
      </trkpt>
      <trkpt lat="45.97487" lon="5.96494">
        <ele>592</ele>
        <time>2018-05-24T07:16:31Z</time>
      </trkpt>
      <trkpt lat="45.97481" lon="5.96513">
        <ele>592</ele>
        <time>2018-05-24T07:17:31Z</time>
      </trkpt>
      <trkpt lat="45.97475" lon="5.96646">
        <ele>595</ele>
        <time>2018-05-24T07:18:31Z</time>
      </trkpt>
      <trkpt lat="45.97478" lon="5.96704">
        <ele>595</ele>
        <time>2018-05-24T07:19:31Z</time>
      </trkpt>
      <trkpt lat="45.97493" lon="5.96815">
        <ele>597</ele>
        <time>2018-05-24T07:20:31Z</time>
      </trkpt>
      <trkpt lat="45.97486" lon="5.96844">
        <ele>597</ele>
        <time>2018-05-24T07:21:31Z</time>
      </trkpt>
      <trkpt lat="45.97431" lon="5.96909">
        <ele>596</ele>
        <time>2018-05-24T07:22:31Z</time>
      </trkpt>
      <trkpt lat="45.97421" lon="5.96932">
        <ele>596</ele>
        <time>2018-05-24T07:23:31Z</time>
      </trkpt>
      <trkpt lat="45.97416" lon="5.96962">
        <ele>597</ele>
        <time>2018-05-24T07:24:31Z</time>
      </trkpt>
      <trkpt lat="45.97415" lon="5.9703">
        <ele>599</ele>
        <time>2018-05-24T07:25:31Z</time>
      </trkpt>
      <trkpt lat="45.974" lon="5.97098">
        <ele>600</ele>
        <time>2018-05-24T07:26:31Z</time>
      </trkpt>
      <trkpt lat="45.97356" lon="5.97235">
        <ele>604</ele>
        <time>2018-05-24T07:27:31Z</time>
      </trkpt>
      <trkpt lat="45.97324" lon="5.97345">
        <ele>612</ele>
        <time>2018-05-24T07:28:31Z</time>
      </trkpt>
      <trkpt lat="45.97272" lon="5.97461">
        <ele>613</ele>
        <time>2018-05-24T07:29:31Z</time>
      </trkpt>
      <trkpt lat="45.97264" lon="5.97485">
        <ele>613</ele>
        <time>2018-05-24T07:30:31Z</time>
      </trkpt>
      <trkpt lat="45.97257" lon="5.97516">
        <ele>613</ele>
        <time>2018-05-24T07:31:31Z</time>
      </trkpt>
      <trkpt lat="45.97249" lon="5.97568">
        <ele>614</ele>
        <time>2018-05-24T07:32:31Z</time>
      </trkpt>
      <trkpt lat="45.97223" lon="5.97779">
        <ele>614</ele>
        <time>2018-05-24T07:33:31Z</time>
      </trkpt>
      <trkpt lat="45.97191" lon="5.98023">
        <ele>608</ele>
        <time>2018-05-24T07:34:31Z</time>
      </trkpt>
      <trkpt lat="45.9717" lon="5.98105">
        <ele>609</ele>
        <time>2018-05-24T07:35:31Z</time>
      </trkpt>
      <trkpt lat="45.97132" lon="5.9816">
        <ele>612</ele>
        <time>2018-05-24T07:36:31Z</time>
      </trkpt>
      <trkpt lat="45.97088" lon="5.98177">
        <ele>614</ele>
        <time>2018-05-24T07:37:31Z</time>
      </trkpt>
      <trkpt lat="45.97043" lon="5.98173">
        <ele>617</ele>
        <time>2018-05-24T07:38:31Z</time>
      </trkpt>
      <trkpt lat="45.96799" lon="5.98112">
        <ele>625</ele>
        <time>2018-05-24T07:39:31Z</time>
      </trkpt>
      <trkpt lat="45.96642" lon="5.98068">
        <ele>629</ele>
        <time>2018-05-24T07:40:31Z</time>
      </trkpt>
      <trkpt lat="45.96604" lon="5.9805">
        <ele>632</ele>
        <time>2018-05-24T07:41:31Z</time>
      </trkpt>
      <trkpt lat="45.96546" lon="5.97993">
        <ele>630</ele>
        <time>2018-05-24T07:42:31Z</time>
      </trkpt>
      <trkpt lat="45.96526" lon="5.97981">
        <ele>631</ele>
        <time>2018-05-24T07:43:31Z</time>
      </trkpt>
      <trkpt lat="45.96507" lon="5.97976">
        <ele>632</ele>
        <time>2018-05-24T07:44:31Z</time>
      </trkpt>
      <trkpt lat="45.96485" lon="5.9799">
        <ele>633</ele>
        <time>2018-05-24T07:45:31Z</time>
      </trkpt>
      <trkpt lat="45.96473" lon="5.98002">
        <ele>633</ele>
        <time>2018-05-24T07:46:31Z</time>
      </trkpt>
      <trkpt lat="45.96468" lon="5.98011">
        <ele>633</ele>
        <time>2018-05-24T07:47:31Z</time>
      </trkpt>
      <trkpt lat="45.96457" lon="5.98061">
        <ele>634</ele>
        <time>2018-05-24T07:48:31Z</time>
      </trkpt>
      <trkpt lat="45.9643" lon="5.98236">
        <ele>640</ele>
        <time>2018-05-24T07:49:31Z</time>
      </trkpt>
      <trkpt lat="45.96432" lon="5.98304">
        <ele>650</ele>
        <time>2018-05-24T07:50:31Z</time>
      </trkpt>
      <trkpt lat="45.96425" lon="5.98322">
        <ele>651</ele>
        <time>2018-05-24T07:51:31Z</time>
      </trkpt>
      <trkpt lat="45.96405" lon="5.98335">
        <ele>651</ele>
        <time>2018-05-24T07:52:31Z</time>
      </trkpt>
      <trkpt lat="45.96346" lon="5.98352">
        <ele>645</ele>
        <time>2018-05-24T07:53:31Z</time>
      </trkpt>
      <trkpt lat="45.96314" lon="5.98374">
        <ele>642</ele>
        <time>2018-05-24T07:54:31Z</time>
      </trkpt>
      <trkpt lat="45.96302" lon="5.984">
        <ele>642</ele>
        <time>2018-05-24T07:55:31Z</time>
      </trkpt>
      <trkpt lat="45.96297" lon="5.98427">
        <ele>643</ele>
        <time>2018-05-24T07:56:31Z</time>
      </trkpt>
      <trkpt lat="45.963" lon="5.98535">
        <ele>644</ele>
        <time>2018-05-24T07:57:31Z</time>
      </trkpt>
      <trkpt lat="45.9631" lon="5.98771">
        <ele>647</ele>
        <time>2018-05-24T07:58:31Z</time>
      </trkpt>
      <trkpt lat="45.96305" lon="5.98832">
        <ele>648</ele>
        <time>2018-05-24T07:59:31Z</time>
      </trkpt>
      <trkpt lat="45.96288" lon="5.98881">
        <ele>648</ele>
        <time>2018-05-24T08:00:31Z</time>
      </trkpt>
      <trkpt lat="45.96156" lon="5.99034">
        <ele>647</ele>
        <time>2018-05-24T08:01:31Z</time>
      </trkpt>
      <trkpt lat="45.96052" lon="5.99115">
        <ele>646</ele>
        <time>2018-05-24T08:02:31Z</time>
      </trkpt>
      <trkpt lat="45.96019" lon="5.99144">
        <ele>645</ele>
        <time>2018-05-24T08:03:31Z</time>
      </trkpt>
      <trkpt lat="45.95996" lon="5.99196">
        <ele>646</ele>
        <time>2018-05-24T08:04:31Z</time>
      </trkpt>
      <trkpt lat="45.95977" lon="5.99303">
        <ele>650</ele>
        <time>2018-05-24T08:05:31Z</time>
      </trkpt>
      <trkpt lat="45.95961" lon="5.99424">
        <ele>654</ele>
        <time>2018-05-24T08:06:31Z</time>
      </trkpt>
      <trkpt lat="45.95955" lon="5.99491">
        <ele>657</ele>
        <time>2018-05-24T08:07:31Z</time>
      </trkpt>
      <trkpt lat="45.96008" lon="5.9964">
        <ele>650</ele>
        <time>2018-05-24T08:08:31Z</time>
      </trkpt>
      <trkpt lat="45.96052" lon="5.99744">
        <ele>647</ele>
        <time>2018-05-24T08:09:31Z</time>
      </trkpt>
      <trkpt lat="45.96099" lon="5.99884">
        <ele>639</ele>
        <time>2018-05-24T08:10:31Z</time>
      </trkpt>
      <trkpt lat="45.961" lon="5.99969">
        <ele>633</ele>
        <time>2018-05-24T08:11:31Z</time>
      </trkpt>
      <trkpt lat="45.961" lon="5.99969">
        <ele>633</ele>
        <time>2018-05-24T08:12:31Z</time>
      </trkpt>
      <trkpt lat="45.96101" lon="6.00016">
        <ele>630</ele>
        <time>2018-05-24T08:13:31Z</time>
      </trkpt>
      <trkpt lat="45.96089" lon="6.00071">
        <ele>627</ele>
        <time>2018-05-24T08:14:31Z</time>
      </trkpt>
      <trkpt lat="45.96072" lon="6.00097">
        <ele>625</ele>
        <time>2018-05-24T08:15:31Z</time>
      </trkpt>
      <trkpt lat="45.96058" lon="6.00127">
        <ele>623</ele>
        <time>2018-05-24T08:16:31Z</time>
      </trkpt>
      <trkpt lat="45.96036" lon="6.0016">
        <ele>622</ele>
        <time>2018-05-24T08:17:31Z</time>
      </trkpt>
      <trkpt lat="45.95974" lon="6.00191">
        <ele>621</ele>
        <time>2018-05-24T08:18:31Z</time>
      </trkpt>
      <trkpt lat="45.95927" lon="6.00234">
        <ele>621</ele>
        <time>2018-05-24T08:19:31Z</time>
      </trkpt>
      <trkpt lat="45.95888" lon="6.00282">
        <ele>621</ele>
        <time>2018-05-24T08:20:31Z</time>
      </trkpt>
      <trkpt lat="45.95826" lon="6.00434">
        <ele>615</ele>
        <time>2018-05-24T08:21:31Z</time>
      </trkpt>
      <trkpt lat="45.95787" lon="6.00476">
        <ele>612</ele>
        <time>2018-05-24T08:22:31Z</time>
      </trkpt>
      <trkpt lat="45.95739" lon="6.00519">
        <ele>608</ele>
        <time>2018-05-24T08:23:31Z</time>
      </trkpt>
      <trkpt lat="45.9564" lon="6.00602">
        <ele>600</ele>
        <time>2018-05-24T08:24:31Z</time>
      </trkpt>
      <trkpt lat="45.95534" lon="6.0068">
        <ele>600</ele>
        <time>2018-05-24T08:25:31Z</time>
      </trkpt>
      <trkpt lat="45.95402" lon="6.00749">
        <ele>600</ele>
        <time>2018-05-24T08:26:31Z</time>
      </trkpt>
      <trkpt lat="45.95302" lon="6.00812">
        <ele>603</ele>
        <time>2018-05-24T08:27:31Z</time>
      </trkpt>
      <trkpt lat="45.95251" lon="6.00871">
        <ele>604</ele>
        <time>2018-05-24T08:28:31Z</time>
      </trkpt>
      <trkpt lat="45.9521" lon="6.00958">
        <ele>604</ele>
        <time>2018-05-24T08:29:31Z</time>
      </trkpt>
      <trkpt lat="45.95095" lon="6.01252">
        <ele>607</ele>
        <time>2018-05-24T08:30:31Z</time>
      </trkpt>
      <trkpt lat="45.95065" lon="6.01395">
        <ele>608</ele>
        <time>2018-05-24T08:31:31Z</time>
      </trkpt>
      <trkpt lat="45.95044" lon="6.01558">
        <ele>604</ele>
        <time>2018-05-24T08:32:31Z</time>
      </trkpt>
      <trkpt lat="45.95026" lon="6.01596">
        <ele>602</ele>
        <time>2018-05-24T08:33:31Z</time>
      </trkpt>
      <trkpt lat="45.95005" lon="6.01616">
        <ele>599</ele>
        <time>2018-05-24T08:34:31Z</time>
      </trkpt>
      <trkpt lat="45.94981" lon="6.01629">
        <ele>597</ele>
        <time>2018-05-24T08:35:31Z</time>
      </trkpt>
      <trkpt lat="45.9491" lon="6.01622">
        <ele>595</ele>
        <time>2018-05-24T08:36:31Z</time>
      </trkpt>
      <trkpt lat="45.94877" lon="6.01626">
        <ele>596</ele>
        <time>2018-05-24T08:37:31Z</time>
      </trkpt>
      <trkpt lat="45.94853" lon="6.01636">
        <ele>596</ele>
        <time>2018-05-24T08:38:31Z</time>
      </trkpt>
      <trkpt lat="45.94833" lon="6.01679">
        <ele>594</ele>
        <time>2018-05-24T08:39:31Z</time>
      </trkpt>
      <trkpt lat="45.94826" lon="6.01817">
        <ele>587</ele>
        <time>2018-05-24T08:40:31Z</time>
      </trkpt>
      <trkpt lat="45.94824" lon="6.01833">
        <ele>586</ele>
        <time>2018-05-24T08:41:31Z</time>
      </trkpt>
      <trkpt lat="45.94815" lon="6.0187">
        <ele>585</ele>
        <time>2018-05-24T08:42:31Z</time>
      </trkpt>
      <trkpt lat="45.9478" lon="6.01978">
        <ele>581</ele>
        <time>2018-05-24T08:43:31Z</time>
      </trkpt>
      <trkpt lat="45.94579" lon="6.02516">
        <ele>555</ele>
        <time>2018-05-24T08:44:31Z</time>
      </trkpt>
      <trkpt lat="45.94541" lon="6.02624">
        <ele>548</ele>
        <time>2018-05-24T08:45:31Z</time>
      </trkpt>
      <trkpt lat="45.94517" lon="6.02655">
        <ele>545</ele>
        <time>2018-05-24T08:46:31Z</time>
      </trkpt>
      <trkpt lat="45.94487" lon="6.02673">
        <ele>543</ele>
        <time>2018-05-24T08:47:31Z</time>
      </trkpt>
      <trkpt lat="45.94433" lon="6.02673">
        <ele>543</ele>
        <time>2018-05-24T08:48:31Z</time>
      </trkpt>
      <trkpt lat="45.94349" lon="6.0268">
        <ele>542</ele>
        <time>2018-05-24T08:49:31Z</time>
      </trkpt>
      <trkpt lat="45.94326" lon="6.02698">
        <ele>540</ele>
        <time>2018-05-24T08:50:31Z</time>
      </trkpt>
      <trkpt lat="45.94313" lon="6.02729">
        <ele>537</ele>
        <time>2018-05-24T08:51:31Z</time>
      </trkpt>
      <trkpt lat="45.94311" lon="6.02797">
        <ele>531</ele>
        <time>2018-05-24T08:52:31Z</time>
      </trkpt>
      <trkpt lat="45.94311" lon="6.02797">
        <ele>531</ele>
        <time>2018-05-24T08:53:31Z</time>
      </trkpt>
      <trkpt lat="45.9431" lon="6.02829">
        <ele>529</ele>
        <time>2018-05-24T08:54:31Z</time>
      </trkpt>
      <trkpt lat="45.94303" lon="6.02859">
        <ele>527</ele>
        <time>2018-05-24T08:55:31Z</time>
      </trkpt>
      <trkpt lat="45.94283" lon="6.02884">
        <ele>527</ele>
        <time>2018-05-24T08:56:31Z</time>
      </trkpt>
      <trkpt lat="45.94264" lon="6.02901">
        <ele>527</ele>
        <time>2018-05-24T08:57:31Z</time>
      </trkpt>
      <trkpt lat="45.9425" lon="6.02923">
        <ele>525</ele>
        <time>2018-05-24T08:58:31Z</time>
      </trkpt>
      <trkpt lat="45.94238" lon="6.02951">
        <ele>523</ele>
        <time>2018-05-24T08:59:31Z</time>
      </trkpt>
      <trkpt lat="45.94203" lon="6.03077">
        <ele>515</ele>
        <time>2018-05-24T09:00:31Z</time>
      </trkpt>
      <trkpt lat="45.942" lon="6.03107">
        <ele>512</ele>
        <time>2018-05-24T09:01:31Z</time>
      </trkpt>
      <trkpt lat="45.94205" lon="6.03131">
        <ele>510</ele>
        <time>2018-05-24T09:02:31Z</time>
      </trkpt>
      <trkpt lat="45.94219" lon="6.03154">
        <ele>507</ele>
        <time>2018-05-24T09:03:31Z</time>
      </trkpt>
      <trkpt lat="45.94312" lon="6.03237">
        <ele>505</ele>
        <time>2018-05-24T09:04:31Z</time>
      </trkpt>
      <trkpt lat="45.94395" lon="6.03303">
        <ele>505</ele>
        <time>2018-05-24T09:05:31Z</time>
      </trkpt>
      <trkpt lat="45.94432" lon="6.03334">
        <ele>505</ele>
        <time>2018-05-24T09:06:31Z</time>
      </trkpt>
      <trkpt lat="45.94481" lon="6.03386">
        <ele>503</ele>
        <time>2018-05-24T09:07:31Z</time>
      </trkpt>
      <trkpt lat="45.94529" lon="6.03452">
        <ele>503</ele>
        <time>2018-05-24T09:08:31Z</time>
      </trkpt>
      <trkpt lat="45.94545" lon="6.03464">
        <ele>503</ele>
        <time>2018-05-24T09:09:31Z</time>
      </trkpt>
      <trkpt lat="45.94563" lon="6.03473">
        <ele>503</ele>
        <time>2018-05-24T09:10:31Z</time>
      </trkpt>
      <trkpt lat="45.94583" lon="6.03474">
        <ele>504</ele>
        <time>2018-05-24T09:11:31Z</time>
      </trkpt>
      <trkpt lat="45.94617" lon="6.03472">
        <ele>502</ele>
        <time>2018-05-24T09:12:31Z</time>
      </trkpt>
      <trkpt lat="45.94635" lon="6.03474">
        <ele>500</ele>
        <time>2018-05-24T09:13:31Z</time>
      </trkpt>
      <trkpt lat="45.94659" lon="6.03483">
        <ele>499</ele>
        <time>2018-05-24T09:14:31Z</time>
      </trkpt>
      <trkpt lat="45.94675" lon="6.03497">
        <ele>499</ele>
        <time>2018-05-24T09:15:31Z</time>
      </trkpt>
      <trkpt lat="45.94692" lon="6.03519">
        <ele>496</ele>
        <time>2018-05-24T09:16:31Z</time>
      </trkpt>
      <trkpt lat="45.94706" lon="6.03553">
        <ele>494</ele>
        <time>2018-05-24T09:17:31Z</time>
      </trkpt>
      <trkpt lat="45.94747" lon="6.03815">
        <ele>486</ele>
        <time>2018-05-24T09:18:31Z</time>
      </trkpt>
      <trkpt lat="45.9475" lon="6.03841">
        <ele>486</ele>
        <time>2018-05-24T09:19:31Z</time>
      </trkpt>
      <trkpt lat="45.94752" lon="6.03871">
        <ele>484</ele>
        <time>2018-05-24T09:20:31Z</time>
      </trkpt>
      <trkpt lat="45.94755" lon="6.03889">
        <ele>482</ele>
        <time>2018-05-24T09:21:31Z</time>
      </trkpt>
      <trkpt lat="45.94752" lon="6.0389">
        <ele>483</ele>
        <time>2018-05-24T09:22:31Z</time>
      </trkpt>
      <trkpt lat="45.94747" lon="6.03896">
        <ele>482</ele>
        <time>2018-05-24T09:23:31Z</time>
      </trkpt>
      <trkpt lat="45.94746" lon="6.039">
        <ele>482</ele>
        <time>2018-05-24T09:24:31Z</time>
      </trkpt>
      <trkpt lat="45.94746" lon="6.03909">
        <ele>482</ele>
        <time>2018-05-24T09:25:31Z</time>
      </trkpt>
      <trkpt lat="45.94753" lon="6.03917">
        <ele>481</ele>
        <time>2018-05-24T09:26:31Z</time>
      </trkpt>
      <trkpt lat="45.94747" lon="6.03989">
        <ele>478</ele>
        <time>2018-05-24T09:27:31Z</time>
      </trkpt>
      <trkpt lat="45.94738" lon="6.04193">
        <ele>478</ele>
        <time>2018-05-24T09:28:31Z</time>
      </trkpt>
      <trkpt lat="45.94734" lon="6.04238">
        <ele>477</ele>
        <time>2018-05-24T09:29:31Z</time>
      </trkpt>
      <trkpt lat="45.94718" lon="6.04297">
        <ele>477</ele>
        <time>2018-05-24T09:30:31Z</time>
      </trkpt>
      <trkpt lat="45.94665" lon="6.04454">
        <ele>478</ele>
        <time>2018-05-24T09:31:31Z</time>
      </trkpt>
      <trkpt lat="45.94639" lon="6.04522">
        <ele>478</ele>
        <time>2018-05-24T09:32:31Z</time>
      </trkpt>
      <trkpt lat="45.94635" lon="6.04542">
        <ele>478</ele>
        <time>2018-05-24T09:33:31Z</time>
      </trkpt>
      <trkpt lat="45.94634" lon="6.04574">
        <ele>479</ele>
        <time>2018-05-24T09:34:31Z</time>
      </trkpt>
      <trkpt lat="45.94649" lon="6.04621">
        <ele>478</ele>
        <time>2018-05-24T09:35:31Z</time>
      </trkpt>
      <trkpt lat="45.94657" lon="6.04653">
        <ele>477</ele>
        <time>2018-05-24T09:36:31Z</time>
      </trkpt>
      <trkpt lat="45.9466" lon="6.04694">
        <ele>477</ele>
        <time>2018-05-24T09:37:31Z</time>
      </trkpt>
      <trkpt lat="45.94657" lon="6.04727">
        <ele>477</ele>
        <time>2018-05-24T09:38:31Z</time>
      </trkpt>
      <trkpt lat="45.9465" lon="6.04775">
        <ele>477</ele>
        <time>2018-05-24T09:39:31Z</time>
      </trkpt>
      <trkpt lat="45.94644" lon="6.04795">
        <ele>476</ele>
        <time>2018-05-24T09:40:31Z</time>
      </trkpt>
      <trkpt lat="45.94621" lon="6.04845">
        <ele>476</ele>
        <time>2018-05-24T09:41:31Z</time>
      </trkpt>
      <trkpt lat="45.94625" lon="6.04875">
        <ele>476</ele>
        <time>2018-05-24T09:42:31Z</time>
      </trkpt>
      <trkpt lat="45.94637" lon="6.04903">
        <ele>477</ele>
        <time>2018-05-24T09:43:31Z</time>
      </trkpt>
      <trkpt lat="45.94591" lon="6.04979">
        <ele>476</ele>
        <time>2018-05-24T09:44:31Z</time>
      </trkpt>
      <trkpt lat="45.94551" lon="6.05069">
        <ele>477</ele>
        <time>2018-05-24T09:45:31Z</time>
      </trkpt>
      <trkpt lat="45.94465" lon="6.05304">
        <ele>478</ele>
        <time>2018-05-24T09:46:31Z</time>
      </trkpt>
      <trkpt lat="45.94456" lon="6.05323">
        <ele>478</ele>
        <time>2018-05-24T09:47:31Z</time>
      </trkpt>
      <trkpt lat="45.94448" lon="6.0532">
        <ele>478</ele>
        <time>2018-05-24T09:48:31Z</time>
      </trkpt>
      <trkpt lat="45.94441" lon="6.05323">
        <ele>478</ele>
        <time>2018-05-24T09:49:31Z</time>
      </trkpt>
      <trkpt lat="45.94435" lon="6.0533">
        <ele>479</ele>
        <time>2018-05-24T09:50:31Z</time>
      </trkpt>
      <trkpt lat="45.94432" lon="6.0534">
        <ele>479</ele>
        <time>2018-05-24T09:51:31Z</time>
      </trkpt>
      <trkpt lat="45.94431" lon="6.05348">
        <ele>479</ele>
        <time>2018-05-24T09:52:31Z</time>
      </trkpt>
      <trkpt lat="45.94436" lon="6.05362">
        <ele>480</ele>
        <time>2018-05-24T09:53:31Z</time>
      </trkpt>
      <trkpt lat="45.9441" lon="6.05412">
        <ele>481</ele>
        <time>2018-05-24T09:54:31Z</time>
      </trkpt>
      <trkpt lat="45.94352" lon="6.05511">
        <ele>480</ele>
        <time>2018-05-24T09:55:31Z</time>
      </trkpt>
      <trkpt lat="45.94343" lon="6.05547">
        <ele>479</ele>
        <time>2018-05-24T09:56:31Z</time>
      </trkpt>
      <trkpt lat="45.94334" lon="6.05591">
        <ele>479</ele>
        <time>2018-05-24T09:57:31Z</time>
      </trkpt>
      <trkpt lat="45.94341" lon="6.05733">
        <ele>478</ele>
        <time>2018-05-24T09:58:31Z</time>
      </trkpt>
      <trkpt lat="45.94342" lon="6.0579">
        <ele>475</ele>
        <time>2018-05-24T09:59:31Z</time>
      </trkpt>
      <trkpt lat="45.94339" lon="6.05854">
        <ele>471</ele>
        <time>2018-05-24T10:00:31Z</time>
      </trkpt>
      <trkpt lat="45.94329" lon="6.05908">
        <ele>468</ele>
        <time>2018-05-24T10:01:31Z</time>
      </trkpt>
      <trkpt lat="45.94316" lon="6.05957">
        <ele>466</ele>
        <time>2018-05-24T10:02:31Z</time>
      </trkpt>
      <trkpt lat="45.94298" lon="6.06009">
        <ele>464</ele>
        <time>2018-05-24T10:03:31Z</time>
      </trkpt>
      <trkpt lat="45.94267" lon="6.06085">
        <ele>461</ele>
        <time>2018-05-24T10:04:31Z</time>
      </trkpt>
      <trkpt lat="45.94273" lon="6.06092">
        <ele>462</ele>
        <time>2018-05-24T10:05:31Z</time>
      </trkpt>
      <trkpt lat="45.94283" lon="6.06123">
        <ele>462</ele>
        <time>2018-05-24T10:06:31Z</time>
      </trkpt>
      <trkpt lat="45.94297" lon="6.0636">
        <ele>469</ele>
        <time>2018-05-24T10:07:31Z</time>
      </trkpt>
      <trkpt lat="45.94297" lon="6.06392">
        <ele>473</ele>
        <time>2018-05-24T10:08:31Z</time>
      </trkpt>
      <trkpt lat="45.94274" lon="6.06491">
        <ele>471</ele>
        <time>2018-05-24T10:09:31Z</time>
      </trkpt>
      <trkpt lat="45.9427" lon="6.06514">
        <ele>469</ele>
        <time>2018-05-24T10:10:31Z</time>
      </trkpt>
      <trkpt lat="45.9427" lon="6.06533">
        <ele>468</ele>
        <time>2018-05-24T10:11:31Z</time>
      </trkpt>
      <trkpt lat="45.94276" lon="6.06553">
        <ele>469</ele>
        <time>2018-05-24T10:12:31Z</time>
      </trkpt>
      <trkpt lat="45.94335" lon="6.06716">
        <ele>465</ele>
        <time>2018-05-24T10:13:31Z</time>
      </trkpt>
      <trkpt lat="45.94347" lon="6.06755">
        <ele>465</ele>
        <time>2018-05-24T10:14:31Z</time>
      </trkpt>
      <trkpt lat="45.94353" lon="6.06788">
        <ele>466</ele>
        <time>2018-05-24T10:15:31Z</time>
      </trkpt>
      <trkpt lat="45.94348" lon="6.06789">
        <ele>465</ele>
        <time>2018-05-24T10:16:31Z</time>
      </trkpt>
      <trkpt lat="45.94339" lon="6.06794">
        <ele>464</ele>
        <time>2018-05-24T10:17:31Z</time>
      </trkpt>
      <trkpt lat="45.94333" lon="6.06804">
        <ele>464</ele>
        <time>2018-05-24T10:18:31Z</time>
      </trkpt>
      <trkpt lat="45.9433" lon="6.0682">
        <ele>464</ele>
        <time>2018-05-24T10:19:31Z</time>
      </trkpt>
      <trkpt lat="45.94333" lon="6.06835">
        <ele>464</ele>
        <time>2018-05-24T10:20:31Z</time>
      </trkpt>
      <trkpt lat="45.94341" lon="6.06845">
        <ele>464</ele>
        <time>2018-05-24T10:21:31Z</time>
      </trkpt>
      <trkpt lat="45.94352" lon="6.06849">
        <ele>465</ele>
        <time>2018-05-24T10:22:31Z</time>
      </trkpt>
      <trkpt lat="45.94359" lon="6.06847">
        <ele>466</ele>
        <time>2018-05-24T10:23:31Z</time>
      </trkpt>
      <trkpt lat="45.94364" lon="6.06844">
        <ele>466</ele>
        <time>2018-05-24T10:24:31Z</time>
      </trkpt>
      <trkpt lat="45.9437" lon="6.06832">
        <ele>467</ele>
        <time>2018-05-24T10:25:31Z</time>
      </trkpt>
      <trkpt lat="45.94372" lon="6.06824">
        <ele>467</ele>
        <time>2018-05-24T10:26:31Z</time>
      </trkpt>
      <trkpt lat="45.9439" lon="6.06838">
        <ele>469</ele>
        <time>2018-05-24T10:27:31Z</time>
      </trkpt>
      <trkpt lat="45.94399" lon="6.06848">
        <ele>469</ele>
        <time>2018-05-24T10:28:31Z</time>
      </trkpt>
      <trkpt lat="45.94426" lon="6.06911">
        <ele>469</ele>
        <time>2018-05-24T10:29:31Z</time>
      </trkpt>
      <trkpt lat="45.94443" lon="6.06989">
        <ele>468</ele>
        <time>2018-05-24T10:30:31Z</time>
      </trkpt>
      <trkpt lat="45.94467" lon="6.07065">
        <ele>469</ele>
        <time>2018-05-24T10:31:31Z</time>
      </trkpt>
      <trkpt lat="45.94467" lon="6.07065">
        <ele>469</ele>
        <time>2018-05-24T10:32:31Z</time>
      </trkpt>
      <trkpt lat="45.94463" lon="6.07052">
        <ele>469</ele>
        <time>2018-05-24T10:33:31Z</time>
      </trkpt>
      <trkpt lat="45.94566" lon="6.07069">
        <ele>475</ele>
        <time>2018-05-24T10:34:31Z</time>
      </trkpt>
      <trkpt lat="45.94598" lon="6.07083">
        <ele>477</ele>
        <time>2018-05-24T10:35:31Z</time>
      </trkpt>
      <trkpt lat="45.94611" lon="6.07086">
        <ele>478</ele>
        <time>2018-05-24T10:36:31Z</time>
      </trkpt>
      <trkpt lat="45.94711" lon="6.07091">
        <ele>487</ele>
        <time>2018-05-24T10:37:31Z</time>
      </trkpt>
      <trkpt lat="45.94725" lon="6.07097">
        <ele>488</ele>
        <time>2018-05-24T10:38:31Z</time>
      </trkpt>
      <trkpt lat="45.94731" lon="6.07104">
        <ele>489</ele>
        <time>2018-05-24T10:39:31Z</time>
      </trkpt>
      <trkpt lat="45.94733" lon="6.07112">
        <ele>490</ele>
        <time>2018-05-24T10:40:31Z</time>
      </trkpt>
      <trkpt lat="45.94734" lon="6.07199">
        <ele>494</ele>
        <time>2018-05-24T10:41:31Z</time>
      </trkpt>
      <trkpt lat="45.94744" lon="6.07299">
        <ele>501</ele>
        <time>2018-05-24T10:42:31Z</time>
      </trkpt>
      <trkpt lat="45.94744" lon="6.07328">
        <ele>502</ele>
        <time>2018-05-24T10:43:31Z</time>
      </trkpt>
      <trkpt lat="45.94737" lon="6.07372">
        <ele>505</ele>
        <time>2018-05-24T10:44:31Z</time>
      </trkpt>
      <trkpt lat="45.9473" lon="6.07401">
        <ele>506</ele>
        <time>2018-05-24T10:45:31Z</time>
      </trkpt>
      <trkpt lat="45.94721" lon="6.07427">
        <ele>507</ele>
        <time>2018-05-24T10:46:31Z</time>
      </trkpt>
      <trkpt lat="45.94717" lon="6.07447">
        <ele>507</ele>
        <time>2018-05-24T10:47:31Z</time>
      </trkpt>
      <trkpt lat="45.94716" lon="6.07462">
        <ele>507</ele>
        <time>2018-05-24T10:48:31Z</time>
      </trkpt>
      <trkpt lat="45.94721" lon="6.07503">
        <ele>510</ele>
        <time>2018-05-24T10:49:31Z</time>
      </trkpt>
      <trkpt lat="45.94734" lon="6.07567">
        <ele>512</ele>
        <time>2018-05-24T10:50:31Z</time>
      </trkpt>
      <trkpt lat="45.94741" lon="6.07589">
        <ele>513</ele>
        <time>2018-05-24T10:51:31Z</time>
      </trkpt>
      <trkpt lat="45.94764" lon="6.07623">
        <ele>516</ele>
        <time>2018-05-24T10:52:31Z</time>
      </trkpt>
      <trkpt lat="45.94791" lon="6.07643">
        <ele>520</ele>
        <time>2018-05-24T10:53:31Z</time>
      </trkpt>
      <trkpt lat="45.9481" lon="6.07649">
        <ele>523</ele>
        <time>2018-05-24T10:54:31Z</time>
      </trkpt>
      <trkpt lat="45.9486" lon="6.07652">
        <ele>530</ele>
        <time>2018-05-24T10:55:31Z</time>
      </trkpt>
      <trkpt lat="45.94874" lon="6.07659">
        <ele>532</ele>
        <time>2018-05-24T10:56:31Z</time>
      </trkpt>
      <trkpt lat="45.94911" lon="6.07682">
        <ele>535</ele>
        <time>2018-05-24T10:57:31Z</time>
      </trkpt>
      <trkpt lat="45.94955" lon="6.07715">
        <ele>541</ele>
        <time>2018-05-24T10:58:31Z</time>
      </trkpt>
      <trkpt lat="45.94993" lon="6.07731">
        <ele>545</ele>
        <time>2018-05-24T10:59:31Z</time>
      </trkpt>
      <trkpt lat="45.95057" lon="6.0777">
        <ele>553</ele>
        <time>2018-05-24T11:00:31Z</time>
      </trkpt>
      <trkpt lat="45.95093" lon="6.07789">
        <ele>558</ele>
        <time>2018-05-24T11:01:31Z</time>
      </trkpt>
      <trkpt lat="45.95101" lon="6.07798">
        <ele>558</ele>
        <time>2018-05-24T11:02:31Z</time>
      </trkpt>
      <trkpt lat="45.95112" lon="6.07817">
        <ele>559</ele>
        <time>2018-05-24T11:03:31Z</time>
      </trkpt>
      <trkpt lat="45.95119" lon="6.07821">
        <ele>560</ele>
        <time>2018-05-24T11:04:31Z</time>
      </trkpt>
      <trkpt lat="45.95125" lon="6.0782">
        <ele>562</ele>
        <time>2018-05-24T11:05:31Z</time>
      </trkpt>
      <trkpt lat="45.9513" lon="6.07815">
        <ele>563</ele>
        <time>2018-05-24T11:06:31Z</time>
      </trkpt>
      <trkpt lat="45.95133" lon="6.07807">
        <ele>565</ele>
        <time>2018-05-24T11:07:31Z</time>
      </trkpt>
      <trkpt lat="45.95133" lon="6.07797">
        <ele>566</ele>
        <time>2018-05-24T11:08:31Z</time>
      </trkpt>
      <trkpt lat="45.95129" lon="6.07788">
        <ele>566</ele>
        <time>2018-05-24T11:09:31Z</time>
      </trkpt>
      <trkpt lat="45.95108" lon="6.07768">
        <ele>564</ele>
        <time>2018-05-24T11:10:31Z</time>
      </trkpt>
      <trkpt lat="45.95101" lon="6.07754">
        <ele>564</ele>
        <time>2018-05-24T11:11:31Z</time>
      </trkpt>
      <trkpt lat="45.95093" lon="6.07728">
        <ele>566</ele>
        <time>2018-05-24T11:12:31Z</time>
      </trkpt>
      <trkpt lat="45.95085" lon="6.07708">
        <ele>567</ele>
        <time>2018-05-24T11:13:31Z</time>
      </trkpt>
      <trkpt lat="45.95063" lon="6.07666">
        <ele>568</ele>
        <time>2018-05-24T11:14:31Z</time>
      </trkpt>
      <trkpt lat="45.95059" lon="6.07651">
        <ele>568</ele>
        <time>2018-05-24T11:15:31Z</time>
      </trkpt>
      <trkpt lat="45.95055" lon="6.07596">
        <ele>572</ele>
        <time>2018-05-24T11:16:31Z</time>
      </trkpt>
      <trkpt lat="45.95055" lon="6.07554">
        <ele>575</ele>
        <time>2018-05-24T11:17:31Z</time>
      </trkpt>
      <trkpt lat="45.95071" lon="6.07458">
        <ele>584</ele>
        <time>2018-05-24T11:18:31Z</time>
      </trkpt>
      <trkpt lat="45.95073" lon="6.07412">
        <ele>586</ele>
        <time>2018-05-24T11:19:31Z</time>
      </trkpt>
      <trkpt lat="45.95075" lon="6.07403">
        <ele>586</ele>
        <time>2018-05-24T11:20:31Z</time>
      </trkpt>
      <trkpt lat="45.95082" lon="6.07395">
        <ele>589</ele>
        <time>2018-05-24T11:21:31Z</time>
      </trkpt>
      <trkpt lat="45.9509" lon="6.07398">
        <ele>591</ele>
        <time>2018-05-24T11:22:31Z</time>
      </trkpt>
      <trkpt lat="45.95094" lon="6.07403">
        <ele>592</ele>
        <time>2018-05-24T11:23:31Z</time>
      </trkpt>
      <trkpt lat="45.95098" lon="6.07415">
        <ele>594</ele>
        <time>2018-05-24T11:24:31Z</time>
      </trkpt>
      <trkpt lat="45.951" lon="6.07455">
        <ele>594</ele>
        <time>2018-05-24T11:25:31Z</time>
      </trkpt>
      <trkpt lat="45.95108" lon="6.07492">
        <ele>596</ele>
        <time>2018-05-24T11:26:31Z</time>
      </trkpt>
      <trkpt lat="45.95127" lon="6.07538">
        <ele>599</ele>
        <time>2018-05-24T11:27:31Z</time>
      </trkpt>
      <trkpt lat="45.95153" lon="6.07581">
        <ele>603</ele>
        <time>2018-05-24T11:28:31Z</time>
      </trkpt>
      <trkpt lat="45.95164" lon="6.07593">
        <ele>604</ele>
        <time>2018-05-24T11:29:31Z</time>
      </trkpt>
      <trkpt lat="45.95175" lon="6.07601">
        <ele>605</ele>
        <time>2018-05-24T11:30:31Z</time>
      </trkpt>
      <trkpt lat="45.9519" lon="6.07608">
        <ele>607</ele>
        <time>2018-05-24T11:31:31Z</time>
      </trkpt>
      <trkpt lat="45.95218" lon="6.07616">
        <ele>612</ele>
        <time>2018-05-24T11:32:31Z</time>
      </trkpt>
      <trkpt lat="45.95261" lon="6.07633">
        <ele>618</ele>
        <time>2018-05-24T11:33:31Z</time>
      </trkpt>
      <trkpt lat="45.95339" lon="6.07673">
        <ele>629</ele>
        <time>2018-05-24T11:34:31Z</time>
      </trkpt>
      <trkpt lat="45.95358" lon="6.07686">
        <ele>630</ele>
        <time>2018-05-24T11:35:31Z</time>
      </trkpt>
      <trkpt lat="45.95375" lon="6.07703">
        <ele>629</ele>
        <time>2018-05-24T11:36:31Z</time>
      </trkpt>
      <trkpt lat="45.95395" lon="6.07717">
        <ele>631</ele>
        <time>2018-05-24T11:37:31Z</time>
      </trkpt>
      <trkpt lat="45.95437" lon="6.07738">
        <ele>634</ele>
        <time>2018-05-24T11:38:31Z</time>
      </trkpt>
      <trkpt lat="45.95587" lon="6.07798">
        <ele>650</ele>
        <time>2018-05-24T11:39:31Z</time>
      </trkpt>
      <trkpt lat="45.95613" lon="6.0782">
        <ele>654</ele>
        <time>2018-05-24T11:40:31Z</time>
      </trkpt>
      <trkpt lat="45.95619" lon="6.07821">
        <ele>655</ele>
        <time>2018-05-24T11:41:31Z</time>
      </trkpt>
      <trkpt lat="45.95624" lon="6.07819">
        <ele>656</ele>
        <time>2018-05-24T11:42:31Z</time>
      </trkpt>
      <trkpt lat="45.95627" lon="6.07815">
        <ele>656</ele>
        <time>2018-05-24T11:43:31Z</time>
      </trkpt>
      <trkpt lat="45.95629" lon="6.07805">
        <ele>657</ele>
        <time>2018-05-24T11:44:31Z</time>
      </trkpt>
      <trkpt lat="45.95623" lon="6.07753">
        <ele>657</ele>
        <time>2018-05-24T11:45:31Z</time>
      </trkpt>
      <trkpt lat="45.95626" lon="6.07723">
        <ele>657</ele>
        <time>2018-05-24T11:46:31Z</time>
      </trkpt>
      <trkpt lat="45.95633" lon="6.07688">
        <ele>658</ele>
        <time>2018-05-24T11:47:31Z</time>
      </trkpt>
      <trkpt lat="45.9564" lon="6.07664">
        <ele>659</ele>
        <time>2018-05-24T11:48:31Z</time>
      </trkpt>
      <trkpt lat="45.95658" lon="6.07632">
        <ele>661</ele>
        <time>2018-05-24T11:49:31Z</time>
      </trkpt>
      <trkpt lat="45.95674" lon="6.07611">
        <ele>662</ele>
        <time>2018-05-24T11:50:31Z</time>
      </trkpt>
      <trkpt lat="45.95681" lon="6.07607">
        <ele>663</ele>
        <time>2018-05-24T11:51:31Z</time>
      </trkpt>
      <trkpt lat="45.95724" lon="6.07591">
        <ele>668</ele>
        <time>2018-05-24T11:52:31Z</time>
      </trkpt>
      <trkpt lat="45.95756" lon="6.07582">
        <ele>672</ele>
        <time>2018-05-24T11:53:31Z</time>
      </trkpt>
      <trkpt lat="45.9577" lon="6.07575">
        <ele>674</ele>
        <time>2018-05-24T11:54:31Z</time>
      </trkpt>
      <trkpt lat="45.9578" lon="6.07567">
        <ele>675</ele>
        <time>2018-05-24T11:55:31Z</time>
      </trkpt>
      <trkpt lat="45.95795" lon="6.07548">
        <ele>676</ele>
        <time>2018-05-24T11:56:31Z</time>
      </trkpt>
      <trkpt lat="45.95802" lon="6.07536">
        <ele>677</ele>
        <time>2018-05-24T11:57:31Z</time>
      </trkpt>
      <trkpt lat="45.95817" lon="6.07501">
        <ele>677</ele>
        <time>2018-05-24T11:58:31Z</time>
      </trkpt>
      <trkpt lat="45.95826" lon="6.07493">
        <ele>678</ele>
        <time>2018-05-24T11:59:31Z</time>
      </trkpt>
      <trkpt lat="45.95831" lon="6.07494">
        <ele>679</ele>
        <time>2018-05-24T12:00:31Z</time>
      </trkpt>
      <trkpt lat="45.95836" lon="6.07498">
        <ele>680</ele>
        <time>2018-05-24T12:01:31Z</time>
      </trkpt>
      <trkpt lat="45.9584" lon="6.07505">
        <ele>681</ele>
        <time>2018-05-24T12:02:31Z</time>
      </trkpt>
      <trkpt lat="45.95841" lon="6.07516">
        <ele>682</ele>
        <time>2018-05-24T12:03:31Z</time>
      </trkpt>
      <trkpt lat="45.95831" lon="6.07561">
        <ele>683</ele>
        <time>2018-05-24T12:04:31Z</time>
      </trkpt>
      <trkpt lat="45.95829" lon="6.07588">
        <ele>684</ele>
        <time>2018-05-24T12:05:31Z</time>
      </trkpt>
      <trkpt lat="45.95832" lon="6.07607">
        <ele>685</ele>
        <time>2018-05-24T12:06:31Z</time>
      </trkpt>
      <trkpt lat="45.95844" lon="6.07637">
        <ele>688</ele>
        <time>2018-05-24T12:07:31Z</time>
      </trkpt>
      <trkpt lat="45.95925" lon="6.07814">
        <ele>703</ele>
        <time>2018-05-24T12:08:31Z</time>
      </trkpt>
      <trkpt lat="45.95938" lon="6.07834">
        <ele>705</ele>
        <time>2018-05-24T12:09:31Z</time>
      </trkpt>
      <trkpt lat="45.96022" lon="6.07916">
        <ele>715</ele>
        <time>2018-05-24T12:10:31Z</time>
      </trkpt>
      <trkpt lat="45.9603" lon="6.07925">
        <ele>716</ele>
        <time>2018-05-24T12:11:31Z</time>
      </trkpt>
      <trkpt lat="45.96046" lon="6.07953">
        <ele>717</ele>
        <time>2018-05-24T12:12:31Z</time>
      </trkpt>
      <trkpt lat="45.96059" lon="6.07999">
        <ele>718</ele>
        <time>2018-05-24T12:13:31Z</time>
      </trkpt>
      <trkpt lat="45.96074" lon="6.08087">
        <ele>718</ele>
        <time>2018-05-24T12:14:31Z</time>
      </trkpt>
      <trkpt lat="45.96085" lon="6.08128">
        <ele>720</ele>
        <time>2018-05-24T12:15:31Z</time>
      </trkpt>
      <trkpt lat="45.96134" lon="6.08204">
        <ele>724</ele>
        <time>2018-05-24T12:16:31Z</time>
      </trkpt>
      <trkpt lat="45.96142" lon="6.0821">
        <ele>725</ele>
        <time>2018-05-24T12:17:31Z</time>
      </trkpt>
      <trkpt lat="45.96148" lon="6.0821">
        <ele>725</ele>
        <time>2018-05-24T12:18:31Z</time>
      </trkpt>
      <trkpt lat="45.96154" lon="6.08206">
        <ele>726</ele>
        <time>2018-05-24T12:19:31Z</time>
      </trkpt>
      <trkpt lat="45.96206" lon="6.08122">
        <ele>732</ele>
        <time>2018-05-24T12:20:31Z</time>
      </trkpt>
      <trkpt lat="45.96263" lon="6.08039">
        <ele>742</ele>
        <time>2018-05-24T12:21:31Z</time>
      </trkpt>
      <trkpt lat="45.96271" lon="6.08031">
        <ele>743</ele>
        <time>2018-05-24T12:22:31Z</time>
      </trkpt>
      <trkpt lat="45.96278" lon="6.08029">
        <ele>744</ele>
        <time>2018-05-24T12:23:31Z</time>
      </trkpt>
      <trkpt lat="45.96299" lon="6.0803">
        <ele>745</ele>
        <time>2018-05-24T12:24:31Z</time>
      </trkpt>
      <trkpt lat="45.96305" lon="6.08033">
        <ele>745</ele>
        <time>2018-05-24T12:25:31Z</time>
      </trkpt>
      <trkpt lat="45.96334" lon="6.08054">
        <ele>745</ele>
        <time>2018-05-24T12:26:31Z</time>
      </trkpt>
      <trkpt lat="45.96379" lon="6.08091">
        <ele>743</ele>
        <time>2018-05-24T12:27:31Z</time>
      </trkpt>
      <trkpt lat="45.96473" lon="6.08145">
        <ele>742</ele>
        <time>2018-05-24T12:28:31Z</time>
      </trkpt>
      <trkpt lat="45.96492" lon="6.08161">
        <ele>742</ele>
        <time>2018-05-24T12:29:31Z</time>
      </trkpt>
      <trkpt lat="45.96522" lon="6.08193">
        <ele>742</ele>
        <time>2018-05-24T12:30:31Z</time>
      </trkpt>
      <trkpt lat="45.96529" lon="6.08205">
        <ele>742</ele>
        <time>2018-05-24T12:31:31Z</time>
      </trkpt>
      <trkpt lat="45.96545" lon="6.08257">
        <ele>739</ele>
        <time>2018-05-24T12:32:31Z</time>
      </trkpt>
      <trkpt lat="45.96553" lon="6.0828">
        <ele>738</ele>
        <time>2018-05-24T12:33:31Z</time>
      </trkpt>
      <trkpt lat="45.96558" lon="6.08286">
        <ele>738</ele>
        <time>2018-05-24T12:34:31Z</time>
      </trkpt>
      <trkpt lat="45.96608" lon="6.08311">
        <ele>744</ele>
        <time>2018-05-24T12:35:31Z</time>
      </trkpt>
      <trkpt lat="45.96642" lon="6.08331">
        <ele>748</ele>
        <time>2018-05-24T12:36:31Z</time>
      </trkpt>
      <trkpt lat="45.96721" lon="6.08385">
        <ele>751</ele>
        <time>2018-05-24T12:37:31Z</time>
      </trkpt>
      <trkpt lat="45.96738" lon="6.08394">
        <ele>752</ele>
        <time>2018-05-24T12:38:31Z</time>
      </trkpt>
      <trkpt lat="45.9676" lon="6.08397">
        <ele>753</ele>
        <time>2018-05-24T12:39:31Z</time>
      </trkpt>
      <trkpt lat="45.96827" lon="6.084">
        <ele>756</ele>
        <time>2018-05-24T12:40:31Z</time>
      </trkpt>
      <trkpt lat="45.96868" lon="6.08399">
        <ele>761</ele>
        <time>2018-05-24T12:41:31Z</time>
      </trkpt>
      <trkpt lat="45.96876" lon="6.08402">
        <ele>762</ele>
        <time>2018-05-24T12:42:31Z</time>
      </trkpt>
      <trkpt lat="45.96896" lon="6.08415">
        <ele>763</ele>
        <time>2018-05-24T12:43:31Z</time>
      </trkpt>
      <trkpt lat="45.96902" lon="6.08425">
        <ele>764</ele>
        <time>2018-05-24T12:44:31Z</time>
      </trkpt>
      <trkpt lat="45.96908" lon="6.08441">
        <ele>765</ele>
        <time>2018-05-24T12:45:31Z</time>
      </trkpt>
      <trkpt lat="45.96913" lon="6.08462">
        <ele>767</ele>
        <time>2018-05-24T12:46:31Z</time>
      </trkpt>
      <trkpt lat="45.96914" lon="6.08488">
        <ele>767</ele>
        <time>2018-05-24T12:47:31Z</time>
      </trkpt>
      <trkpt lat="45.96913" lon="6.08517">
        <ele>768</ele>
        <time>2018-05-24T12:48:31Z</time>
      </trkpt>
      <trkpt lat="45.969" lon="6.08594">
        <ele>769</ele>
        <time>2018-05-24T12:49:31Z</time>
      </trkpt>
      <trkpt lat="45.96899" lon="6.08607">
        <ele>770</ele>
        <time>2018-05-24T12:50:31Z</time>
      </trkpt>
      <trkpt lat="45.96903" lon="6.08622">
        <ele>771</ele>
        <time>2018-05-24T12:51:31Z</time>
      </trkpt>
      <trkpt lat="45.96931" lon="6.08718">
        <ele>773</ele>
        <time>2018-05-24T12:52:31Z</time>
      </trkpt>
      <trkpt lat="45.96931" lon="6.08718">
        <ele>773</ele>
        <time>2018-05-24T12:53:31Z</time>
      </trkpt>
      <trkpt lat="45.96964" lon="6.08811">
        <ele>772</ele>
        <time>2018-05-24T12:54:31Z</time>
      </trkpt>
      <trkpt lat="45.96977" lon="6.0883">
        <ele>773</ele>
        <time>2018-05-24T12:55:31Z</time>
      </trkpt>
      <trkpt lat="45.9699" lon="6.08846">
        <ele>773</ele>
        <time>2018-05-24T12:56:31Z</time>
      </trkpt>
      <trkpt lat="45.97002" lon="6.08854">
        <ele>774</ele>
        <time>2018-05-24T12:57:31Z</time>
      </trkpt>
      <trkpt lat="45.97019" lon="6.08862">
        <ele>774</ele>
        <time>2018-05-24T12:58:31Z</time>
      </trkpt>
      <trkpt lat="45.97037" lon="6.08867">
        <ele>775</ele>
        <time>2018-05-24T12:59:31Z</time>
      </trkpt>
      <trkpt lat="45.97053" lon="6.08868">
        <ele>776</ele>
        <time>2018-05-24T13:00:31Z</time>
      </trkpt>
      <trkpt lat="45.97068" lon="6.08863">
        <ele>777</ele>
        <time>2018-05-24T13:01:31Z</time>
      </trkpt>
      <trkpt lat="45.9717" lon="6.08815">
        <ele>781</ele>
        <time>2018-05-24T13:02:31Z</time>
      </trkpt>
      <trkpt lat="45.97218" lon="6.08798">
        <ele>783</ele>
        <time>2018-05-24T13:03:31Z</time>
      </trkpt>
      <trkpt lat="45.97279" lon="6.08785">
        <ele>790</ele>
        <time>2018-05-24T13:04:31Z</time>
      </trkpt>
      <trkpt lat="45.9729" lon="6.08786">
        <ele>791</ele>
        <time>2018-05-24T13:05:31Z</time>
      </trkpt>
      <trkpt lat="45.97302" lon="6.08791">
        <ele>792</ele>
        <time>2018-05-24T13:06:31Z</time>
      </trkpt>
      <trkpt lat="45.97313" lon="6.088">
        <ele>792</ele>
        <time>2018-05-24T13:07:31Z</time>
      </trkpt>
      <trkpt lat="45.97327" lon="6.08827">
        <ele>789</ele>
        <time>2018-05-24T13:08:31Z</time>
      </trkpt>
      <trkpt lat="45.97353" lon="6.08982">
        <ele>785</ele>
        <time>2018-05-24T13:09:31Z</time>
      </trkpt>
      <trkpt lat="45.9736" lon="6.09004">
        <ele>785</ele>
        <time>2018-05-24T13:10:31Z</time>
      </trkpt>
      <trkpt lat="45.97378" lon="6.09031">
        <ele>785</ele>
        <time>2018-05-24T13:11:31Z</time>
      </trkpt>
      <trkpt lat="45.97431" lon="6.09092">
        <ele>786</ele>
        <time>2018-05-24T13:12:31Z</time>
      </trkpt>
      <trkpt lat="45.97504" lon="6.09144">
        <ele>791</ele>
        <time>2018-05-24T13:13:31Z</time>
      </trkpt>
      <trkpt lat="45.97526" lon="6.09162">
        <ele>791</ele>
        <time>2018-05-24T13:14:31Z</time>
      </trkpt>
      <trkpt lat="45.9757" lon="6.09227">
        <ele>790</ele>
        <time>2018-05-24T13:15:31Z</time>
      </trkpt>
      <trkpt lat="45.9758" lon="6.09232">
        <ele>790</ele>
        <time>2018-05-24T13:16:31Z</time>
      </trkpt>
      <trkpt lat="45.97615" lon="6.09237">
        <ele>793</ele>
        <time>2018-05-24T13:17:31Z</time>
      </trkpt>
      <trkpt lat="45.97627" lon="6.09236">
        <ele>794</ele>
        <time>2018-05-24T13:18:31Z</time>
      </trkpt>
      <trkpt lat="45.97634" lon="6.09243">
        <ele>793</ele>
        <time>2018-05-24T13:19:31Z</time>
      </trkpt>
      <trkpt lat="45.97638" lon="6.09251">
        <ele>792</ele>
        <time>2018-05-24T13:20:31Z</time>
      </trkpt>
      <trkpt lat="45.97649" lon="6.09287">
        <ele>787</ele>
        <time>2018-05-24T13:21:31Z</time>
      </trkpt>
      <trkpt lat="45.97663" lon="6.0932">
        <ele>784</ele>
        <time>2018-05-24T13:22:31Z</time>
      </trkpt>
      <trkpt lat="45.9771" lon="6.09378">
        <ele>785</ele>
        <time>2018-05-24T13:23:31Z</time>
      </trkpt>
      <trkpt lat="45.97739" lon="6.09424">
        <ele>785</ele>
        <time>2018-05-24T13:24:31Z</time>
      </trkpt>
      <trkpt lat="45.9776" lon="6.09463">
        <ele>784</ele>
        <time>2018-05-24T13:25:31Z</time>
      </trkpt>
      <trkpt lat="45.97767" lon="6.09486">
        <ele>782</ele>
        <time>2018-05-24T13:26:31Z</time>
      </trkpt>
      <trkpt lat="45.9777" lon="6.09513">
        <ele>778</ele>
        <time>2018-05-24T13:27:31Z</time>
      </trkpt>
      <trkpt lat="45.97774" lon="6.09524">
        <ele>777</ele>
        <time>2018-05-24T13:28:31Z</time>
      </trkpt>
      <trkpt lat="45.97784" lon="6.09538">
        <ele>776</ele>
        <time>2018-05-24T13:29:31Z</time>
      </trkpt>
      <trkpt lat="45.97839" lon="6.09587">
        <ele>772</ele>
        <time>2018-05-24T13:30:31Z</time>
      </trkpt>
      <trkpt lat="45.97852" lon="6.09605">
        <ele>772</ele>
        <time>2018-05-24T13:31:31Z</time>
      </trkpt>
      <trkpt lat="45.97868" lon="6.09638">
        <ele>771</ele>
        <time>2018-05-24T13:32:31Z</time>
      </trkpt>
      <trkpt lat="45.97877" lon="6.09669">
        <ele>768</ele>
        <time>2018-05-24T13:33:31Z</time>
      </trkpt>
      <trkpt lat="45.97885" lon="6.09784">
        <ele>758</ele>
        <time>2018-05-24T13:34:31Z</time>
      </trkpt>
      <trkpt lat="45.97909" lon="6.09924">
        <ele>750</ele>
        <time>2018-05-24T13:35:31Z</time>
      </trkpt>
      <trkpt lat="45.9791" lon="6.09941">
        <ele>750</ele>
        <time>2018-05-24T13:36:31Z</time>
      </trkpt>
      <trkpt lat="45.97908" lon="6.09954">
        <ele>749</ele>
        <time>2018-05-24T13:37:31Z</time>
      </trkpt>
      <trkpt lat="45.9789" lon="6.10018">
        <ele>748</ele>
        <time>2018-05-24T13:38:31Z</time>
      </trkpt>
      <trkpt lat="45.9789" lon="6.1003">
        <ele>748</ele>
        <time>2018-05-24T13:39:31Z</time>
      </trkpt>
      <trkpt lat="45.97894" lon="6.10081">
        <ele>747</ele>
        <time>2018-05-24T13:40:31Z</time>
      </trkpt>
      <trkpt lat="45.97889" lon="6.10145">
        <ele>743</ele>
        <time>2018-05-24T13:41:31Z</time>
      </trkpt>
      <trkpt lat="45.9793" lon="6.10135">
        <ele>743</ele>
        <time>2018-05-24T13:42:31Z</time>
      </trkpt>
      <trkpt lat="45.97945" lon="6.10139">
        <ele>743</ele>
        <time>2018-05-24T13:43:31Z</time>
      </trkpt>
      <trkpt lat="45.97958" lon="6.10146">
        <ele>742</ele>
        <time>2018-05-24T13:44:31Z</time>
      </trkpt>
      <trkpt lat="45.98083" lon="6.10284">
        <ele>732</ele>
        <time>2018-05-24T13:45:31Z</time>
      </trkpt>
      <trkpt lat="45.9812" lon="6.10311">
        <ele>730</ele>
        <time>2018-05-24T13:46:31Z</time>
      </trkpt>
      <trkpt lat="45.98157" lon="6.10323">
        <ele>729</ele>
        <time>2018-05-24T13:47:31Z</time>
      </trkpt>
      <trkpt lat="45.98189" lon="6.10325">
        <ele>729</ele>
        <time>2018-05-24T13:48:31Z</time>
      </trkpt>
      <trkpt lat="45.98221" lon="6.10321">
        <ele>730</ele>
        <time>2018-05-24T13:49:31Z</time>
      </trkpt>
      <trkpt lat="45.98291" lon="6.10273">
        <ele>734</ele>
        <time>2018-05-24T13:50:31Z</time>
      </trkpt>
      <trkpt lat="45.98312" lon="6.1027">
        <ele>734</ele>
        <time>2018-05-24T13:51:31Z</time>
      </trkpt>
      <trkpt lat="45.98416" lon="6.10272">
        <ele>731</ele>
        <time>2018-05-24T13:52:31Z</time>
      </trkpt>
      <trkpt lat="45.98471" lon="6.10261">
        <ele>733</ele>
        <time>2018-05-24T13:53:31Z</time>
      </trkpt>
      <trkpt lat="45.98533" lon="6.1023">
        <ele>736</ele>
        <time>2018-05-24T13:54:31Z</time>
      </trkpt>
      <trkpt lat="45.98613" lon="6.10183">
        <ele>736</ele>
        <time>2018-05-24T13:55:31Z</time>
      </trkpt>
      <trkpt lat="45.98763" lon="6.1005">
        <ele>738</ele>
        <time>2018-05-24T13:56:31Z</time>
      </trkpt>
      <trkpt lat="45.98797" lon="6.10032">
        <ele>739</ele>
        <time>2018-05-24T13:57:31Z</time>
      </trkpt>
      <trkpt lat="45.98848" lon="6.10019">
        <ele>739</ele>
        <time>2018-05-24T13:58:31Z</time>
      </trkpt>
      <trkpt lat="45.98853" lon="6.10012">
        <ele>740</ele>
        <time>2018-05-24T13:59:31Z</time>
      </trkpt>
    </trkseg>
  </trk>
</gpx>